<?xml version="1.0" encoding="UTF-8" standalone="no" ?>
<gpx xmlns="http://www.topografix.com/GPX/1/1" xmlns:xsi="http://www.w3.org/2001/XMLSchema-instance" xsi:schemaLocation="http://www.topografix.com/GPX/1/1 http://www.topografix.com/GPX/1/1/gpx.xsd" version="1.1" creator="VisuGPX - https://www.visugpx.com">
  <metadata>
    <name>GR4 de Simiane la Rotonde (04) à Céreste (04)</name>
    <desc><![CDATA[Rando du hameau de Berre à Manosque
2ème journée = le 18 juin 2012]]></desc>
  </metadata>
  <trk>
    <name><![CDATA[ACTIVE LOG084523]]></name>
    <trkseg>
      <trkpt lat="43.96983" lon="5.56497">
        <ele>595.621</ele>
        <time>2012-06-18T06:45:23Z</time>
      </trkpt>
      <trkpt lat="43.96983" lon="5.56497">
        <ele>596.493</ele>
        <time>2012-06-18T06:45:38Z</time>
      </trkpt>
      <trkpt lat="43.96983" lon="5.56497">
        <ele>592.963</ele>
        <time>2012-06-18T06:45:46Z</time>
      </trkpt>
      <trkpt lat="43.96983" lon="5.56497">
        <ele>592.963</ele>
        <time>2012-06-18T06:45:47Z</time>
      </trkpt>
      <trkpt lat="43.96983" lon="5.56497">
        <ele>597.516</ele>
        <time>2012-06-18T06:45:48Z</time>
      </trkpt>
    </trkseg>
  </trk>
  <trk>
    <name><![CDATA[ACTIVE LOG084605]]></name>
    <trkseg>
      <trkpt lat="43.97014" lon="5.56496">
        <ele>595.407</ele>
        <time>2012-06-18T06:46:04Z</time>
      </trkpt>
      <trkpt lat="43.97014" lon="5.56496">
        <ele>595.407</ele>
        <time>2012-06-18T06:46:05Z</time>
      </trkpt>
      <trkpt lat="43.97006" lon="5.56497">
        <ele>598.421</ele>
        <time>2012-06-18T06:46:29Z</time>
      </trkpt>
      <trkpt lat="43.97005" lon="5.56496">
        <ele>598.478</ele>
        <time>2012-06-18T06:46:30Z</time>
      </trkpt>
      <trkpt lat="43.97004" lon="5.56495">
        <ele>601.747</ele>
        <time>2012-06-18T06:46:35Z</time>
      </trkpt>
      <trkpt lat="43.97004" lon="5.56495">
        <ele>603.12</ele>
        <time>2012-06-18T06:46:39Z</time>
      </trkpt>
      <trkpt lat="43.97006" lon="5.56495">
        <ele>606.297</ele>
        <time>2012-06-18T06:46:56Z</time>
      </trkpt>
      <trkpt lat="43.97011" lon="5.56502">
        <ele>608.241</ele>
        <time>2012-06-18T06:47:21Z</time>
      </trkpt>
      <trkpt lat="43.97013" lon="5.56504">
        <ele>608.955</ele>
        <time>2012-06-18T06:47:23Z</time>
      </trkpt>
      <trkpt lat="43.9702" lon="5.56534">
        <ele>611.406</ele>
        <time>2012-06-18T06:47:45Z</time>
      </trkpt>
      <trkpt lat="43.97036" lon="5.56565">
        <ele>612.543</ele>
        <time>2012-06-18T06:48:09Z</time>
      </trkpt>
      <trkpt lat="43.97049" lon="5.56581">
        <ele>612.459</ele>
        <time>2012-06-18T06:48:28Z</time>
      </trkpt>
      <trkpt lat="43.97057" lon="5.56591">
        <ele>612.753</ele>
        <time>2012-06-18T06:48:42Z</time>
      </trkpt>
      <trkpt lat="43.97076" lon="5.56612">
        <ele>612.926</ele>
        <time>2012-06-18T06:49:03Z</time>
      </trkpt>
      <trkpt lat="43.97101" lon="5.5663">
        <ele>610.955</ele>
        <time>2012-06-18T06:49:27Z</time>
      </trkpt>
      <trkpt lat="43.97127" lon="5.5665">
        <ele>609.593</ele>
        <time>2012-06-18T06:49:51Z</time>
      </trkpt>
      <trkpt lat="43.97157" lon="5.56688">
        <ele>607.597</ele>
        <time>2012-06-18T06:50:22Z</time>
      </trkpt>
      <trkpt lat="43.97166" lon="5.56732">
        <ele>606.247</ele>
        <time>2012-06-18T06:50:48Z</time>
      </trkpt>
      <trkpt lat="43.9718" lon="5.56771">
        <ele>605.915</ele>
        <time>2012-06-18T06:51:12Z</time>
      </trkpt>
      <trkpt lat="43.97203" lon="5.5682">
        <ele>606.577</ele>
        <time>2012-06-18T06:51:44Z</time>
      </trkpt>
      <trkpt lat="43.97221" lon="5.56856">
        <ele>606.062</ele>
        <time>2012-06-18T06:52:08Z</time>
      </trkpt>
      <trkpt lat="43.97227" lon="5.569">
        <ele>605.753</ele>
        <time>2012-06-18T06:52:33Z</time>
      </trkpt>
      <trkpt lat="43.97228" lon="5.56952">
        <ele>607.23</ele>
        <time>2012-06-18T06:53:02Z</time>
      </trkpt>
      <trkpt lat="43.97231" lon="5.57007">
        <ele>609.564</ele>
        <time>2012-06-18T06:53:36Z</time>
      </trkpt>
      <trkpt lat="43.97229" lon="5.57014">
        <ele>610.164</ele>
        <time>2012-06-18T06:53:41Z</time>
      </trkpt>
      <trkpt lat="43.97214" lon="5.57025">
        <ele>609.678</ele>
        <time>2012-06-18T06:53:56Z</time>
      </trkpt>
      <trkpt lat="43.97178" lon="5.57027">
        <ele>609.166</ele>
        <time>2012-06-18T06:54:25Z</time>
      </trkpt>
      <trkpt lat="43.97142" lon="5.57029">
        <ele>608.174</ele>
        <time>2012-06-18T06:54:54Z</time>
      </trkpt>
      <trkpt lat="43.97117" lon="5.57046">
        <ele>607.092</ele>
        <time>2012-06-18T06:55:18Z</time>
      </trkpt>
      <trkpt lat="43.97091" lon="5.57075">
        <ele>606.071</ele>
        <time>2012-06-18T06:55:44Z</time>
      </trkpt>
      <trkpt lat="43.97059" lon="5.57109">
        <ele>604.093</ele>
        <time>2012-06-18T06:56:15Z</time>
      </trkpt>
      <trkpt lat="43.97038" lon="5.57133">
        <ele>603.018</ele>
        <time>2012-06-18T06:56:36Z</time>
      </trkpt>
      <trkpt lat="43.97003" lon="5.57169">
        <ele>601.428</ele>
        <time>2012-06-18T06:57:10Z</time>
      </trkpt>
      <trkpt lat="43.96979" lon="5.57196">
        <ele>600.341</ele>
        <time>2012-06-18T06:57:34Z</time>
      </trkpt>
      <trkpt lat="43.96947" lon="5.57228">
        <ele>598.839</ele>
        <time>2012-06-18T06:58:06Z</time>
      </trkpt>
      <trkpt lat="43.9692" lon="5.57261">
        <ele>597.583</ele>
        <time>2012-06-18T06:58:34Z</time>
      </trkpt>
      <trkpt lat="43.96912" lon="5.57271">
        <ele>596.605</ele>
        <time>2012-06-18T06:58:52Z</time>
      </trkpt>
      <trkpt lat="43.96902" lon="5.57286">
        <ele>596.518</ele>
        <time>2012-06-18T06:59:10Z</time>
      </trkpt>
      <trkpt lat="43.96881" lon="5.57316">
        <ele>595.439</ele>
        <time>2012-06-18T06:59:34Z</time>
      </trkpt>
      <trkpt lat="43.9686" lon="5.5735">
        <ele>594.51</ele>
        <time>2012-06-18T07:00:00Z</time>
      </trkpt>
      <trkpt lat="43.96843" lon="5.57382">
        <ele>594.046</ele>
        <time>2012-06-18T07:00:25Z</time>
      </trkpt>
      <trkpt lat="43.96823" lon="5.57399">
        <ele>592.861</ele>
        <time>2012-06-18T07:00:47Z</time>
      </trkpt>
      <trkpt lat="43.96811" lon="5.5741">
        <ele>589.688</ele>
        <time>2012-06-18T07:01:02Z</time>
      </trkpt>
      <trkpt lat="43.96799" lon="5.57414">
        <ele>586.833</ele>
        <time>2012-06-18T07:01:19Z</time>
      </trkpt>
      <trkpt lat="43.96791" lon="5.57416">
        <ele>584.909</ele>
        <time>2012-06-18T07:01:28Z</time>
      </trkpt>
      <trkpt lat="43.96772" lon="5.57419">
        <ele>583.534</ele>
        <time>2012-06-18T07:01:47Z</time>
      </trkpt>
      <trkpt lat="43.9675" lon="5.57438">
        <ele>583.349</ele>
        <time>2012-06-18T07:02:10Z</time>
      </trkpt>
      <trkpt lat="43.96727" lon="5.5746">
        <ele>582.703</ele>
        <time>2012-06-18T07:02:34Z</time>
      </trkpt>
      <trkpt lat="43.96697" lon="5.57483">
        <ele>582.414</ele>
        <time>2012-06-18T07:03:03Z</time>
      </trkpt>
      <trkpt lat="43.96667" lon="5.57496">
        <ele>582.16</ele>
        <time>2012-06-18T07:03:30Z</time>
      </trkpt>
      <trkpt lat="43.96661" lon="5.57494">
        <ele>583.09</ele>
        <time>2012-06-18T07:03:37Z</time>
      </trkpt>
      <trkpt lat="43.96633" lon="5.57498">
        <ele>582.141</ele>
        <time>2012-06-18T07:04:01Z</time>
      </trkpt>
      <trkpt lat="43.96621" lon="5.57499">
        <ele>581.922</ele>
        <time>2012-06-18T07:04:12Z</time>
      </trkpt>
      <trkpt lat="43.96602" lon="5.57506">
        <ele>580.953</ele>
        <time>2012-06-18T07:04:30Z</time>
      </trkpt>
      <trkpt lat="43.96579" lon="5.57502">
        <ele>581.22</ele>
        <time>2012-06-18T07:04:51Z</time>
      </trkpt>
      <trkpt lat="43.96562" lon="5.57504">
        <ele>581.066</ele>
        <time>2012-06-18T07:05:07Z</time>
      </trkpt>
      <trkpt lat="43.96545" lon="5.57506">
        <ele>581.778</ele>
        <time>2012-06-18T07:05:23Z</time>
      </trkpt>
      <trkpt lat="43.96523" lon="5.57509">
        <ele>581.274</ele>
        <time>2012-06-18T07:05:42Z</time>
      </trkpt>
      <trkpt lat="43.96496" lon="5.5751">
        <ele>581.447</ele>
        <time>2012-06-18T07:06:05Z</time>
      </trkpt>
      <trkpt lat="43.9647" lon="5.57508">
        <ele>581.264</ele>
        <time>2012-06-18T07:06:27Z</time>
      </trkpt>
      <trkpt lat="43.96449" lon="5.57507">
        <ele>582.535</ele>
        <time>2012-06-18T07:06:45Z</time>
      </trkpt>
      <trkpt lat="43.9643" lon="5.57511">
        <ele>581.207</ele>
        <time>2012-06-18T07:07:06Z</time>
      </trkpt>
      <trkpt lat="43.96428" lon="5.57513">
        <ele>580.223</ele>
        <time>2012-06-18T07:07:22Z</time>
      </trkpt>
      <trkpt lat="43.96421" lon="5.5752">
        <ele>579.355</ele>
        <time>2012-06-18T07:07:43Z</time>
      </trkpt>
      <trkpt lat="43.96418" lon="5.57537">
        <ele>578.456</ele>
        <time>2012-06-18T07:07:58Z</time>
      </trkpt>
      <trkpt lat="43.96412" lon="5.57551">
        <ele>577.823</ele>
        <time>2012-06-18T07:08:13Z</time>
      </trkpt>
      <trkpt lat="43.96396" lon="5.57549">
        <ele>577.626</ele>
        <time>2012-06-18T07:08:34Z</time>
      </trkpt>
      <trkpt lat="43.96382" lon="5.57551">
        <ele>577.219</ele>
        <time>2012-06-18T07:08:49Z</time>
      </trkpt>
      <trkpt lat="43.96374" lon="5.5755">
        <ele>576.42</ele>
        <time>2012-06-18T07:08:56Z</time>
      </trkpt>
      <trkpt lat="43.96368" lon="5.57549">
        <ele>576.28</ele>
        <time>2012-06-18T07:09:03Z</time>
      </trkpt>
      <trkpt lat="43.96361" lon="5.57543">
        <ele>576.233</ele>
        <time>2012-06-18T07:09:19Z</time>
      </trkpt>
      <trkpt lat="43.96347" lon="5.57534">
        <ele>575.838</ele>
        <time>2012-06-18T07:09:35Z</time>
      </trkpt>
      <trkpt lat="43.96337" lon="5.57525">
        <ele>576.079</ele>
        <time>2012-06-18T07:09:52Z</time>
      </trkpt>
      <trkpt lat="43.96332" lon="5.57522">
        <ele>575.414</ele>
        <time>2012-06-18T07:10:03Z</time>
      </trkpt>
      <trkpt lat="43.96328" lon="5.57521">
        <ele>575.426</ele>
        <time>2012-06-18T07:10:07Z</time>
      </trkpt>
      <trkpt lat="43.96321" lon="5.57512">
        <ele>574.813</ele>
        <time>2012-06-18T07:10:16Z</time>
      </trkpt>
      <trkpt lat="43.96316" lon="5.57496">
        <ele>574.84</ele>
        <time>2012-06-18T07:10:31Z</time>
      </trkpt>
      <trkpt lat="43.96314" lon="5.57483">
        <ele>573.489</ele>
        <time>2012-06-18T07:10:42Z</time>
      </trkpt>
      <trkpt lat="43.96313" lon="5.57478">
        <ele>574.646</ele>
        <time>2012-06-18T07:10:48Z</time>
      </trkpt>
      <trkpt lat="43.96301" lon="5.57469">
        <ele>574.653</ele>
        <time>2012-06-18T07:10:57Z</time>
      </trkpt>
      <trkpt lat="43.96299" lon="5.57462">
        <ele>573.525</ele>
        <time>2012-06-18T07:11:01Z</time>
      </trkpt>
      <trkpt lat="43.96293" lon="5.57445">
        <ele>573.155</ele>
        <time>2012-06-18T07:11:14Z</time>
      </trkpt>
      <trkpt lat="43.96277" lon="5.57429">
        <ele>573.217</ele>
        <time>2012-06-18T07:11:31Z</time>
      </trkpt>
      <trkpt lat="43.96268" lon="5.57424">
        <ele>573.33</ele>
        <time>2012-06-18T07:11:40Z</time>
      </trkpt>
      <trkpt lat="43.9625" lon="5.57412">
        <ele>572.524</ele>
        <time>2012-06-18T07:11:57Z</time>
      </trkpt>
      <trkpt lat="43.96245" lon="5.57411">
        <ele>572.465</ele>
        <time>2012-06-18T07:12:02Z</time>
      </trkpt>
      <trkpt lat="43.96227" lon="5.57405">
        <ele>572.336</ele>
        <time>2012-06-18T07:12:21Z</time>
      </trkpt>
      <trkpt lat="43.96213" lon="5.57404">
        <ele>571.746</ele>
        <time>2012-06-18T07:12:34Z</time>
      </trkpt>
      <trkpt lat="43.96196" lon="5.57403">
        <ele>572.769</ele>
        <time>2012-06-18T07:12:51Z</time>
      </trkpt>
      <trkpt lat="43.96176" lon="5.57399">
        <ele>572.809</ele>
        <time>2012-06-18T07:13:09Z</time>
      </trkpt>
      <trkpt lat="43.96161" lon="5.57391">
        <ele>572.752</ele>
        <time>2012-06-18T07:13:25Z</time>
      </trkpt>
      <trkpt lat="43.9616" lon="5.57391">
        <ele>572.651</ele>
        <time>2012-06-18T07:13:26Z</time>
      </trkpt>
      <trkpt lat="43.96158" lon="5.57391">
        <ele>573.323</ele>
        <time>2012-06-18T07:13:28Z</time>
      </trkpt>
      <trkpt lat="43.96142" lon="5.57387">
        <ele>572.589</ele>
        <time>2012-06-18T07:13:43Z</time>
      </trkpt>
      <trkpt lat="43.96128" lon="5.57379">
        <ele>571.82</ele>
        <time>2012-06-18T07:13:59Z</time>
      </trkpt>
      <trkpt lat="43.96113" lon="5.57369">
        <ele>571.484</ele>
        <time>2012-06-18T07:14:15Z</time>
      </trkpt>
      <trkpt lat="43.96096" lon="5.57361">
        <ele>570.934</ele>
        <time>2012-06-18T07:14:31Z</time>
      </trkpt>
      <trkpt lat="43.96081" lon="5.57351">
        <ele>571.336</ele>
        <time>2012-06-18T07:14:48Z</time>
      </trkpt>
      <trkpt lat="43.96068" lon="5.57338">
        <ele>571.901</ele>
        <time>2012-06-18T07:15:04Z</time>
      </trkpt>
      <trkpt lat="43.9606" lon="5.57319">
        <ele>571.325</ele>
        <time>2012-06-18T07:15:20Z</time>
      </trkpt>
      <trkpt lat="43.96052" lon="5.573">
        <ele>570.697</ele>
        <time>2012-06-18T07:15:37Z</time>
      </trkpt>
      <trkpt lat="43.96041" lon="5.57283">
        <ele>570.451</ele>
        <time>2012-06-18T07:15:54Z</time>
      </trkpt>
      <trkpt lat="43.96028" lon="5.5726">
        <ele>568.902</ele>
        <time>2012-06-18T07:16:15Z</time>
      </trkpt>
      <trkpt lat="43.96027" lon="5.57258">
        <ele>569.143</ele>
        <time>2012-06-18T07:16:17Z</time>
      </trkpt>
      <trkpt lat="43.9602" lon="5.5724">
        <ele>568.364</ele>
        <time>2012-06-18T07:16:31Z</time>
      </trkpt>
      <trkpt lat="43.96006" lon="5.57225">
        <ele>567.512</ele>
        <time>2012-06-18T07:16:48Z</time>
      </trkpt>
      <trkpt lat="43.9599" lon="5.5722">
        <ele>566.888</ele>
        <time>2012-06-18T07:17:02Z</time>
      </trkpt>
      <trkpt lat="43.95968" lon="5.57223">
        <ele>566.8</ele>
        <time>2012-06-18T07:17:23Z</time>
      </trkpt>
      <trkpt lat="43.95948" lon="5.57227">
        <ele>567.173</ele>
        <time>2012-06-18T07:17:43Z</time>
      </trkpt>
      <trkpt lat="43.95937" lon="5.57234">
        <ele>567.754</ele>
        <time>2012-06-18T07:17:59Z</time>
      </trkpt>
      <trkpt lat="43.9592" lon="5.57237">
        <ele>567.763</ele>
        <time>2012-06-18T07:18:18Z</time>
      </trkpt>
      <trkpt lat="43.95904" lon="5.5725">
        <ele>568.12</ele>
        <time>2012-06-18T07:18:38Z</time>
      </trkpt>
      <trkpt lat="43.95888" lon="5.57262">
        <ele>566.207</ele>
        <time>2012-06-18T07:18:58Z</time>
      </trkpt>
      <trkpt lat="43.95873" lon="5.57271">
        <ele>564.773</ele>
        <time>2012-06-18T07:19:16Z</time>
      </trkpt>
      <trkpt lat="43.9586" lon="5.57289">
        <ele>565.281</ele>
        <time>2012-06-18T07:19:35Z</time>
      </trkpt>
      <trkpt lat="43.95849" lon="5.57303">
        <ele>565.351</ele>
        <time>2012-06-18T07:19:49Z</time>
      </trkpt>
      <trkpt lat="43.95836" lon="5.57318">
        <ele>565.395</ele>
        <time>2012-06-18T07:20:06Z</time>
      </trkpt>
      <trkpt lat="43.95834" lon="5.57319">
        <ele>565.668</ele>
        <time>2012-06-18T07:20:09Z</time>
      </trkpt>
      <trkpt lat="43.95826" lon="5.5732">
        <ele>564.732</ele>
        <time>2012-06-18T07:20:18Z</time>
      </trkpt>
      <trkpt lat="43.95821" lon="5.5732">
        <ele>563.905</ele>
        <time>2012-06-18T07:20:23Z</time>
      </trkpt>
      <trkpt lat="43.95816" lon="5.57324">
        <ele>563.879</ele>
        <time>2012-06-18T07:20:28Z</time>
      </trkpt>
      <trkpt lat="43.95797" lon="5.57332">
        <ele>563.9</ele>
        <time>2012-06-18T07:20:45Z</time>
      </trkpt>
      <trkpt lat="43.95792" lon="5.57332">
        <ele>564.018</ele>
        <time>2012-06-18T07:20:49Z</time>
      </trkpt>
      <trkpt lat="43.9579" lon="5.57332">
        <ele>563.298</ele>
        <time>2012-06-18T07:20:51Z</time>
      </trkpt>
      <trkpt lat="43.95786" lon="5.57333">
        <ele>563.282</ele>
        <time>2012-06-18T07:20:55Z</time>
      </trkpt>
      <trkpt lat="43.95767" lon="5.57346">
        <ele>561.735</ele>
        <time>2012-06-18T07:21:16Z</time>
      </trkpt>
      <trkpt lat="43.95757" lon="5.57349">
        <ele>562.201</ele>
        <time>2012-06-18T07:21:30Z</time>
      </trkpt>
      <trkpt lat="43.95744" lon="5.57356">
        <ele>561.663</ele>
        <time>2012-06-18T07:21:45Z</time>
      </trkpt>
      <trkpt lat="43.95731" lon="5.57371">
        <ele>561.941</ele>
        <time>2012-06-18T07:22:02Z</time>
      </trkpt>
      <trkpt lat="43.95714" lon="5.57382">
        <ele>561.483</ele>
        <time>2012-06-18T07:22:21Z</time>
      </trkpt>
      <trkpt lat="43.9571" lon="5.57386">
        <ele>561.184</ele>
        <time>2012-06-18T07:22:26Z</time>
      </trkpt>
      <trkpt lat="43.95692" lon="5.5741">
        <ele>560.653</ele>
        <time>2012-06-18T07:22:50Z</time>
      </trkpt>
      <trkpt lat="43.9568" lon="5.57425">
        <ele>560.167</ele>
        <time>2012-06-18T07:23:06Z</time>
      </trkpt>
      <trkpt lat="43.95669" lon="5.57433">
        <ele>560.379</ele>
        <time>2012-06-18T07:23:22Z</time>
      </trkpt>
      <trkpt lat="43.95671" lon="5.57441">
        <ele>561.015</ele>
        <time>2012-06-18T07:23:30Z</time>
      </trkpt>
      <trkpt lat="43.95667" lon="5.57447">
        <ele>561.456</ele>
        <time>2012-06-18T07:23:35Z</time>
      </trkpt>
      <trkpt lat="43.95655" lon="5.57473">
        <ele>561.751</ele>
        <time>2012-06-18T07:23:57Z</time>
      </trkpt>
      <trkpt lat="43.95649" lon="5.57494">
        <ele>563.125</ele>
        <time>2012-06-18T07:24:16Z</time>
      </trkpt>
      <trkpt lat="43.95645" lon="5.57506">
        <ele>565.461</ele>
        <time>2012-06-18T07:24:30Z</time>
      </trkpt>
      <trkpt lat="43.95643" lon="5.57516">
        <ele>565.307</ele>
        <time>2012-06-18T07:24:44Z</time>
      </trkpt>
      <trkpt lat="43.95641" lon="5.57531">
        <ele>565.792</ele>
        <time>2012-06-18T07:24:58Z</time>
      </trkpt>
      <trkpt lat="43.95642" lon="5.57562">
        <ele>564.733</ele>
        <time>2012-06-18T07:25:19Z</time>
      </trkpt>
      <trkpt lat="43.95641" lon="5.57581">
        <ele>561.373</ele>
        <time>2012-06-18T07:25:35Z</time>
      </trkpt>
      <trkpt lat="43.95645" lon="5.57605">
        <ele>559.354</ele>
        <time>2012-06-18T07:26:00Z</time>
      </trkpt>
      <trkpt lat="43.95647" lon="5.57612">
        <ele>559.116</ele>
        <time>2012-06-18T07:26:22Z</time>
      </trkpt>
      <trkpt lat="43.95651" lon="5.57626">
        <ele>556.144</ele>
        <time>2012-06-18T07:26:37Z</time>
      </trkpt>
      <trkpt lat="43.95658" lon="5.5764">
        <ele>554.074</ele>
        <time>2012-06-18T07:26:53Z</time>
      </trkpt>
      <trkpt lat="43.9566" lon="5.5766">
        <ele>550.766</ele>
        <time>2012-06-18T07:27:10Z</time>
      </trkpt>
      <trkpt lat="43.95661" lon="5.57678">
        <ele>547.598</ele>
        <time>2012-06-18T07:27:28Z</time>
      </trkpt>
      <trkpt lat="43.95656" lon="5.57693">
        <ele>545.765</ele>
        <time>2012-06-18T07:27:49Z</time>
      </trkpt>
      <trkpt lat="43.95647" lon="5.57703">
        <ele>546.38</ele>
        <time>2012-06-18T07:28:06Z</time>
      </trkpt>
      <trkpt lat="43.95645" lon="5.57726">
        <ele>549.498</ele>
        <time>2012-06-18T07:28:28Z</time>
      </trkpt>
      <trkpt lat="43.95644" lon="5.57732">
        <ele>549.689</ele>
        <time>2012-06-18T07:28:32Z</time>
      </trkpt>
      <trkpt lat="43.95637" lon="5.57758">
        <ele>550.906</ele>
        <time>2012-06-18T07:28:56Z</time>
      </trkpt>
      <trkpt lat="43.95628" lon="5.57781">
        <ele>553.214</ele>
        <time>2012-06-18T07:29:16Z</time>
      </trkpt>
      <trkpt lat="43.95617" lon="5.57797">
        <ele>555.535</ele>
        <time>2012-06-18T07:29:35Z</time>
      </trkpt>
      <trkpt lat="43.95608" lon="5.57808">
        <ele>557.429</ele>
        <time>2012-06-18T07:29:50Z</time>
      </trkpt>
      <trkpt lat="43.95604" lon="5.57817">
        <ele>558.319</ele>
        <time>2012-06-18T07:29:59Z</time>
      </trkpt>
      <trkpt lat="43.95592" lon="5.5784">
        <ele>560.654</ele>
        <time>2012-06-18T07:30:22Z</time>
      </trkpt>
      <trkpt lat="43.95584" lon="5.57855">
        <ele>562.852</ele>
        <time>2012-06-18T07:30:42Z</time>
      </trkpt>
      <trkpt lat="43.95578" lon="5.57865">
        <ele>565.952</ele>
        <time>2012-06-18T07:30:59Z</time>
      </trkpt>
      <trkpt lat="43.95574" lon="5.57872">
        <ele>567.734</ele>
        <time>2012-06-18T07:31:16Z</time>
      </trkpt>
      <trkpt lat="43.95567" lon="5.57891">
        <ele>570.068</ele>
        <time>2012-06-18T07:31:39Z</time>
      </trkpt>
      <trkpt lat="43.95561" lon="5.57908">
        <ele>571.477</ele>
        <time>2012-06-18T07:31:59Z</time>
      </trkpt>
      <trkpt lat="43.95556" lon="5.57929">
        <ele>573.291</ele>
        <time>2012-06-18T07:32:18Z</time>
      </trkpt>
      <trkpt lat="43.95554" lon="5.57936">
        <ele>573.401</ele>
        <time>2012-06-18T07:32:32Z</time>
      </trkpt>
      <trkpt lat="43.95549" lon="5.57965">
        <ele>576.569</ele>
        <time>2012-06-18T07:32:55Z</time>
      </trkpt>
      <trkpt lat="43.95541" lon="5.57981">
        <ele>577.979</ele>
        <time>2012-06-18T07:33:14Z</time>
      </trkpt>
      <trkpt lat="43.95534" lon="5.57994">
        <ele>581.543</ele>
        <time>2012-06-18T07:33:31Z</time>
      </trkpt>
      <trkpt lat="43.95524" lon="5.5801">
        <ele>582.957</ele>
        <time>2012-06-18T07:33:51Z</time>
      </trkpt>
      <trkpt lat="43.95513" lon="5.58025">
        <ele>584.975</ele>
        <time>2012-06-18T07:34:13Z</time>
      </trkpt>
      <trkpt lat="43.95505" lon="5.58037">
        <ele>586.864</ele>
        <time>2012-06-18T07:34:31Z</time>
      </trkpt>
      <trkpt lat="43.95499" lon="5.58046">
        <ele>589.624</ele>
        <time>2012-06-18T07:34:45Z</time>
      </trkpt>
      <trkpt lat="43.95491" lon="5.58058">
        <ele>592.096</ele>
        <time>2012-06-18T07:35:05Z</time>
      </trkpt>
      <trkpt lat="43.95483" lon="5.58068">
        <ele>595.686</ele>
        <time>2012-06-18T07:35:24Z</time>
      </trkpt>
      <trkpt lat="43.95475" lon="5.58077">
        <ele>597.351</ele>
        <time>2012-06-18T07:35:44Z</time>
      </trkpt>
      <trkpt lat="43.95475" lon="5.58078">
        <ele>597.367</ele>
        <time>2012-06-18T07:36:20Z</time>
      </trkpt>
      <trkpt lat="43.95468" lon="5.58084">
        <ele>599.6</ele>
        <time>2012-06-18T07:37:16Z</time>
      </trkpt>
      <trkpt lat="43.95458" lon="5.58095">
        <ele>602.141</ele>
        <time>2012-06-18T07:37:38Z</time>
      </trkpt>
      <trkpt lat="43.95451" lon="5.58108">
        <ele>604.374</ele>
        <time>2012-06-18T07:37:58Z</time>
      </trkpt>
      <trkpt lat="43.95445" lon="5.58129">
        <ele>606.617</ele>
        <time>2012-06-18T07:38:20Z</time>
      </trkpt>
      <trkpt lat="43.95435" lon="5.58138">
        <ele>608.395</ele>
        <time>2012-06-18T07:38:40Z</time>
      </trkpt>
      <trkpt lat="43.95432" lon="5.58141">
        <ele>608.248</ele>
        <time>2012-06-18T07:38:44Z</time>
      </trkpt>
      <trkpt lat="43.95429" lon="5.58145">
        <ele>608.153</ele>
        <time>2012-06-18T07:38:49Z</time>
      </trkpt>
      <trkpt lat="43.9541" lon="5.58155">
        <ele>605.718</ele>
        <time>2012-06-18T07:39:10Z</time>
      </trkpt>
      <trkpt lat="43.95393" lon="5.58175">
        <ele>602.419</ele>
        <time>2012-06-18T07:39:35Z</time>
      </trkpt>
      <trkpt lat="43.95379" lon="5.58195">
        <ele>599.311</ele>
        <time>2012-06-18T07:39:55Z</time>
      </trkpt>
      <trkpt lat="43.95359" lon="5.58216">
        <ele>598.237</ele>
        <time>2012-06-18T07:40:18Z</time>
      </trkpt>
      <trkpt lat="43.95334" lon="5.58231">
        <ele>597.371</ele>
        <time>2012-06-18T07:40:42Z</time>
      </trkpt>
      <trkpt lat="43.95322" lon="5.58237">
        <ele>597.598</ele>
        <time>2012-06-18T07:41:00Z</time>
      </trkpt>
      <trkpt lat="43.95318" lon="5.58247">
        <ele>596.545</ele>
        <time>2012-06-18T07:41:12Z</time>
      </trkpt>
      <trkpt lat="43.95317" lon="5.58255">
        <ele>596.099</ele>
        <time>2012-06-18T07:41:33Z</time>
      </trkpt>
      <trkpt lat="43.95317" lon="5.58254">
        <ele>596.26</ele>
        <time>2012-06-18T07:41:35Z</time>
      </trkpt>
      <trkpt lat="43.95315" lon="5.58251">
        <ele>594.26</ele>
        <time>2012-06-18T07:41:55Z</time>
      </trkpt>
      <trkpt lat="43.95312" lon="5.58248">
        <ele>595.249</ele>
        <time>2012-06-18T07:45:55Z</time>
      </trkpt>
      <trkpt lat="43.95316" lon="5.58252">
        <ele>596.608</ele>
        <time>2012-06-18T07:46:06Z</time>
      </trkpt>
      <trkpt lat="43.95317" lon="5.58252">
        <ele>596.731</ele>
        <time>2012-06-18T07:46:36Z</time>
      </trkpt>
      <trkpt lat="43.95315" lon="5.58253">
        <ele>596.847</ele>
        <time>2012-06-18T07:46:52Z</time>
      </trkpt>
      <trkpt lat="43.95314" lon="5.58254">
        <ele>597.297</ele>
        <time>2012-06-18T07:46:55Z</time>
      </trkpt>
      <trkpt lat="43.95304" lon="5.58285">
        <ele>596.046</ele>
        <time>2012-06-18T07:47:16Z</time>
      </trkpt>
      <trkpt lat="43.9529" lon="5.58322">
        <ele>594.913</ele>
        <time>2012-06-18T07:47:41Z</time>
      </trkpt>
      <trkpt lat="43.95277" lon="5.58355">
        <ele>595.247</ele>
        <time>2012-06-18T07:48:03Z</time>
      </trkpt>
      <trkpt lat="43.95264" lon="5.58391">
        <ele>597.42</ele>
        <time>2012-06-18T07:48:29Z</time>
      </trkpt>
      <trkpt lat="43.95261" lon="5.58412">
        <ele>600.295</ele>
        <time>2012-06-18T07:48:49Z</time>
      </trkpt>
      <trkpt lat="43.9526" lon="5.58416">
        <ele>600.181</ele>
        <time>2012-06-18T07:48:52Z</time>
      </trkpt>
      <trkpt lat="43.95271" lon="5.58443">
        <ele>598.073</ele>
        <time>2012-06-18T07:49:13Z</time>
      </trkpt>
      <trkpt lat="43.95274" lon="5.58447">
        <ele>598.238</ele>
        <time>2012-06-18T07:49:17Z</time>
      </trkpt>
      <trkpt lat="43.95285" lon="5.58466">
        <ele>596.195</ele>
        <time>2012-06-18T07:49:34Z</time>
      </trkpt>
      <trkpt lat="43.95298" lon="5.58484">
        <ele>594.65</ele>
        <time>2012-06-18T07:49:51Z</time>
      </trkpt>
      <trkpt lat="43.95309" lon="5.58505">
        <ele>592.939</ele>
        <time>2012-06-18T07:50:09Z</time>
      </trkpt>
      <trkpt lat="43.95309" lon="5.58506">
        <ele>593.05</ele>
        <time>2012-06-18T07:50:15Z</time>
      </trkpt>
      <trkpt lat="43.95315" lon="5.58527">
        <ele>590.258</ele>
        <time>2012-06-18T07:50:32Z</time>
      </trkpt>
      <trkpt lat="43.95317" lon="5.58535">
        <ele>589.742</ele>
        <time>2012-06-18T07:50:48Z</time>
      </trkpt>
      <trkpt lat="43.95319" lon="5.58548">
        <ele>588.569</ele>
        <time>2012-06-18T07:51:06Z</time>
      </trkpt>
      <trkpt lat="43.95325" lon="5.58567">
        <ele>587.534</ele>
        <time>2012-06-18T07:51:21Z</time>
      </trkpt>
      <trkpt lat="43.95333" lon="5.58588">
        <ele>586.207</ele>
        <time>2012-06-18T07:51:36Z</time>
      </trkpt>
      <trkpt lat="43.95334" lon="5.58593">
        <ele>585.987</ele>
        <time>2012-06-18T07:51:40Z</time>
      </trkpt>
      <trkpt lat="43.95346" lon="5.58616">
        <ele>583.727</ele>
        <time>2012-06-18T07:52:00Z</time>
      </trkpt>
      <trkpt lat="43.95354" lon="5.58624">
        <ele>583.024</ele>
        <time>2012-06-18T07:52:12Z</time>
      </trkpt>
      <trkpt lat="43.95371" lon="5.58644">
        <ele>581.042</ele>
        <time>2012-06-18T07:52:33Z</time>
      </trkpt>
      <trkpt lat="43.95382" lon="5.58671">
        <ele>578.32</ele>
        <time>2012-06-18T07:52:55Z</time>
      </trkpt>
      <trkpt lat="43.95383" lon="5.58696">
        <ele>575.6</ele>
        <time>2012-06-18T07:53:15Z</time>
      </trkpt>
      <trkpt lat="43.95384" lon="5.58698">
        <ele>575.524</ele>
        <time>2012-06-18T07:53:17Z</time>
      </trkpt>
      <trkpt lat="43.9539" lon="5.58708">
        <ele>574.611</ele>
        <time>2012-06-18T07:53:27Z</time>
      </trkpt>
      <trkpt lat="43.9539" lon="5.58722">
        <ele>572.64</ele>
        <time>2012-06-18T07:53:38Z</time>
      </trkpt>
      <trkpt lat="43.95384" lon="5.58749">
        <ele>569.889</ele>
        <time>2012-06-18T07:54:00Z</time>
      </trkpt>
      <trkpt lat="43.95384" lon="5.58778">
        <ele>566.633</ele>
        <time>2012-06-18T07:54:24Z</time>
      </trkpt>
      <trkpt lat="43.95388" lon="5.58796">
        <ele>563.413</ele>
        <time>2012-06-18T07:54:40Z</time>
      </trkpt>
      <trkpt lat="43.95391" lon="5.58818">
        <ele>560.388</ele>
        <time>2012-06-18T07:55:00Z</time>
      </trkpt>
      <trkpt lat="43.95394" lon="5.58838">
        <ele>557.27</ele>
        <time>2012-06-18T07:55:21Z</time>
      </trkpt>
      <trkpt lat="43.95398" lon="5.58849">
        <ele>556.368</ele>
        <time>2012-06-18T07:55:37Z</time>
      </trkpt>
      <trkpt lat="43.95408" lon="5.58861">
        <ele>553.066</ele>
        <time>2012-06-18T07:55:54Z</time>
      </trkpt>
      <trkpt lat="43.95418" lon="5.58871">
        <ele>551.693</ele>
        <time>2012-06-18T07:56:07Z</time>
      </trkpt>
      <trkpt lat="43.95436" lon="5.58888">
        <ele>548.689</ele>
        <time>2012-06-18T07:56:31Z</time>
      </trkpt>
      <trkpt lat="43.95456" lon="5.58902">
        <ele>545.54</ele>
        <time>2012-06-18T07:56:56Z</time>
      </trkpt>
      <trkpt lat="43.95461" lon="5.58917">
        <ele>543.303</ele>
        <time>2012-06-18T07:57:15Z</time>
      </trkpt>
      <trkpt lat="43.95461" lon="5.58926">
        <ele>541.828</ele>
        <time>2012-06-18T07:57:32Z</time>
      </trkpt>
      <trkpt lat="43.95457" lon="5.58942">
        <ele>538.768</ele>
        <time>2012-06-18T07:57:47Z</time>
      </trkpt>
      <trkpt lat="43.95452" lon="5.58953">
        <ele>538.119</ele>
        <time>2012-06-18T07:57:57Z</time>
      </trkpt>
      <trkpt lat="43.9544" lon="5.58977">
        <ele>535.135</ele>
        <time>2012-06-18T07:58:18Z</time>
      </trkpt>
      <trkpt lat="43.95427" lon="5.58997">
        <ele>533.532</ele>
        <time>2012-06-18T07:58:38Z</time>
      </trkpt>
      <trkpt lat="43.95411" lon="5.59022">
        <ele>532.125</ele>
        <time>2012-06-18T07:59:02Z</time>
      </trkpt>
      <trkpt lat="43.95407" lon="5.59039">
        <ele>530.957</ele>
        <time>2012-06-18T07:59:19Z</time>
      </trkpt>
      <trkpt lat="43.95401" lon="5.59054">
        <ele>528.114</ele>
        <time>2012-06-18T07:59:36Z</time>
      </trkpt>
      <trkpt lat="43.95392" lon="5.5907">
        <ele>525.919</ele>
        <time>2012-06-18T07:59:53Z</time>
      </trkpt>
      <trkpt lat="43.9539" lon="5.59082">
        <ele>523.437</ele>
        <time>2012-06-18T08:00:10Z</time>
      </trkpt>
      <trkpt lat="43.95401" lon="5.59085">
        <ele>522.064</ele>
        <time>2012-06-18T08:00:26Z</time>
      </trkpt>
      <trkpt lat="43.95418" lon="5.59088">
        <ele>519.461</ele>
        <time>2012-06-18T08:00:46Z</time>
      </trkpt>
      <trkpt lat="43.95423" lon="5.59088">
        <ele>518.925</ele>
        <time>2012-06-18T08:00:52Z</time>
      </trkpt>
      <trkpt lat="43.95433" lon="5.59081">
        <ele>516.615</ele>
        <time>2012-06-18T08:01:09Z</time>
      </trkpt>
      <trkpt lat="43.95443" lon="5.59066">
        <ele>514.397</ele>
        <time>2012-06-18T08:01:27Z</time>
      </trkpt>
      <trkpt lat="43.95448" lon="5.59057">
        <ele>513.043</ele>
        <time>2012-06-18T08:01:40Z</time>
      </trkpt>
      <trkpt lat="43.95453" lon="5.59046">
        <ele>509.873</ele>
        <time>2012-06-18T08:01:53Z</time>
      </trkpt>
      <trkpt lat="43.95462" lon="5.59037">
        <ele>508.761</ele>
        <time>2012-06-18T08:02:08Z</time>
      </trkpt>
      <trkpt lat="43.95472" lon="5.59031">
        <ele>506.132</ele>
        <time>2012-06-18T08:02:23Z</time>
      </trkpt>
      <trkpt lat="43.95485" lon="5.59025">
        <ele>504.071</ele>
        <time>2012-06-18T08:02:41Z</time>
      </trkpt>
      <trkpt lat="43.95501" lon="5.5902">
        <ele>502.225</ele>
        <time>2012-06-18T08:03:01Z</time>
      </trkpt>
      <trkpt lat="43.95506" lon="5.59028">
        <ele>501.545</ele>
        <time>2012-06-18T08:03:16Z</time>
      </trkpt>
      <trkpt lat="43.95495" lon="5.5906">
        <ele>500.393</ele>
        <time>2012-06-18T08:03:40Z</time>
      </trkpt>
      <trkpt lat="43.95481" lon="5.59088">
        <ele>498.68</ele>
        <time>2012-06-18T08:04:03Z</time>
      </trkpt>
      <trkpt lat="43.95464" lon="5.59116">
        <ele>497.169</ele>
        <time>2012-06-18T08:04:28Z</time>
      </trkpt>
      <trkpt lat="43.95448" lon="5.5914">
        <ele>495.193</ele>
        <time>2012-06-18T08:04:51Z</time>
      </trkpt>
      <trkpt lat="43.95434" lon="5.59159">
        <ele>493.884</ele>
        <time>2012-06-18T08:05:11Z</time>
      </trkpt>
      <trkpt lat="43.95422" lon="5.5917">
        <ele>494.138</ele>
        <time>2012-06-18T08:05:26Z</time>
      </trkpt>
      <trkpt lat="43.95404" lon="5.59186">
        <ele>494.106</ele>
        <time>2012-06-18T08:05:48Z</time>
      </trkpt>
      <trkpt lat="43.95393" lon="5.59203">
        <ele>492.717</ele>
        <time>2012-06-18T08:06:09Z</time>
      </trkpt>
      <trkpt lat="43.95391" lon="5.59206">
        <ele>492.204</ele>
        <time>2012-06-18T08:06:13Z</time>
      </trkpt>
      <trkpt lat="43.9539" lon="5.59213">
        <ele>492.016</ele>
        <time>2012-06-18T08:06:19Z</time>
      </trkpt>
      <trkpt lat="43.95387" lon="5.59216">
        <ele>493.021</ele>
        <time>2012-06-18T08:06:23Z</time>
      </trkpt>
      <trkpt lat="43.95382" lon="5.59219">
        <ele>493.264</ele>
        <time>2012-06-18T08:06:29Z</time>
      </trkpt>
      <trkpt lat="43.95363" lon="5.59231">
        <ele>492.364</ele>
        <time>2012-06-18T08:06:50Z</time>
      </trkpt>
      <trkpt lat="43.95356" lon="5.59244">
        <ele>490.629</ele>
        <time>2012-06-18T08:07:05Z</time>
      </trkpt>
      <trkpt lat="43.95349" lon="5.59258">
        <ele>492.155</ele>
        <time>2012-06-18T08:07:20Z</time>
      </trkpt>
      <trkpt lat="43.95344" lon="5.59272">
        <ele>492.508</ele>
        <time>2012-06-18T08:07:35Z</time>
      </trkpt>
      <trkpt lat="43.95339" lon="5.59292">
        <ele>492.629</ele>
        <time>2012-06-18T08:07:50Z</time>
      </trkpt>
      <trkpt lat="43.95334" lon="5.59307">
        <ele>493.425</ele>
        <time>2012-06-18T08:08:04Z</time>
      </trkpt>
      <trkpt lat="43.95326" lon="5.5933">
        <ele>492.761</ele>
        <time>2012-06-18T08:08:20Z</time>
      </trkpt>
      <trkpt lat="43.95321" lon="5.59351">
        <ele>491.669</ele>
        <time>2012-06-18T08:08:36Z</time>
      </trkpt>
      <trkpt lat="43.95314" lon="5.59378">
        <ele>490.438</ele>
        <time>2012-06-18T08:08:55Z</time>
      </trkpt>
      <trkpt lat="43.95313" lon="5.59401">
        <ele>489.376</ele>
        <time>2012-06-18T08:09:12Z</time>
      </trkpt>
      <trkpt lat="43.95312" lon="5.5942">
        <ele>489.558</ele>
        <time>2012-06-18T08:09:24Z</time>
      </trkpt>
      <trkpt lat="43.95312" lon="5.59426">
        <ele>489.053</ele>
        <time>2012-06-18T08:09:28Z</time>
      </trkpt>
      <trkpt lat="43.9531" lon="5.5943">
        <ele>488.891</ele>
        <time>2012-06-18T08:09:31Z</time>
      </trkpt>
      <trkpt lat="43.95306" lon="5.59454">
        <ele>488.63</ele>
        <time>2012-06-18T08:09:49Z</time>
      </trkpt>
      <trkpt lat="43.95304" lon="5.59475">
        <ele>487.638</ele>
        <time>2012-06-18T08:10:04Z</time>
      </trkpt>
      <trkpt lat="43.95295" lon="5.59502">
        <ele>486.967</ele>
        <time>2012-06-18T08:10:23Z</time>
      </trkpt>
      <trkpt lat="43.95282" lon="5.59525">
        <ele>486.246</ele>
        <time>2012-06-18T08:10:42Z</time>
      </trkpt>
      <trkpt lat="43.95268" lon="5.59547">
        <ele>485.278</ele>
        <time>2012-06-18T08:11:01Z</time>
      </trkpt>
      <trkpt lat="43.95253" lon="5.59565">
        <ele>484.417</ele>
        <time>2012-06-18T08:11:18Z</time>
      </trkpt>
      <trkpt lat="43.95248" lon="5.59581">
        <ele>484.825</ele>
        <time>2012-06-18T08:11:32Z</time>
      </trkpt>
      <trkpt lat="43.95238" lon="5.59599">
        <ele>485.378</ele>
        <time>2012-06-18T08:11:48Z</time>
      </trkpt>
      <trkpt lat="43.95227" lon="5.59616">
        <ele>486.521</ele>
        <time>2012-06-18T08:12:06Z</time>
      </trkpt>
      <trkpt lat="43.95221" lon="5.59618">
        <ele>485.706</ele>
        <time>2012-06-18T08:12:12Z</time>
      </trkpt>
      <trkpt lat="43.95204" lon="5.59625">
        <ele>486.162</ele>
        <time>2012-06-18T08:12:28Z</time>
      </trkpt>
      <trkpt lat="43.95188" lon="5.5963">
        <ele>485.581</ele>
        <time>2012-06-18T08:12:43Z</time>
      </trkpt>
      <trkpt lat="43.95187" lon="5.5963">
        <ele>485.256</ele>
        <time>2012-06-18T08:12:44Z</time>
      </trkpt>
      <trkpt lat="43.95169" lon="5.59627">
        <ele>483.467</ele>
        <time>2012-06-18T08:13:01Z</time>
      </trkpt>
      <trkpt lat="43.95154" lon="5.59621">
        <ele>482.292</ele>
        <time>2012-06-18T08:13:15Z</time>
      </trkpt>
      <trkpt lat="43.95148" lon="5.59617">
        <ele>481.41</ele>
        <time>2012-06-18T08:13:21Z</time>
      </trkpt>
      <trkpt lat="43.95144" lon="5.59617">
        <ele>481.335</ele>
        <time>2012-06-18T08:13:25Z</time>
      </trkpt>
      <trkpt lat="43.95122" lon="5.59616">
        <ele>481.206</ele>
        <time>2012-06-18T08:13:46Z</time>
      </trkpt>
      <trkpt lat="43.95099" lon="5.59611">
        <ele>480.999</ele>
        <time>2012-06-18T08:14:07Z</time>
      </trkpt>
      <trkpt lat="43.95079" lon="5.59606">
        <ele>479.19</ele>
        <time>2012-06-18T08:14:27Z</time>
      </trkpt>
      <trkpt lat="43.95067" lon="5.59603">
        <ele>478.162</ele>
        <time>2012-06-18T08:14:43Z</time>
      </trkpt>
      <trkpt lat="43.95058" lon="5.59589">
        <ele>480.017</ele>
        <time>2012-06-18T08:15:00Z</time>
      </trkpt>
      <trkpt lat="43.95047" lon="5.59588">
        <ele>482.088</ele>
        <time>2012-06-18T08:15:15Z</time>
      </trkpt>
      <trkpt lat="43.95046" lon="5.59589">
        <ele>482.338</ele>
        <time>2012-06-18T08:15:16Z</time>
      </trkpt>
      <trkpt lat="43.95027" lon="5.596">
        <ele>483.458</ele>
        <time>2012-06-18T08:15:39Z</time>
      </trkpt>
      <trkpt lat="43.95007" lon="5.59613">
        <ele>483.236</ele>
        <time>2012-06-18T08:15:59Z</time>
      </trkpt>
      <trkpt lat="43.94984" lon="5.59625">
        <ele>482.373</ele>
        <time>2012-06-18T08:16:20Z</time>
      </trkpt>
      <trkpt lat="43.94964" lon="5.59627">
        <ele>481.275</ele>
        <time>2012-06-18T08:16:39Z</time>
      </trkpt>
      <trkpt lat="43.94943" lon="5.59623">
        <ele>479.543</ele>
        <time>2012-06-18T08:16:56Z</time>
      </trkpt>
      <trkpt lat="43.94928" lon="5.59621">
        <ele>478.347</ele>
        <time>2012-06-18T08:17:14Z</time>
      </trkpt>
      <trkpt lat="43.94918" lon="5.59615">
        <ele>478.434</ele>
        <time>2012-06-18T08:17:27Z</time>
      </trkpt>
      <trkpt lat="43.94893" lon="5.59605">
        <ele>477.864</ele>
        <time>2012-06-18T08:17:50Z</time>
      </trkpt>
      <trkpt lat="43.94865" lon="5.59588">
        <ele>477.014</ele>
        <time>2012-06-18T08:18:16Z</time>
      </trkpt>
      <trkpt lat="43.94846" lon="5.59579">
        <ele>476.677</ele>
        <time>2012-06-18T08:18:34Z</time>
      </trkpt>
      <trkpt lat="43.94823" lon="5.59569">
        <ele>476.141</ele>
        <time>2012-06-18T08:18:55Z</time>
      </trkpt>
      <trkpt lat="43.94805" lon="5.59568">
        <ele>476.063</ele>
        <time>2012-06-18T08:19:11Z</time>
      </trkpt>
      <trkpt lat="43.94784" lon="5.59557">
        <ele>474.884</ele>
        <time>2012-06-18T08:19:32Z</time>
      </trkpt>
      <trkpt lat="43.94764" lon="5.59544">
        <ele>474.362</ele>
        <time>2012-06-18T08:19:51Z</time>
      </trkpt>
      <trkpt lat="43.94741" lon="5.59532">
        <ele>474.297</ele>
        <time>2012-06-18T08:20:13Z</time>
      </trkpt>
      <trkpt lat="43.94718" lon="5.59523">
        <ele>474.713</ele>
        <time>2012-06-18T08:20:35Z</time>
      </trkpt>
      <trkpt lat="43.94695" lon="5.59516">
        <ele>473.157</ele>
        <time>2012-06-18T08:20:57Z</time>
      </trkpt>
      <trkpt lat="43.94674" lon="5.59507">
        <ele>473.854</ele>
        <time>2012-06-18T08:21:20Z</time>
      </trkpt>
      <trkpt lat="43.94656" lon="5.59508">
        <ele>474.715</ele>
        <time>2012-06-18T08:21:36Z</time>
      </trkpt>
      <trkpt lat="43.94633" lon="5.59507">
        <ele>474.297</ele>
        <time>2012-06-18T08:21:55Z</time>
      </trkpt>
      <trkpt lat="43.94605" lon="5.59507">
        <ele>474.787</ele>
        <time>2012-06-18T08:22:18Z</time>
      </trkpt>
      <trkpt lat="43.9458" lon="5.59505">
        <ele>474.776</ele>
        <time>2012-06-18T08:22:40Z</time>
      </trkpt>
      <trkpt lat="43.94553" lon="5.59505">
        <ele>474.552</ele>
        <time>2012-06-18T08:23:03Z</time>
      </trkpt>
      <trkpt lat="43.94526" lon="5.59505">
        <ele>473.494</ele>
        <time>2012-06-18T08:23:26Z</time>
      </trkpt>
      <trkpt lat="43.94496" lon="5.59504">
        <ele>472.646</ele>
        <time>2012-06-18T08:23:52Z</time>
      </trkpt>
      <trkpt lat="43.94464" lon="5.59503">
        <ele>471.86</ele>
        <time>2012-06-18T08:24:18Z</time>
      </trkpt>
      <trkpt lat="43.94443" lon="5.59504">
        <ele>471.921</ele>
        <time>2012-06-18T08:24:37Z</time>
      </trkpt>
      <trkpt lat="43.94417" lon="5.595">
        <ele>470.952</ele>
        <time>2012-06-18T08:25:00Z</time>
      </trkpt>
      <trkpt lat="43.94383" lon="5.59487">
        <ele>469.516</ele>
        <time>2012-06-18T08:25:30Z</time>
      </trkpt>
      <trkpt lat="43.94352" lon="5.59464">
        <ele>468.764</ele>
        <time>2012-06-18T08:26:00Z</time>
      </trkpt>
      <trkpt lat="43.94328" lon="5.59437">
        <ele>468.919</ele>
        <time>2012-06-18T08:26:27Z</time>
      </trkpt>
      <trkpt lat="43.94305" lon="5.59413">
        <ele>469.241</ele>
        <time>2012-06-18T08:26:52Z</time>
      </trkpt>
      <trkpt lat="43.94298" lon="5.59403">
        <ele>469.246</ele>
        <time>2012-06-18T08:27:03Z</time>
      </trkpt>
      <trkpt lat="43.94304" lon="5.59407">
        <ele>468.525</ele>
        <time>2012-06-18T08:27:19Z</time>
      </trkpt>
      <trkpt lat="43.94303" lon="5.59405">
        <ele>464.601</ele>
        <time>2012-06-18T08:27:25Z</time>
      </trkpt>
      <trkpt lat="43.94303" lon="5.59405">
        <ele>466.488</ele>
        <time>2012-06-18T08:27:26Z</time>
      </trkpt>
      <trkpt lat="43.94303" lon="5.59405">
        <ele>468.226</ele>
        <time>2012-06-18T08:27:28Z</time>
      </trkpt>
      <trkpt lat="43.943" lon="5.59403">
        <ele>463.372</ele>
        <time>2012-06-18T08:27:47Z</time>
      </trkpt>
      <trkpt lat="43.94301" lon="5.59404">
        <ele>465.917</ele>
        <time>2012-06-18T08:27:48Z</time>
      </trkpt>
      <trkpt lat="43.94301" lon="5.59404">
        <ele>467.336</ele>
        <time>2012-06-18T08:27:50Z</time>
      </trkpt>
      <trkpt lat="43.94298" lon="5.59394">
        <ele>467.086</ele>
        <time>2012-06-18T08:28:09Z</time>
      </trkpt>
      <trkpt lat="43.94296" lon="5.59395">
        <ele>467.375</ele>
        <time>2012-06-18T08:28:24Z</time>
      </trkpt>
      <trkpt lat="43.94304" lon="5.59395">
        <ele>467.936</ele>
        <time>2012-06-18T08:28:45Z</time>
      </trkpt>
      <trkpt lat="43.94302" lon="5.59395">
        <ele>466.76</ele>
        <time>2012-06-18T08:29:14Z</time>
      </trkpt>
      <trkpt lat="43.94302" lon="5.59399">
        <ele>473.735</ele>
        <time>2012-06-18T08:29:35Z</time>
      </trkpt>
      <trkpt lat="43.94303" lon="5.59399">
        <ele>470.221</ele>
        <time>2012-06-18T08:29:36Z</time>
      </trkpt>
      <trkpt lat="43.94303" lon="5.59401">
        <ele>468.75</ele>
        <time>2012-06-18T08:29:38Z</time>
      </trkpt>
      <trkpt lat="43.94303" lon="5.59404">
        <ele>468.723</ele>
        <time>2012-06-18T08:30:04Z</time>
      </trkpt>
      <trkpt lat="43.94303" lon="5.59405">
        <ele>468.503</ele>
        <time>2012-06-18T08:30:22Z</time>
      </trkpt>
      <trkpt lat="43.94302" lon="5.59403">
        <ele>468.906</ele>
        <time>2012-06-18T08:30:43Z</time>
      </trkpt>
      <trkpt lat="43.94281" lon="5.59378">
        <ele>467.837</ele>
        <time>2012-06-18T08:31:06Z</time>
      </trkpt>
      <trkpt lat="43.94253" lon="5.59348">
        <ele>467.26</ele>
        <time>2012-06-18T08:31:34Z</time>
      </trkpt>
      <trkpt lat="43.94229" lon="5.59323">
        <ele>467.864</ele>
        <time>2012-06-18T08:31:58Z</time>
      </trkpt>
      <trkpt lat="43.94197" lon="5.593">
        <ele>467.401</ele>
        <time>2012-06-18T08:32:28Z</time>
      </trkpt>
      <trkpt lat="43.94158" lon="5.59289">
        <ele>467.774</ele>
        <time>2012-06-18T08:33:00Z</time>
      </trkpt>
      <trkpt lat="43.94121" lon="5.5928">
        <ele>469.334</ele>
        <time>2012-06-18T08:33:32Z</time>
      </trkpt>
      <trkpt lat="43.94105" lon="5.59286">
        <ele>470.774</ele>
        <time>2012-06-18T08:33:52Z</time>
      </trkpt>
      <trkpt lat="43.94101" lon="5.59288">
        <ele>470.875</ele>
        <time>2012-06-18T08:33:57Z</time>
      </trkpt>
      <trkpt lat="43.94098" lon="5.59296">
        <ele>470.007</ele>
        <time>2012-06-18T08:34:03Z</time>
      </trkpt>
      <trkpt lat="43.94084" lon="5.59337">
        <ele>470.189</ele>
        <time>2012-06-18T08:34:33Z</time>
      </trkpt>
      <trkpt lat="43.94054" lon="5.5934">
        <ele>470.384</ele>
        <time>2012-06-18T08:34:58Z</time>
      </trkpt>
      <trkpt lat="43.94024" lon="5.5933">
        <ele>469.92</ele>
        <time>2012-06-18T08:35:24Z</time>
      </trkpt>
      <trkpt lat="43.93994" lon="5.59323">
        <ele>468.684</ele>
        <time>2012-06-18T08:35:49Z</time>
      </trkpt>
      <trkpt lat="43.93961" lon="5.59318">
        <ele>468.225</ele>
        <time>2012-06-18T08:36:16Z</time>
      </trkpt>
      <trkpt lat="43.93932" lon="5.59329">
        <ele>469.524</ele>
        <time>2012-06-18T08:36:40Z</time>
      </trkpt>
      <trkpt lat="43.93902" lon="5.59337">
        <ele>469.759</ele>
        <time>2012-06-18T08:37:06Z</time>
      </trkpt>
      <trkpt lat="43.93862" lon="5.59335">
        <ele>471.008</ele>
        <time>2012-06-18T08:37:40Z</time>
      </trkpt>
      <trkpt lat="43.93856" lon="5.59334">
        <ele>471.604</ele>
        <time>2012-06-18T08:37:45Z</time>
      </trkpt>
      <trkpt lat="43.93848" lon="5.5933">
        <ele>471.226</ele>
        <time>2012-06-18T08:38:03Z</time>
      </trkpt>
      <trkpt lat="43.93831" lon="5.59329">
        <ele>471.435</ele>
        <time>2012-06-18T08:38:22Z</time>
      </trkpt>
      <trkpt lat="43.93825" lon="5.59326">
        <ele>470.327</ele>
        <time>2012-06-18T08:38:39Z</time>
      </trkpt>
      <trkpt lat="43.93816" lon="5.59324">
        <ele>470.159</ele>
        <time>2012-06-18T08:39:00Z</time>
      </trkpt>
      <trkpt lat="43.93807" lon="5.59327">
        <ele>471.686</ele>
        <time>2012-06-18T08:39:16Z</time>
      </trkpt>
      <trkpt lat="43.93801" lon="5.5933">
        <ele>471.647</ele>
        <time>2012-06-18T08:39:22Z</time>
      </trkpt>
      <trkpt lat="43.9377" lon="5.59327">
        <ele>471.944</ele>
        <time>2012-06-18T08:39:49Z</time>
      </trkpt>
      <trkpt lat="43.93742" lon="5.59312">
        <ele>473.411</ele>
        <time>2012-06-18T08:40:16Z</time>
      </trkpt>
      <trkpt lat="43.93714" lon="5.593">
        <ele>474.094</ele>
        <time>2012-06-18T08:40:42Z</time>
      </trkpt>
      <trkpt lat="43.93695" lon="5.5928">
        <ele>476.017</ele>
        <time>2012-06-18T08:41:04Z</time>
      </trkpt>
      <trkpt lat="43.93671" lon="5.59255">
        <ele>479.142</ele>
        <time>2012-06-18T08:41:29Z</time>
      </trkpt>
      <trkpt lat="43.9365" lon="5.59232">
        <ele>479.43</ele>
        <time>2012-06-18T08:41:53Z</time>
      </trkpt>
      <trkpt lat="43.93625" lon="5.59214">
        <ele>480.538</ele>
        <time>2012-06-18T08:42:18Z</time>
      </trkpt>
      <trkpt lat="43.93592" lon="5.59202">
        <ele>482.371</ele>
        <time>2012-06-18T08:42:47Z</time>
      </trkpt>
      <trkpt lat="43.93557" lon="5.59212">
        <ele>483.515</ele>
        <time>2012-06-18T08:43:18Z</time>
      </trkpt>
      <trkpt lat="43.93527" lon="5.59213">
        <ele>484.933</ele>
        <time>2012-06-18T08:43:45Z</time>
      </trkpt>
      <trkpt lat="43.93499" lon="5.59204">
        <ele>484.784</ele>
        <time>2012-06-18T08:44:11Z</time>
      </trkpt>
      <trkpt lat="43.9348" lon="5.59183">
        <ele>487.889</ele>
        <time>2012-06-18T08:44:34Z</time>
      </trkpt>
      <trkpt lat="43.9347" lon="5.59153">
        <ele>489.909</ele>
        <time>2012-06-18T08:45:00Z</time>
      </trkpt>
      <trkpt lat="43.93468" lon="5.59123">
        <ele>491.711</ele>
        <time>2012-06-18T08:45:23Z</time>
      </trkpt>
      <trkpt lat="43.93483" lon="5.59111">
        <ele>493.487</ele>
        <time>2012-06-18T08:45:44Z</time>
      </trkpt>
      <trkpt lat="43.93494" lon="5.5911">
        <ele>495.99</ele>
        <time>2012-06-18T08:45:58Z</time>
      </trkpt>
      <trkpt lat="43.93505" lon="5.59109">
        <ele>496.333</ele>
        <time>2012-06-18T08:46:13Z</time>
      </trkpt>
      <trkpt lat="43.93511" lon="5.59103">
        <ele>498.436</ele>
        <time>2012-06-18T08:46:34Z</time>
      </trkpt>
      <trkpt lat="43.93497" lon="5.59098">
        <ele>501.648</ele>
        <time>2012-06-18T08:46:54Z</time>
      </trkpt>
      <trkpt lat="43.93488" lon="5.59096">
        <ele>502.005</ele>
        <time>2012-06-18T08:47:13Z</time>
      </trkpt>
      <trkpt lat="43.93477" lon="5.5909">
        <ele>503.737</ele>
        <time>2012-06-18T08:47:27Z</time>
      </trkpt>
      <trkpt lat="43.93464" lon="5.59087">
        <ele>504.454</ele>
        <time>2012-06-18T08:47:45Z</time>
      </trkpt>
      <trkpt lat="43.93451" lon="5.59082">
        <ele>507.697</ele>
        <time>2012-06-18T08:48:02Z</time>
      </trkpt>
      <trkpt lat="43.93439" lon="5.5908">
        <ele>511.048</ele>
        <time>2012-06-18T08:48:21Z</time>
      </trkpt>
      <trkpt lat="43.93432" lon="5.59074">
        <ele>511.793</ele>
        <time>2012-06-18T08:48:33Z</time>
      </trkpt>
      <trkpt lat="43.93418" lon="5.59068">
        <ele>511.793</ele>
        <time>2012-06-18T08:48:53Z</time>
      </trkpt>
      <trkpt lat="43.93412" lon="5.59064">
        <ele>513.449</ele>
        <time>2012-06-18T08:49:02Z</time>
      </trkpt>
      <trkpt lat="43.93399" lon="5.59055">
        <ele>515.806</ele>
        <time>2012-06-18T08:49:21Z</time>
      </trkpt>
      <trkpt lat="43.93392" lon="5.59048">
        <ele>516.634</ele>
        <time>2012-06-18T08:49:39Z</time>
      </trkpt>
      <trkpt lat="43.93395" lon="5.59046">
        <ele>517.612</ele>
        <time>2012-06-18T08:49:54Z</time>
      </trkpt>
      <trkpt lat="43.93393" lon="5.59047">
        <ele>516.886</ele>
        <time>2012-06-18T08:50:24Z</time>
      </trkpt>
      <trkpt lat="43.93398" lon="5.5905">
        <ele>518.212</ele>
        <time>2012-06-18T08:50:42Z</time>
      </trkpt>
      <trkpt lat="43.93399" lon="5.59051">
        <ele>517.399</ele>
        <time>2012-06-18T08:50:43Z</time>
      </trkpt>
      <trkpt lat="43.93424" lon="5.59058">
        <ele>517.671</ele>
        <time>2012-06-18T08:51:09Z</time>
      </trkpt>
      <trkpt lat="43.93447" lon="5.59064">
        <ele>518.393</ele>
        <time>2012-06-18T08:51:33Z</time>
      </trkpt>
      <trkpt lat="43.93464" lon="5.5906">
        <ele>519.226</ele>
        <time>2012-06-18T08:51:54Z</time>
      </trkpt>
      <trkpt lat="43.93478" lon="5.59051">
        <ele>521.025</ele>
        <time>2012-06-18T08:52:13Z</time>
      </trkpt>
      <trkpt lat="43.93481" lon="5.59042">
        <ele>520.583</ele>
        <time>2012-06-18T08:52:30Z</time>
      </trkpt>
      <trkpt lat="43.93481" lon="5.59042">
        <ele>520.84</ele>
        <time>2012-06-18T08:52:50Z</time>
      </trkpt>
      <trkpt lat="43.93477" lon="5.59033">
        <ele>522.784</ele>
        <time>2012-06-18T08:53:05Z</time>
      </trkpt>
      <trkpt lat="43.93467" lon="5.59028">
        <ele>524.523</ele>
        <time>2012-06-18T08:53:25Z</time>
      </trkpt>
      <trkpt lat="43.93457" lon="5.59022">
        <ele>526.36</ele>
        <time>2012-06-18T08:53:43Z</time>
      </trkpt>
      <trkpt lat="43.93446" lon="5.59016">
        <ele>527.715</ele>
        <time>2012-06-18T08:54:00Z</time>
      </trkpt>
      <trkpt lat="43.93437" lon="5.59013">
        <ele>529.619</ele>
        <time>2012-06-18T08:54:20Z</time>
      </trkpt>
      <trkpt lat="43.93424" lon="5.59008">
        <ele>531.02</ele>
        <time>2012-06-18T08:54:41Z</time>
      </trkpt>
      <trkpt lat="43.93411" lon="5.58992">
        <ele>533.563</ele>
        <time>2012-06-18T08:55:03Z</time>
      </trkpt>
      <trkpt lat="43.93411" lon="5.58972">
        <ele>534.583</ele>
        <time>2012-06-18T08:55:21Z</time>
      </trkpt>
      <trkpt lat="43.93411" lon="5.58944">
        <ele>535.27</ele>
        <time>2012-06-18T08:55:43Z</time>
      </trkpt>
      <trkpt lat="43.93411" lon="5.58923">
        <ele>534.868</ele>
        <time>2012-06-18T08:56:02Z</time>
      </trkpt>
      <trkpt lat="43.93418" lon="5.58914">
        <ele>533.787</ele>
        <time>2012-06-18T08:56:19Z</time>
      </trkpt>
      <trkpt lat="43.93423" lon="5.58906">
        <ele>533.788</ele>
        <time>2012-06-18T08:56:27Z</time>
      </trkpt>
      <trkpt lat="43.93432" lon="5.58872">
        <ele>532.706</ele>
        <time>2012-06-18T08:56:53Z</time>
      </trkpt>
      <trkpt lat="43.93441" lon="5.58847">
        <ele>531.106</ele>
        <time>2012-06-18T08:57:15Z</time>
      </trkpt>
      <trkpt lat="43.93446" lon="5.5885">
        <ele>531.554</ele>
        <time>2012-06-18T08:57:31Z</time>
      </trkpt>
      <trkpt lat="43.93438" lon="5.58834">
        <ele>531.79</ele>
        <time>2012-06-18T08:57:50Z</time>
      </trkpt>
      <trkpt lat="43.93431" lon="5.58828">
        <ele>534.586</ele>
        <time>2012-06-18T08:58:07Z</time>
      </trkpt>
      <trkpt lat="43.93428" lon="5.58827">
        <ele>533.55</ele>
        <time>2012-06-18T08:58:21Z</time>
      </trkpt>
      <trkpt lat="43.93425" lon="5.58827">
        <ele>534.816</ele>
        <time>2012-06-18T08:58:33Z</time>
      </trkpt>
      <trkpt lat="43.93417" lon="5.58839">
        <ele>534.275</ele>
        <time>2012-06-18T08:58:49Z</time>
      </trkpt>
      <trkpt lat="43.9341" lon="5.58842">
        <ele>535.37</ele>
        <time>2012-06-18T08:59:04Z</time>
      </trkpt>
      <trkpt lat="43.93407" lon="5.58839">
        <ele>535.039</ele>
        <time>2012-06-18T08:59:20Z</time>
      </trkpt>
      <trkpt lat="43.93414" lon="5.58823">
        <ele>535.627</ele>
        <time>2012-06-18T08:59:36Z</time>
      </trkpt>
      <trkpt lat="43.93412" lon="5.58827">
        <ele>536.062</ele>
        <time>2012-06-18T08:59:49Z</time>
      </trkpt>
      <trkpt lat="43.93405" lon="5.58847">
        <ele>535.757</ele>
        <time>2012-06-18T09:00:08Z</time>
      </trkpt>
      <trkpt lat="43.93403" lon="5.5886">
        <ele>535.83</ele>
        <time>2012-06-18T09:00:27Z</time>
      </trkpt>
      <trkpt lat="43.93408" lon="5.58861">
        <ele>534.876</ele>
        <time>2012-06-18T09:00:44Z</time>
      </trkpt>
      <trkpt lat="43.93408" lon="5.58862">
        <ele>532.327</ele>
        <time>2012-06-18T09:00:54Z</time>
      </trkpt>
      <trkpt lat="43.93408" lon="5.58862">
        <ele>526.153</ele>
        <time>2012-06-18T09:00:56Z</time>
      </trkpt>
      <trkpt lat="43.93408" lon="5.58862">
        <ele>527.506</ele>
        <time>2012-06-18T09:00:57Z</time>
      </trkpt>
      <trkpt lat="43.93408" lon="5.58862">
        <ele>533.402</ele>
        <time>2012-06-18T09:00:58Z</time>
      </trkpt>
      <trkpt lat="43.93408" lon="5.58862">
        <ele>533.643</ele>
        <time>2012-06-18T09:00:59Z</time>
      </trkpt>
      <trkpt lat="43.93408" lon="5.58862">
        <ele>535.192</ele>
        <time>2012-06-18T09:01:02Z</time>
      </trkpt>
      <trkpt lat="43.93408" lon="5.58862">
        <ele>534.38</ele>
        <time>2012-06-18T09:01:04Z</time>
      </trkpt>
      <trkpt lat="43.93407" lon="5.58862">
        <ele>533.388</ele>
        <time>2012-06-18T09:01:32Z</time>
      </trkpt>
      <trkpt lat="43.93408" lon="5.58863">
        <ele>533.594</ele>
        <time>2012-06-18T09:07:36Z</time>
      </trkpt>
      <trkpt lat="43.93409" lon="5.58861">
        <ele>536.201</ele>
        <time>2012-06-18T09:08:30Z</time>
      </trkpt>
      <trkpt lat="43.93409" lon="5.58862">
        <ele>534.795</ele>
        <time>2012-06-18T09:08:44Z</time>
      </trkpt>
      <trkpt lat="43.93409" lon="5.5886">
        <ele>535.816</ele>
        <time>2012-06-18T09:09:37Z</time>
      </trkpt>
      <trkpt lat="43.93407" lon="5.58856">
        <ele>536.337</ele>
        <time>2012-06-18T09:09:50Z</time>
      </trkpt>
      <trkpt lat="43.93412" lon="5.58834">
        <ele>536.781</ele>
        <time>2012-06-18T09:10:08Z</time>
      </trkpt>
      <trkpt lat="43.93416" lon="5.58817">
        <ele>536.548</ele>
        <time>2012-06-18T09:10:27Z</time>
      </trkpt>
      <trkpt lat="43.93418" lon="5.58813">
        <ele>536.336</ele>
        <time>2012-06-18T09:10:42Z</time>
      </trkpt>
      <trkpt lat="43.93416" lon="5.58815">
        <ele>536.203</ele>
        <time>2012-06-18T09:11:02Z</time>
      </trkpt>
      <trkpt lat="43.93406" lon="5.5882">
        <ele>537.475</ele>
        <time>2012-06-18T09:11:15Z</time>
      </trkpt>
      <trkpt lat="43.93399" lon="5.58818">
        <ele>536.377</ele>
        <time>2012-06-18T09:11:31Z</time>
      </trkpt>
      <trkpt lat="43.93405" lon="5.5882">
        <ele>537.194</ele>
        <time>2012-06-18T09:11:46Z</time>
      </trkpt>
      <trkpt lat="43.93412" lon="5.58817">
        <ele>537.109</ele>
        <time>2012-06-18T09:11:55Z</time>
      </trkpt>
      <trkpt lat="43.93429" lon="5.58818">
        <ele>535.069</ele>
        <time>2012-06-18T09:12:14Z</time>
      </trkpt>
      <trkpt lat="43.93433" lon="5.58818">
        <ele>535.224</ele>
        <time>2012-06-18T09:12:20Z</time>
      </trkpt>
      <trkpt lat="43.93439" lon="5.58815">
        <ele>534.571</ele>
        <time>2012-06-18T09:12:35Z</time>
      </trkpt>
      <trkpt lat="43.93443" lon="5.58816">
        <ele>532.826</ele>
        <time>2012-06-18T09:13:02Z</time>
      </trkpt>
      <trkpt lat="43.93446" lon="5.58821">
        <ele>532.498</ele>
        <time>2012-06-18T09:13:18Z</time>
      </trkpt>
      <trkpt lat="43.93444" lon="5.58829">
        <ele>531.619</ele>
        <time>2012-06-18T09:13:33Z</time>
      </trkpt>
      <trkpt lat="43.93444" lon="5.58831">
        <ele>531.458</ele>
        <time>2012-06-18T09:13:35Z</time>
      </trkpt>
      <trkpt lat="43.93437" lon="5.58851">
        <ele>530.8</ele>
        <time>2012-06-18T09:13:53Z</time>
      </trkpt>
      <trkpt lat="43.93429" lon="5.58876">
        <ele>531.934</ele>
        <time>2012-06-18T09:14:12Z</time>
      </trkpt>
      <trkpt lat="43.93418" lon="5.58911">
        <ele>532.442</ele>
        <time>2012-06-18T09:14:37Z</time>
      </trkpt>
      <trkpt lat="43.9341" lon="5.58922">
        <ele>534.569</ele>
        <time>2012-06-18T09:14:51Z</time>
      </trkpt>
      <trkpt lat="43.9341" lon="5.58947">
        <ele>533.756</ele>
        <time>2012-06-18T09:15:11Z</time>
      </trkpt>
      <trkpt lat="43.93408" lon="5.58982">
        <ele>533.434</ele>
        <time>2012-06-18T09:15:34Z</time>
      </trkpt>
      <trkpt lat="43.93422" lon="5.59008">
        <ele>531.51</ele>
        <time>2012-06-18T09:15:57Z</time>
      </trkpt>
      <trkpt lat="43.93435" lon="5.59015">
        <ele>528.717</ele>
        <time>2012-06-18T09:16:13Z</time>
      </trkpt>
      <trkpt lat="43.93452" lon="5.59023">
        <ele>525.409</ele>
        <time>2012-06-18T09:16:33Z</time>
      </trkpt>
      <trkpt lat="43.93471" lon="5.59029">
        <ele>523.68</ele>
        <time>2012-06-18T09:16:56Z</time>
      </trkpt>
      <trkpt lat="43.93481" lon="5.59041">
        <ele>520.204</ele>
        <time>2012-06-18T09:17:14Z</time>
      </trkpt>
      <trkpt lat="43.93491" lon="5.59048">
        <ele>517.603</ele>
        <time>2012-06-18T09:17:29Z</time>
      </trkpt>
      <trkpt lat="43.93499" lon="5.59049">
        <ele>516.295</ele>
        <time>2012-06-18T09:17:44Z</time>
      </trkpt>
      <trkpt lat="43.93508" lon="5.59043">
        <ele>515.498</ele>
        <time>2012-06-18T09:17:57Z</time>
      </trkpt>
      <trkpt lat="43.93509" lon="5.59043">
        <ele>515.093</ele>
        <time>2012-06-18T09:17:58Z</time>
      </trkpt>
      <trkpt lat="43.93526" lon="5.59049">
        <ele>515.833</ele>
        <time>2012-06-18T09:18:17Z</time>
      </trkpt>
      <trkpt lat="43.93532" lon="5.59048">
        <ele>516.168</ele>
        <time>2012-06-18T09:18:32Z</time>
      </trkpt>
      <trkpt lat="43.93538" lon="5.59049">
        <ele>516.705</ele>
        <time>2012-06-18T09:18:49Z</time>
      </trkpt>
      <trkpt lat="43.93538" lon="5.59048">
        <ele>516.39</ele>
        <time>2012-06-18T09:19:31Z</time>
      </trkpt>
      <trkpt lat="43.93532" lon="5.59049">
        <ele>515.172</ele>
        <time>2012-06-18T09:19:39Z</time>
      </trkpt>
      <trkpt lat="43.93504" lon="5.59044">
        <ele>514.32</ele>
        <time>2012-06-18T09:20:05Z</time>
      </trkpt>
      <trkpt lat="43.935" lon="5.59047">
        <ele>514.984</ele>
        <time>2012-06-18T09:20:10Z</time>
      </trkpt>
      <trkpt lat="43.9348" lon="5.59059">
        <ele>515.283</ele>
        <time>2012-06-18T09:20:32Z</time>
      </trkpt>
      <trkpt lat="43.93479" lon="5.59057">
        <ele>515.842</ele>
        <time>2012-06-18T09:20:46Z</time>
      </trkpt>
      <trkpt lat="43.93478" lon="5.59058">
        <ele>516.135</ele>
        <time>2012-06-18T09:20:47Z</time>
      </trkpt>
      <trkpt lat="43.93474" lon="5.59061">
        <ele>515.835</ele>
        <time>2012-06-18T09:20:52Z</time>
      </trkpt>
      <trkpt lat="43.93446" lon="5.59063">
        <ele>517.349</ele>
        <time>2012-06-18T09:21:17Z</time>
      </trkpt>
      <trkpt lat="43.93415" lon="5.59053">
        <ele>516.855</ele>
        <time>2012-06-18T09:21:44Z</time>
      </trkpt>
      <trkpt lat="43.93386" lon="5.59045">
        <ele>515.688</ele>
        <time>2012-06-18T09:22:12Z</time>
      </trkpt>
      <trkpt lat="43.93383" lon="5.59043">
        <ele>514.415</ele>
        <time>2012-06-18T09:22:27Z</time>
      </trkpt>
      <trkpt lat="43.93383" lon="5.59043">
        <ele>511.063</ele>
        <time>2012-06-18T09:22:29Z</time>
      </trkpt>
      <trkpt lat="43.93384" lon="5.59043">
        <ele>512.858</ele>
        <time>2012-06-18T09:22:30Z</time>
      </trkpt>
      <trkpt lat="43.93385" lon="5.59044">
        <ele>514.626</ele>
        <time>2012-06-18T09:22:32Z</time>
      </trkpt>
      <trkpt lat="43.9339" lon="5.59048">
        <ele>514.588</ele>
        <time>2012-06-18T09:22:55Z</time>
      </trkpt>
      <trkpt lat="43.93384" lon="5.59047">
        <ele>514.128</ele>
        <time>2012-06-18T09:25:32Z</time>
      </trkpt>
      <trkpt lat="43.9339" lon="5.59049">
        <ele>516.096</ele>
        <time>2012-06-18T09:26:51Z</time>
      </trkpt>
      <trkpt lat="43.93392" lon="5.59047">
        <ele>516.261</ele>
        <time>2012-06-18T09:27:11Z</time>
      </trkpt>
      <trkpt lat="43.93393" lon="5.5905">
        <ele>515.713</ele>
        <time>2012-06-18T09:27:35Z</time>
      </trkpt>
      <trkpt lat="43.93392" lon="5.59052">
        <ele>516.138</ele>
        <time>2012-06-18T09:27:37Z</time>
      </trkpt>
      <trkpt lat="43.93388" lon="5.59058">
        <ele>514.899</ele>
        <time>2012-06-18T09:27:42Z</time>
      </trkpt>
      <trkpt lat="43.93384" lon="5.59092">
        <ele>517.829</ele>
        <time>2012-06-18T09:28:06Z</time>
      </trkpt>
      <trkpt lat="43.93383" lon="5.59121">
        <ele>519.7</ele>
        <time>2012-06-18T09:28:28Z</time>
      </trkpt>
      <trkpt lat="43.93382" lon="5.59129">
        <ele>520.486</ele>
        <time>2012-06-18T09:28:34Z</time>
      </trkpt>
      <trkpt lat="43.93365" lon="5.5915">
        <ele>522.44</ele>
        <time>2012-06-18T09:28:57Z</time>
      </trkpt>
      <trkpt lat="43.93344" lon="5.59161">
        <ele>524.051</ele>
        <time>2012-06-18T09:29:19Z</time>
      </trkpt>
      <trkpt lat="43.93336" lon="5.59195">
        <ele>525.561</ele>
        <time>2012-06-18T09:29:45Z</time>
      </trkpt>
      <trkpt lat="43.93344" lon="5.59231">
        <ele>527.735</ele>
        <time>2012-06-18T09:30:12Z</time>
      </trkpt>
      <trkpt lat="43.93357" lon="5.59256">
        <ele>530.545</ele>
        <time>2012-06-18T09:30:36Z</time>
      </trkpt>
      <trkpt lat="43.93372" lon="5.59283">
        <ele>533.091</ele>
        <time>2012-06-18T09:31:03Z</time>
      </trkpt>
      <trkpt lat="43.93373" lon="5.59301">
        <ele>535.34</ele>
        <time>2012-06-18T09:31:22Z</time>
      </trkpt>
      <trkpt lat="43.93379" lon="5.59323">
        <ele>537.393</ele>
        <time>2012-06-18T09:31:44Z</time>
      </trkpt>
      <trkpt lat="43.93383" lon="5.59345">
        <ele>538.451</ele>
        <time>2012-06-18T09:32:04Z</time>
      </trkpt>
      <trkpt lat="43.93377" lon="5.59369">
        <ele>540.788</ele>
        <time>2012-06-18T09:32:26Z</time>
      </trkpt>
      <trkpt lat="43.93373" lon="5.59387">
        <ele>542.298</ele>
        <time>2012-06-18T09:32:45Z</time>
      </trkpt>
      <trkpt lat="43.93367" lon="5.59404">
        <ele>543.975</ele>
        <time>2012-06-18T09:33:02Z</time>
      </trkpt>
      <trkpt lat="43.93349" lon="5.59427">
        <ele>545.98</ele>
        <time>2012-06-18T09:33:26Z</time>
      </trkpt>
      <trkpt lat="43.93338" lon="5.59446">
        <ele>547.846</ele>
        <time>2012-06-18T09:33:45Z</time>
      </trkpt>
      <trkpt lat="43.93325" lon="5.5947">
        <ele>548.183</ele>
        <time>2012-06-18T09:34:09Z</time>
      </trkpt>
      <trkpt lat="43.9332" lon="5.59469">
        <ele>549.246</ele>
        <time>2012-06-18T09:34:25Z</time>
      </trkpt>
      <trkpt lat="43.93311" lon="5.59458">
        <ele>550.062</ele>
        <time>2012-06-18T09:34:41Z</time>
      </trkpt>
      <trkpt lat="43.93308" lon="5.59454">
        <ele>550.907</ele>
        <time>2012-06-18T09:34:46Z</time>
      </trkpt>
      <trkpt lat="43.93291" lon="5.59441">
        <ele>552.145</ele>
        <time>2012-06-18T09:35:07Z</time>
      </trkpt>
      <trkpt lat="43.9328" lon="5.59424">
        <ele>554.007</ele>
        <time>2012-06-18T09:35:26Z</time>
      </trkpt>
      <trkpt lat="43.93273" lon="5.59416">
        <ele>554.083</ele>
        <time>2012-06-18T09:35:36Z</time>
      </trkpt>
      <trkpt lat="43.93254" lon="5.59424">
        <ele>556.55</ele>
        <time>2012-06-18T09:35:58Z</time>
      </trkpt>
      <trkpt lat="43.93243" lon="5.5944">
        <ele>557.475</ele>
        <time>2012-06-18T09:36:19Z</time>
      </trkpt>
      <trkpt lat="43.93233" lon="5.59453">
        <ele>560.731</ele>
        <time>2012-06-18T09:36:40Z</time>
      </trkpt>
      <trkpt lat="43.93222" lon="5.59462">
        <ele>562.536</ele>
        <time>2012-06-18T09:36:59Z</time>
      </trkpt>
      <trkpt lat="43.9321" lon="5.5947">
        <ele>563.561</ele>
        <time>2012-06-18T09:37:18Z</time>
      </trkpt>
      <trkpt lat="43.93199" lon="5.59478">
        <ele>565.873</ele>
        <time>2012-06-18T09:37:37Z</time>
      </trkpt>
      <trkpt lat="43.9319" lon="5.59489">
        <ele>568.215</ele>
        <time>2012-06-18T09:37:57Z</time>
      </trkpt>
      <trkpt lat="43.93182" lon="5.59503">
        <ele>570.851</ele>
        <time>2012-06-18T09:38:15Z</time>
      </trkpt>
      <trkpt lat="43.93173" lon="5.59518">
        <ele>572.581</ele>
        <time>2012-06-18T09:38:34Z</time>
      </trkpt>
      <trkpt lat="43.93163" lon="5.59534">
        <ele>574.068</ele>
        <time>2012-06-18T09:38:53Z</time>
      </trkpt>
      <trkpt lat="43.93153" lon="5.59548">
        <ele>574.352</ele>
        <time>2012-06-18T09:39:11Z</time>
      </trkpt>
      <trkpt lat="43.93147" lon="5.59563">
        <ele>576.751</ele>
        <time>2012-06-18T09:39:27Z</time>
      </trkpt>
      <trkpt lat="43.93141" lon="5.59581">
        <ele>578.011</ele>
        <time>2012-06-18T09:39:45Z</time>
      </trkpt>
      <trkpt lat="43.93133" lon="5.59605">
        <ele>579.326</ele>
        <time>2012-06-18T09:40:08Z</time>
      </trkpt>
      <trkpt lat="43.93125" lon="5.59627">
        <ele>581.519</ele>
        <time>2012-06-18T09:40:29Z</time>
      </trkpt>
      <trkpt lat="43.93117" lon="5.59652">
        <ele>581.361</ele>
        <time>2012-06-18T09:40:50Z</time>
      </trkpt>
      <trkpt lat="43.9311" lon="5.59674">
        <ele>582.348</ele>
        <time>2012-06-18T09:41:10Z</time>
      </trkpt>
      <trkpt lat="43.93107" lon="5.59682">
        <ele>583.183</ele>
        <time>2012-06-18T09:41:17Z</time>
      </trkpt>
      <trkpt lat="43.93097" lon="5.59698">
        <ele>583.212</ele>
        <time>2012-06-18T09:41:33Z</time>
      </trkpt>
      <trkpt lat="43.93084" lon="5.59714">
        <ele>583.461</ele>
        <time>2012-06-18T09:41:51Z</time>
      </trkpt>
      <trkpt lat="43.93069" lon="5.59722">
        <ele>582.976</ele>
        <time>2012-06-18T09:42:08Z</time>
      </trkpt>
      <trkpt lat="43.93057" lon="5.59727">
        <ele>582.354</ele>
        <time>2012-06-18T09:42:22Z</time>
      </trkpt>
      <trkpt lat="43.93044" lon="5.59731">
        <ele>581.046</ele>
        <time>2012-06-18T09:42:38Z</time>
      </trkpt>
      <trkpt lat="43.93028" lon="5.5974">
        <ele>580.674</ele>
        <time>2012-06-18T09:42:54Z</time>
      </trkpt>
      <trkpt lat="43.93005" lon="5.59758">
        <ele>580.189</ele>
        <time>2012-06-18T09:43:18Z</time>
      </trkpt>
      <trkpt lat="43.92985" lon="5.59776">
        <ele>580.17</ele>
        <time>2012-06-18T09:43:41Z</time>
      </trkpt>
      <trkpt lat="43.92973" lon="5.598">
        <ele>580</ele>
        <time>2012-06-18T09:44:02Z</time>
      </trkpt>
      <trkpt lat="43.92956" lon="5.5983">
        <ele>580.504</ele>
        <time>2012-06-18T09:44:28Z</time>
      </trkpt>
      <trkpt lat="43.92941" lon="5.59854">
        <ele>581.456</ele>
        <time>2012-06-18T09:44:51Z</time>
      </trkpt>
      <trkpt lat="43.92927" lon="5.59882">
        <ele>584.405</ele>
        <time>2012-06-18T09:45:18Z</time>
      </trkpt>
      <trkpt lat="43.92909" lon="5.59912">
        <ele>585.279</ele>
        <time>2012-06-18T09:45:46Z</time>
      </trkpt>
      <trkpt lat="43.92891" lon="5.59938">
        <ele>585.798</ele>
        <time>2012-06-18T09:46:10Z</time>
      </trkpt>
      <trkpt lat="43.92872" lon="5.59966">
        <ele>587.238</ele>
        <time>2012-06-18T09:46:36Z</time>
      </trkpt>
      <trkpt lat="43.92852" lon="5.59996">
        <ele>590.151</ele>
        <time>2012-06-18T09:47:06Z</time>
      </trkpt>
      <trkpt lat="43.92835" lon="5.60021">
        <ele>591.522</ele>
        <time>2012-06-18T09:47:32Z</time>
      </trkpt>
      <trkpt lat="43.92815" lon="5.60045">
        <ele>594.287</ele>
        <time>2012-06-18T09:47:59Z</time>
      </trkpt>
      <trkpt lat="43.92794" lon="5.60071">
        <ele>595.153</ele>
        <time>2012-06-18T09:48:26Z</time>
      </trkpt>
      <trkpt lat="43.92775" lon="5.60093">
        <ele>596.778</ele>
        <time>2012-06-18T09:48:50Z</time>
      </trkpt>
      <trkpt lat="43.92753" lon="5.60119">
        <ele>598.96</ele>
        <time>2012-06-18T09:49:20Z</time>
      </trkpt>
      <trkpt lat="43.92727" lon="5.60146">
        <ele>600.123</ele>
        <time>2012-06-18T09:49:51Z</time>
      </trkpt>
      <trkpt lat="43.92703" lon="5.60168">
        <ele>601.109</ele>
        <time>2012-06-18T09:50:19Z</time>
      </trkpt>
      <trkpt lat="43.92678" lon="5.60178">
        <ele>602.482</ele>
        <time>2012-06-18T09:50:44Z</time>
      </trkpt>
      <trkpt lat="43.92653" lon="5.60175">
        <ele>604.171</ele>
        <time>2012-06-18T09:51:08Z</time>
      </trkpt>
      <trkpt lat="43.92627" lon="5.60171">
        <ele>605.738</ele>
        <time>2012-06-18T09:51:34Z</time>
      </trkpt>
      <trkpt lat="43.92602" lon="5.60166">
        <ele>607.291</ele>
        <time>2012-06-18T09:51:59Z</time>
      </trkpt>
      <trkpt lat="43.92577" lon="5.60158">
        <ele>609.919</ele>
        <time>2012-06-18T09:52:26Z</time>
      </trkpt>
      <trkpt lat="43.92557" lon="5.60155">
        <ele>611.429</ele>
        <time>2012-06-18T09:52:47Z</time>
      </trkpt>
      <trkpt lat="43.92534" lon="5.60151">
        <ele>614.038</ele>
        <time>2012-06-18T09:53:12Z</time>
      </trkpt>
      <trkpt lat="43.92512" lon="5.60155">
        <ele>616.051</ele>
        <time>2012-06-18T09:53:37Z</time>
      </trkpt>
      <trkpt lat="43.92492" lon="5.60158">
        <ele>618.179</ele>
        <time>2012-06-18T09:54:00Z</time>
      </trkpt>
      <trkpt lat="43.92472" lon="5.60161">
        <ele>620.847</ele>
        <time>2012-06-18T09:54:23Z</time>
      </trkpt>
      <trkpt lat="43.92453" lon="5.60161">
        <ele>624.107</ele>
        <time>2012-06-18T09:54:46Z</time>
      </trkpt>
      <trkpt lat="43.92434" lon="5.6015">
        <ele>625.86</ele>
        <time>2012-06-18T09:55:10Z</time>
      </trkpt>
      <trkpt lat="43.92415" lon="5.60139">
        <ele>628.042</ele>
        <time>2012-06-18T09:55:33Z</time>
      </trkpt>
      <trkpt lat="43.92401" lon="5.6013">
        <ele>629.701</ele>
        <time>2012-06-18T09:55:52Z</time>
      </trkpt>
      <trkpt lat="43.924" lon="5.60129">
        <ele>629.271</ele>
        <time>2012-06-18T09:56:08Z</time>
      </trkpt>
      <trkpt lat="43.92398" lon="5.60128">
        <ele>629.283</ele>
        <time>2012-06-18T09:56:36Z</time>
      </trkpt>
      <trkpt lat="43.92394" lon="5.60129">
        <ele>629.516</ele>
        <time>2012-06-18T09:56:40Z</time>
      </trkpt>
      <trkpt lat="43.92394" lon="5.60147">
        <ele>632.581</ele>
        <time>2012-06-18T09:57:00Z</time>
      </trkpt>
      <trkpt lat="43.92399" lon="5.60154">
        <ele>633.718</ele>
        <time>2012-06-18T09:57:07Z</time>
      </trkpt>
      <trkpt lat="43.92415" lon="5.60179">
        <ele>636.134</ele>
        <time>2012-06-18T09:57:31Z</time>
      </trkpt>
      <trkpt lat="43.92435" lon="5.60206">
        <ele>637.565</ele>
        <time>2012-06-18T09:57:59Z</time>
      </trkpt>
      <trkpt lat="43.92459" lon="5.60226">
        <ele>638.868</ele>
        <time>2012-06-18T09:58:29Z</time>
      </trkpt>
      <trkpt lat="43.92472" lon="5.60233">
        <ele>641.903</ele>
        <time>2012-06-18T09:58:44Z</time>
      </trkpt>
      <trkpt lat="43.92489" lon="5.60244">
        <ele>644.596</ele>
        <time>2012-06-18T09:59:05Z</time>
      </trkpt>
      <trkpt lat="43.92508" lon="5.60264">
        <ele>646.699</ele>
        <time>2012-06-18T09:59:31Z</time>
      </trkpt>
      <trkpt lat="43.92512" lon="5.60299">
        <ele>646.908</ele>
        <time>2012-06-18T09:59:57Z</time>
      </trkpt>
      <trkpt lat="43.9249" lon="5.60321">
        <ele>648.333</ele>
        <time>2012-06-18T10:00:22Z</time>
      </trkpt>
      <trkpt lat="43.9247" lon="5.60333">
        <ele>649.223</ele>
        <time>2012-06-18T10:00:48Z</time>
      </trkpt>
      <trkpt lat="43.92455" lon="5.60347">
        <ele>650.641</ele>
        <time>2012-06-18T10:01:08Z</time>
      </trkpt>
      <trkpt lat="43.92444" lon="5.60368">
        <ele>652.729</ele>
        <time>2012-06-18T10:01:31Z</time>
      </trkpt>
      <trkpt lat="43.92437" lon="5.60384">
        <ele>654.987</ele>
        <time>2012-06-18T10:01:50Z</time>
      </trkpt>
      <trkpt lat="43.92429" lon="5.60403">
        <ele>656.886</ele>
        <time>2012-06-18T10:02:13Z</time>
      </trkpt>
      <trkpt lat="43.9242" lon="5.60422">
        <ele>659.039</ele>
        <time>2012-06-18T10:02:35Z</time>
      </trkpt>
      <trkpt lat="43.92417" lon="5.60434">
        <ele>662.17</ele>
        <time>2012-06-18T10:02:47Z</time>
      </trkpt>
      <trkpt lat="43.92412" lon="5.60452">
        <ele>664.363</ele>
        <time>2012-06-18T10:03:05Z</time>
      </trkpt>
      <trkpt lat="43.92407" lon="5.60471">
        <ele>666.034</ele>
        <time>2012-06-18T10:03:24Z</time>
      </trkpt>
      <trkpt lat="43.92401" lon="5.60495">
        <ele>667.827</ele>
        <time>2012-06-18T10:03:47Z</time>
      </trkpt>
      <trkpt lat="43.92396" lon="5.60523">
        <ele>670.199</ele>
        <time>2012-06-18T10:04:11Z</time>
      </trkpt>
      <trkpt lat="43.92394" lon="5.60539">
        <ele>670.899</ele>
        <time>2012-06-18T10:04:35Z</time>
      </trkpt>
      <trkpt lat="43.92394" lon="5.60541">
        <ele>671.276</ele>
        <time>2012-06-18T10:04:59Z</time>
      </trkpt>
      <trkpt lat="43.92394" lon="5.60543">
        <ele>671.149</ele>
        <time>2012-06-18T10:05:06Z</time>
      </trkpt>
      <trkpt lat="43.92385" lon="5.6057">
        <ele>673.038</ele>
        <time>2012-06-18T10:05:28Z</time>
      </trkpt>
      <trkpt lat="43.92378" lon="5.60601">
        <ele>675.047</ele>
        <time>2012-06-18T10:05:52Z</time>
      </trkpt>
      <trkpt lat="43.92363" lon="5.6062">
        <ele>675.851</ele>
        <time>2012-06-18T10:06:12Z</time>
      </trkpt>
      <trkpt lat="43.92343" lon="5.60625">
        <ele>677.187</ele>
        <time>2012-06-18T10:06:33Z</time>
      </trkpt>
      <trkpt lat="43.92341" lon="5.60627">
        <ele>677.147</ele>
        <time>2012-06-18T10:06:55Z</time>
      </trkpt>
      <trkpt lat="43.92341" lon="5.60628">
        <ele>677.843</ele>
        <time>2012-06-18T10:07:25Z</time>
      </trkpt>
      <trkpt lat="43.92341" lon="5.60627">
        <ele>677.182</ele>
        <time>2012-06-18T10:07:55Z</time>
      </trkpt>
      <trkpt lat="43.92332" lon="5.60633">
        <ele>677.133</ele>
        <time>2012-06-18T10:08:41Z</time>
      </trkpt>
      <trkpt lat="43.92322" lon="5.60646">
        <ele>678.112</ele>
        <time>2012-06-18T10:08:58Z</time>
      </trkpt>
      <trkpt lat="43.92306" lon="5.60667">
        <ele>678.798</ele>
        <time>2012-06-18T10:09:20Z</time>
      </trkpt>
      <trkpt lat="43.92293" lon="5.60688">
        <ele>679.433</ele>
        <time>2012-06-18T10:09:40Z</time>
      </trkpt>
      <trkpt lat="43.92277" lon="5.60713">
        <ele>681.144</ele>
        <time>2012-06-18T10:10:03Z</time>
      </trkpt>
      <trkpt lat="43.92254" lon="5.60732">
        <ele>680.364</ele>
        <time>2012-06-18T10:10:28Z</time>
      </trkpt>
      <trkpt lat="43.92229" lon="5.60753">
        <ele>679.508</ele>
        <time>2012-06-18T10:10:55Z</time>
      </trkpt>
      <trkpt lat="43.92203" lon="5.60774">
        <ele>680.418</ele>
        <time>2012-06-18T10:11:23Z</time>
      </trkpt>
      <trkpt lat="43.92181" lon="5.60799">
        <ele>681.061</ele>
        <time>2012-06-18T10:11:50Z</time>
      </trkpt>
      <trkpt lat="43.92167" lon="5.6081">
        <ele>681.12</ele>
        <time>2012-06-18T10:12:10Z</time>
      </trkpt>
      <trkpt lat="43.92152" lon="5.6082">
        <ele>682.411</ele>
        <time>2012-06-18T10:12:29Z</time>
      </trkpt>
      <trkpt lat="43.92139" lon="5.60832">
        <ele>685.67</ele>
        <time>2012-06-18T10:12:50Z</time>
      </trkpt>
      <trkpt lat="43.92123" lon="5.60841">
        <ele>686.861</ele>
        <time>2012-06-18T10:13:13Z</time>
      </trkpt>
      <trkpt lat="43.92107" lon="5.6085">
        <ele>688.078</ele>
        <time>2012-06-18T10:13:37Z</time>
      </trkpt>
      <trkpt lat="43.92092" lon="5.60856">
        <ele>691.292</ele>
        <time>2012-06-18T10:14:01Z</time>
      </trkpt>
      <trkpt lat="43.92076" lon="5.60861">
        <ele>694.244</ele>
        <time>2012-06-18T10:14:24Z</time>
      </trkpt>
      <trkpt lat="43.92063" lon="5.60864">
        <ele>696.025</ele>
        <time>2012-06-18T10:14:45Z</time>
      </trkpt>
      <trkpt lat="43.92049" lon="5.60866">
        <ele>697.35</ele>
        <time>2012-06-18T10:15:06Z</time>
      </trkpt>
      <trkpt lat="43.92035" lon="5.60872">
        <ele>700.096</ele>
        <time>2012-06-18T10:15:29Z</time>
      </trkpt>
      <trkpt lat="43.92031" lon="5.60874">
        <ele>701.525</ele>
        <time>2012-06-18T10:15:35Z</time>
      </trkpt>
      <trkpt lat="43.9203" lon="5.60875">
        <ele>701.644</ele>
        <time>2012-06-18T10:16:02Z</time>
      </trkpt>
      <trkpt lat="43.92029" lon="5.60874">
        <ele>701.633</ele>
        <time>2012-06-18T10:16:36Z</time>
      </trkpt>
      <trkpt lat="43.92023" lon="5.60874">
        <ele>701.885</ele>
        <time>2012-06-18T10:16:59Z</time>
      </trkpt>
      <trkpt lat="43.92012" lon="5.60867">
        <ele>703.756</ele>
        <time>2012-06-18T10:17:19Z</time>
      </trkpt>
      <trkpt lat="43.91997" lon="5.60861">
        <ele>706.455</ele>
        <time>2012-06-18T10:17:40Z</time>
      </trkpt>
      <trkpt lat="43.91982" lon="5.60863">
        <ele>708.247</ele>
        <time>2012-06-18T10:18:01Z</time>
      </trkpt>
      <trkpt lat="43.91967" lon="5.60868">
        <ele>711.069</ele>
        <time>2012-06-18T10:18:23Z</time>
      </trkpt>
      <trkpt lat="43.91953" lon="5.60872">
        <ele>713.447</ele>
        <time>2012-06-18T10:18:46Z</time>
      </trkpt>
      <trkpt lat="43.9194" lon="5.60874">
        <ele>716.326</ele>
        <time>2012-06-18T10:19:06Z</time>
      </trkpt>
      <trkpt lat="43.91924" lon="5.60876">
        <ele>717.769</ele>
        <time>2012-06-18T10:19:28Z</time>
      </trkpt>
      <trkpt lat="43.91908" lon="5.60877">
        <ele>719.749</ele>
        <time>2012-06-18T10:19:49Z</time>
      </trkpt>
      <trkpt lat="43.91892" lon="5.60877">
        <ele>721.506</ele>
        <time>2012-06-18T10:20:09Z</time>
      </trkpt>
      <trkpt lat="43.91869" lon="5.6088">
        <ele>721.768</ele>
        <time>2012-06-18T10:20:34Z</time>
      </trkpt>
      <trkpt lat="43.91851" lon="5.60885">
        <ele>723.368</ele>
        <time>2012-06-18T10:20:56Z</time>
      </trkpt>
      <trkpt lat="43.9184" lon="5.60892">
        <ele>725.252</ele>
        <time>2012-06-18T10:21:10Z</time>
      </trkpt>
      <trkpt lat="43.9182" lon="5.60899">
        <ele>726.065</ele>
        <time>2012-06-18T10:21:34Z</time>
      </trkpt>
      <trkpt lat="43.91802" lon="5.60905">
        <ele>727.883</ele>
        <time>2012-06-18T10:21:56Z</time>
      </trkpt>
      <trkpt lat="43.91787" lon="5.60915">
        <ele>729.042</ele>
        <time>2012-06-18T10:22:16Z</time>
      </trkpt>
      <trkpt lat="43.91776" lon="5.60927">
        <ele>731.429</ele>
        <time>2012-06-18T10:22:36Z</time>
      </trkpt>
      <trkpt lat="43.91768" lon="5.60939">
        <ele>734.139</ele>
        <time>2012-06-18T10:23:05Z</time>
      </trkpt>
      <trkpt lat="43.91758" lon="5.60955">
        <ele>736.35</ele>
        <time>2012-06-18T10:23:28Z</time>
      </trkpt>
      <trkpt lat="43.91752" lon="5.60971">
        <ele>738.713</ele>
        <time>2012-06-18T10:23:49Z</time>
      </trkpt>
      <trkpt lat="43.91752" lon="5.60971">
        <ele>738.239</ele>
        <time>2012-06-18T10:24:14Z</time>
      </trkpt>
      <trkpt lat="43.91753" lon="5.60971">
        <ele>738.17</ele>
        <time>2012-06-18T10:26:21Z</time>
      </trkpt>
      <trkpt lat="43.91752" lon="5.6097">
        <ele>738.43</ele>
        <time>2012-06-18T10:27:00Z</time>
      </trkpt>
      <trkpt lat="43.9175" lon="5.60969">
        <ele>737.737</ele>
        <time>2012-06-18T10:27:43Z</time>
      </trkpt>
      <trkpt lat="43.91751" lon="5.60973">
        <ele>738.176</ele>
        <time>2012-06-18T10:28:09Z</time>
      </trkpt>
      <trkpt lat="43.91754" lon="5.60971">
        <ele>738.839</ele>
        <time>2012-06-18T10:30:37Z</time>
      </trkpt>
      <trkpt lat="43.91754" lon="5.60971">
        <ele>737.462</ele>
        <time>2012-06-18T10:31:51Z</time>
      </trkpt>
      <trkpt lat="43.91751" lon="5.60964">
        <ele>737.406</ele>
        <time>2012-06-18T10:34:06Z</time>
      </trkpt>
      <trkpt lat="43.91752" lon="5.60969">
        <ele>737.761</ele>
        <time>2012-06-18T10:34:45Z</time>
      </trkpt>
      <trkpt lat="43.91752" lon="5.60967">
        <ele>738.079</ele>
        <time>2012-06-18T10:35:36Z</time>
      </trkpt>
      <trkpt lat="43.91749" lon="5.60959">
        <ele>737.886</ele>
        <time>2012-06-18T10:36:40Z</time>
      </trkpt>
      <trkpt lat="43.9175" lon="5.60961">
        <ele>738.039</ele>
        <time>2012-06-18T10:37:18Z</time>
      </trkpt>
      <trkpt lat="43.91751" lon="5.60964">
        <ele>737.212</ele>
        <time>2012-06-18T10:37:49Z</time>
      </trkpt>
      <trkpt lat="43.91753" lon="5.60967">
        <ele>736.894</ele>
        <time>2012-06-18T10:38:19Z</time>
      </trkpt>
      <trkpt lat="43.91752" lon="5.60968">
        <ele>736.332</ele>
        <time>2012-06-18T10:38:40Z</time>
      </trkpt>
      <trkpt lat="43.91753" lon="5.60966">
        <ele>737.106</ele>
        <time>2012-06-18T10:39:10Z</time>
      </trkpt>
      <trkpt lat="43.91746" lon="5.60973">
        <ele>738.796</ele>
        <time>2012-06-18T10:39:33Z</time>
      </trkpt>
      <trkpt lat="43.91735" lon="5.60983">
        <ele>741.32</ele>
        <time>2012-06-18T10:39:54Z</time>
      </trkpt>
      <trkpt lat="43.91719" lon="5.60985">
        <ele>742.138</ele>
        <time>2012-06-18T10:40:12Z</time>
      </trkpt>
      <trkpt lat="43.917" lon="5.60983">
        <ele>743.698</ele>
        <time>2012-06-18T10:40:32Z</time>
      </trkpt>
      <trkpt lat="43.91682" lon="5.60976">
        <ele>745.503</ele>
        <time>2012-06-18T10:40:53Z</time>
      </trkpt>
      <trkpt lat="43.91665" lon="5.60972">
        <ele>747.309</ele>
        <time>2012-06-18T10:41:14Z</time>
      </trkpt>
      <trkpt lat="43.91649" lon="5.60968">
        <ele>750.061</ele>
        <time>2012-06-18T10:41:35Z</time>
      </trkpt>
      <trkpt lat="43.91635" lon="5.60967">
        <ele>751.476</ele>
        <time>2012-06-18T10:41:54Z</time>
      </trkpt>
      <trkpt lat="43.9162" lon="5.60965">
        <ele>754.601</ele>
        <time>2012-06-18T10:42:15Z</time>
      </trkpt>
      <trkpt lat="43.91602" lon="5.6096">
        <ele>754.994</ele>
        <time>2012-06-18T10:42:34Z</time>
      </trkpt>
      <trkpt lat="43.9158" lon="5.60953">
        <ele>754.299</ele>
        <time>2012-06-18T10:42:56Z</time>
      </trkpt>
      <trkpt lat="43.91559" lon="5.60954">
        <ele>754.93</ele>
        <time>2012-06-18T10:43:19Z</time>
      </trkpt>
      <trkpt lat="43.91544" lon="5.60955">
        <ele>754.117</ele>
        <time>2012-06-18T10:43:34Z</time>
      </trkpt>
      <trkpt lat="43.91508" lon="5.60953">
        <ele>752.607</ele>
        <time>2012-06-18T10:44:03Z</time>
      </trkpt>
      <trkpt lat="43.91483" lon="5.60952">
        <ele>751.401</ele>
        <time>2012-06-18T10:44:26Z</time>
      </trkpt>
      <trkpt lat="43.91452" lon="5.60956">
        <ele>748.135</ele>
        <time>2012-06-18T10:44:55Z</time>
      </trkpt>
      <trkpt lat="43.91425" lon="5.60957">
        <ele>746.097</ele>
        <time>2012-06-18T10:45:21Z</time>
      </trkpt>
      <trkpt lat="43.91405" lon="5.60959">
        <ele>743.051</ele>
        <time>2012-06-18T10:45:41Z</time>
      </trkpt>
      <trkpt lat="43.91384" lon="5.60972">
        <ele>740.031</ele>
        <time>2012-06-18T10:46:05Z</time>
      </trkpt>
      <trkpt lat="43.91369" lon="5.6098">
        <ele>738.847</ele>
        <time>2012-06-18T10:46:24Z</time>
      </trkpt>
      <trkpt lat="43.91349" lon="5.60981">
        <ele>736.648</ele>
        <time>2012-06-18T10:46:43Z</time>
      </trkpt>
      <trkpt lat="43.91329" lon="5.60982">
        <ele>734.506</ele>
        <time>2012-06-18T10:47:02Z</time>
      </trkpt>
      <trkpt lat="43.9131" lon="5.6098">
        <ele>731.927</ele>
        <time>2012-06-18T10:47:20Z</time>
      </trkpt>
      <trkpt lat="43.91289" lon="5.60983">
        <ele>730.206</ele>
        <time>2012-06-18T10:47:41Z</time>
      </trkpt>
      <trkpt lat="43.91267" lon="5.6099">
        <ele>726.791</ele>
        <time>2012-06-18T10:48:03Z</time>
      </trkpt>
      <trkpt lat="43.91252" lon="5.60995">
        <ele>725.52</ele>
        <time>2012-06-18T10:48:18Z</time>
      </trkpt>
      <trkpt lat="43.91226" lon="5.61002">
        <ele>723.559</ele>
        <time>2012-06-18T10:48:42Z</time>
      </trkpt>
      <trkpt lat="43.91193" lon="5.60993">
        <ele>720.215</ele>
        <time>2012-06-18T10:49:11Z</time>
      </trkpt>
      <trkpt lat="43.91181" lon="5.60988">
        <ele>720.061</ele>
        <time>2012-06-18T10:49:23Z</time>
      </trkpt>
      <trkpt lat="43.91159" lon="5.60996">
        <ele>717.498</ele>
        <time>2012-06-18T10:49:45Z</time>
      </trkpt>
      <trkpt lat="43.91134" lon="5.61004">
        <ele>715.022</ele>
        <time>2012-06-18T10:50:10Z</time>
      </trkpt>
      <trkpt lat="43.91125" lon="5.61008">
        <ele>713.934</ele>
        <time>2012-06-18T10:50:19Z</time>
      </trkpt>
      <trkpt lat="43.91099" lon="5.6102">
        <ele>710.954</ele>
        <time>2012-06-18T10:50:45Z</time>
      </trkpt>
      <trkpt lat="43.91078" lon="5.61034">
        <ele>707.851</ele>
        <time>2012-06-18T10:51:06Z</time>
      </trkpt>
      <trkpt lat="43.9105" lon="5.61055">
        <ele>706.366</ele>
        <time>2012-06-18T10:51:35Z</time>
      </trkpt>
      <trkpt lat="43.9103" lon="5.61074">
        <ele>703.968</ele>
        <time>2012-06-18T10:51:59Z</time>
      </trkpt>
      <trkpt lat="43.91006" lon="5.61099">
        <ele>702.159</ele>
        <time>2012-06-18T10:52:27Z</time>
      </trkpt>
      <trkpt lat="43.90979" lon="5.61121">
        <ele>699.798</ele>
        <time>2012-06-18T10:52:56Z</time>
      </trkpt>
      <trkpt lat="43.90959" lon="5.61142">
        <ele>696.523</ele>
        <time>2012-06-18T10:53:21Z</time>
      </trkpt>
      <trkpt lat="43.90936" lon="5.61154">
        <ele>694.329</ele>
        <time>2012-06-18T10:53:46Z</time>
      </trkpt>
      <trkpt lat="43.90914" lon="5.61166">
        <ele>690.356</ele>
        <time>2012-06-18T10:54:09Z</time>
      </trkpt>
      <trkpt lat="43.90897" lon="5.61182">
        <ele>688.055</ele>
        <time>2012-06-18T10:54:29Z</time>
      </trkpt>
      <trkpt lat="43.9088" lon="5.61204">
        <ele>685.145</ele>
        <time>2012-06-18T10:54:53Z</time>
      </trkpt>
      <trkpt lat="43.90864" lon="5.61217">
        <ele>683.239</ele>
        <time>2012-06-18T10:55:13Z</time>
      </trkpt>
      <trkpt lat="43.90846" lon="5.61236">
        <ele>680.225</ele>
        <time>2012-06-18T10:55:37Z</time>
      </trkpt>
      <trkpt lat="43.9083" lon="5.61257">
        <ele>677.09</ele>
        <time>2012-06-18T10:56:00Z</time>
      </trkpt>
      <trkpt lat="43.9082" lon="5.61275">
        <ele>673.792</ele>
        <time>2012-06-18T10:56:18Z</time>
      </trkpt>
      <trkpt lat="43.90807" lon="5.61297">
        <ele>670.061</ele>
        <time>2012-06-18T10:56:40Z</time>
      </trkpt>
      <trkpt lat="43.90795" lon="5.61325">
        <ele>666.645</ele>
        <time>2012-06-18T10:57:04Z</time>
      </trkpt>
      <trkpt lat="43.9079" lon="5.61353">
        <ele>664.15</ele>
        <time>2012-06-18T10:57:26Z</time>
      </trkpt>
      <trkpt lat="43.90786" lon="5.61359">
        <ele>664.017</ele>
        <time>2012-06-18T10:57:32Z</time>
      </trkpt>
      <trkpt lat="43.90774" lon="5.61382">
        <ele>660.876</ele>
        <time>2012-06-18T10:57:52Z</time>
      </trkpt>
      <trkpt lat="43.90773" lon="5.61383">
        <ele>661.402</ele>
        <time>2012-06-18T10:57:53Z</time>
      </trkpt>
      <trkpt lat="43.90771" lon="5.61388">
        <ele>660.848</ele>
        <time>2012-06-18T10:57:57Z</time>
      </trkpt>
      <trkpt lat="43.90757" lon="5.61405">
        <ele>657.858</ele>
        <time>2012-06-18T10:58:16Z</time>
      </trkpt>
      <trkpt lat="43.90743" lon="5.61426">
        <ele>654.548</ele>
        <time>2012-06-18T10:58:38Z</time>
      </trkpt>
      <trkpt lat="43.90729" lon="5.61441">
        <ele>651.318</ele>
        <time>2012-06-18T10:58:58Z</time>
      </trkpt>
      <trkpt lat="43.90717" lon="5.61458">
        <ele>647.706</ele>
        <time>2012-06-18T10:59:19Z</time>
      </trkpt>
      <trkpt lat="43.90707" lon="5.61471">
        <ele>644.934</ele>
        <time>2012-06-18T10:59:36Z</time>
      </trkpt>
      <trkpt lat="43.90696" lon="5.6148">
        <ele>641.497</ele>
        <time>2012-06-18T10:59:51Z</time>
      </trkpt>
      <trkpt lat="43.9069" lon="5.61496">
        <ele>640.167</ele>
        <time>2012-06-18T11:00:07Z</time>
      </trkpt>
      <trkpt lat="43.907" lon="5.61515">
        <ele>637.707</ele>
        <time>2012-06-18T11:00:27Z</time>
      </trkpt>
      <trkpt lat="43.90715" lon="5.61535">
        <ele>636.213</ele>
        <time>2012-06-18T11:00:48Z</time>
      </trkpt>
      <trkpt lat="43.90728" lon="5.61551">
        <ele>633.043</ele>
        <time>2012-06-18T11:01:07Z</time>
      </trkpt>
      <trkpt lat="43.90733" lon="5.61557">
        <ele>632.826</ele>
        <time>2012-06-18T11:01:25Z</time>
      </trkpt>
      <trkpt lat="43.90745" lon="5.61567">
        <ele>630.806</ele>
        <time>2012-06-18T11:01:44Z</time>
      </trkpt>
      <trkpt lat="43.90746" lon="5.61568">
        <ele>630.063</ele>
        <time>2012-06-18T11:01:46Z</time>
      </trkpt>
      <trkpt lat="43.90748" lon="5.61569">
        <ele>629.231</ele>
        <time>2012-06-18T11:01:48Z</time>
      </trkpt>
      <trkpt lat="43.90752" lon="5.61572">
        <ele>629.04</ele>
        <time>2012-06-18T11:01:52Z</time>
      </trkpt>
      <trkpt lat="43.90773" lon="5.61582">
        <ele>626.263</ele>
        <time>2012-06-18T11:02:18Z</time>
      </trkpt>
      <trkpt lat="43.90764" lon="5.61596">
        <ele>624.359</ele>
        <time>2012-06-18T11:02:34Z</time>
      </trkpt>
      <trkpt lat="43.90759" lon="5.61602">
        <ele>622.805</ele>
        <time>2012-06-18T11:02:55Z</time>
      </trkpt>
      <trkpt lat="43.90759" lon="5.61602">
        <ele>619.107</ele>
        <time>2012-06-18T11:02:57Z</time>
      </trkpt>
      <trkpt lat="43.90759" lon="5.61602">
        <ele>622.395</ele>
        <time>2012-06-18T11:02:58Z</time>
      </trkpt>
      <trkpt lat="43.90757" lon="5.61603">
        <ele>622.837</ele>
        <time>2012-06-18T11:03:27Z</time>
      </trkpt>
      <trkpt lat="43.90754" lon="5.61602">
        <ele>621.759</ele>
        <time>2012-06-18T11:03:55Z</time>
      </trkpt>
      <trkpt lat="43.90757" lon="5.61601">
        <ele>622.221</ele>
        <time>2012-06-18T11:04:34Z</time>
      </trkpt>
      <trkpt lat="43.90756" lon="5.61602">
        <ele>620.613</ele>
        <time>2012-06-18T11:05:34Z</time>
      </trkpt>
      <trkpt lat="43.90756" lon="5.61602">
        <ele>622.18</ele>
        <time>2012-06-18T11:06:29Z</time>
      </trkpt>
      <trkpt lat="43.90752" lon="5.61601">
        <ele>621.884</ele>
        <time>2012-06-18T11:08:36Z</time>
      </trkpt>
      <trkpt lat="43.90753" lon="5.61603">
        <ele>620.853</ele>
        <time>2012-06-18T11:12:18Z</time>
      </trkpt>
      <trkpt lat="43.90752" lon="5.61603">
        <ele>621.564</ele>
        <time>2012-06-18T11:12:54Z</time>
      </trkpt>
      <trkpt lat="43.90754" lon="5.61603">
        <ele>622.291</ele>
        <time>2012-06-18T11:16:32Z</time>
      </trkpt>
      <trkpt lat="43.90755" lon="5.61603">
        <ele>618.884</ele>
        <time>2012-06-18T11:17:27Z</time>
      </trkpt>
      <trkpt lat="43.90755" lon="5.61603">
        <ele>620.93</ele>
        <time>2012-06-18T11:17:28Z</time>
      </trkpt>
      <trkpt lat="43.90755" lon="5.61603">
        <ele>622.091</ele>
        <time>2012-06-18T11:17:30Z</time>
      </trkpt>
      <trkpt lat="43.90754" lon="5.61597">
        <ele>622.553</ele>
        <time>2012-06-18T11:18:04Z</time>
      </trkpt>
      <trkpt lat="43.90756" lon="5.61606">
        <ele>622.621</ele>
        <time>2012-06-18T11:19:56Z</time>
      </trkpt>
      <trkpt lat="43.90756" lon="5.61602">
        <ele>622.593</ele>
        <time>2012-06-18T11:20:36Z</time>
      </trkpt>
      <trkpt lat="43.90757" lon="5.61599">
        <ele>621.574</ele>
        <time>2012-06-18T11:21:09Z</time>
      </trkpt>
      <trkpt lat="43.90755" lon="5.61588">
        <ele>621.762</ele>
        <time>2012-06-18T11:22:12Z</time>
      </trkpt>
      <trkpt lat="43.90757" lon="5.61597">
        <ele>621.387</ele>
        <time>2012-06-18T11:23:32Z</time>
      </trkpt>
      <trkpt lat="43.90757" lon="5.61595">
        <ele>622.128</ele>
        <time>2012-06-18T11:24:14Z</time>
      </trkpt>
      <trkpt lat="43.90757" lon="5.61597">
        <ele>621.224</ele>
        <time>2012-06-18T11:25:47Z</time>
      </trkpt>
      <trkpt lat="43.90757" lon="5.61601">
        <ele>620.28</ele>
        <time>2012-06-18T11:28:33Z</time>
      </trkpt>
      <trkpt lat="43.90757" lon="5.61603">
        <ele>613.047</ele>
        <time>2012-06-18T11:40:02Z</time>
      </trkpt>
      <trkpt lat="43.90757" lon="5.61603">
        <ele>617.786</ele>
        <time>2012-06-18T11:40:03Z</time>
      </trkpt>
      <trkpt lat="43.90757" lon="5.61603">
        <ele>618.297</ele>
        <time>2012-06-18T11:40:09Z</time>
      </trkpt>
      <trkpt lat="43.90757" lon="5.616">
        <ele>625.315</ele>
        <time>2012-06-18T11:40:46Z</time>
      </trkpt>
      <trkpt lat="43.90757" lon="5.616">
        <ele>620.402</ele>
        <time>2012-06-18T11:40:47Z</time>
      </trkpt>
      <trkpt lat="43.90757" lon="5.61601">
        <ele>619.151</ele>
        <time>2012-06-18T11:41:11Z</time>
      </trkpt>
      <trkpt lat="43.90758" lon="5.616">
        <ele>620.976</ele>
        <time>2012-06-18T11:41:25Z</time>
      </trkpt>
      <trkpt lat="43.90758" lon="5.616">
        <ele>619.534</ele>
        <time>2012-06-18T11:41:27Z</time>
      </trkpt>
      <trkpt lat="43.90759" lon="5.616">
        <ele>620.108</ele>
        <time>2012-06-18T11:42:04Z</time>
      </trkpt>
      <trkpt lat="43.90759" lon="5.61601">
        <ele>620.279</ele>
        <time>2012-06-18T11:42:37Z</time>
      </trkpt>
      <trkpt lat="43.90759" lon="5.61602">
        <ele>620.155</ele>
        <time>2012-06-18T11:43:08Z</time>
      </trkpt>
      <trkpt lat="43.90759" lon="5.61602">
        <ele>620.015</ele>
        <time>2012-06-18T11:43:30Z</time>
      </trkpt>
      <trkpt lat="43.90761" lon="5.61601">
        <ele>619.588</ele>
        <time>2012-06-18T11:43:55Z</time>
      </trkpt>
      <trkpt lat="43.90763" lon="5.61603">
        <ele>619.412</ele>
        <time>2012-06-18T11:44:17Z</time>
      </trkpt>
      <trkpt lat="43.90759" lon="5.61602">
        <ele>619.449</ele>
        <time>2012-06-18T11:44:59Z</time>
      </trkpt>
      <trkpt lat="43.90758" lon="5.61599">
        <ele>619.935</ele>
        <time>2012-06-18T11:45:32Z</time>
      </trkpt>
      <trkpt lat="43.90757" lon="5.61598">
        <ele>619.935</ele>
        <time>2012-06-18T11:46:21Z</time>
      </trkpt>
      <trkpt lat="43.9076" lon="5.61599">
        <ele>616.02</ele>
        <time>2012-06-18T11:46:38Z</time>
      </trkpt>
      <trkpt lat="43.90759" lon="5.61599">
        <ele>622.129</ele>
        <time>2012-06-18T11:46:40Z</time>
      </trkpt>
      <trkpt lat="43.90759" lon="5.61599">
        <ele>621.385</ele>
        <time>2012-06-18T11:46:41Z</time>
      </trkpt>
      <trkpt lat="43.90759" lon="5.61597">
        <ele>620.456</ele>
        <time>2012-06-18T11:47:00Z</time>
      </trkpt>
      <trkpt lat="43.90758" lon="5.61598">
        <ele>621.5</ele>
        <time>2012-06-18T11:47:12Z</time>
      </trkpt>
      <trkpt lat="43.90756" lon="5.61599">
        <ele>621.044</ele>
        <time>2012-06-18T11:47:37Z</time>
      </trkpt>
      <trkpt lat="43.90749" lon="5.61601">
        <ele>620.345</ele>
        <time>2012-06-18T11:47:53Z</time>
      </trkpt>
      <trkpt lat="43.90729" lon="5.6161">
        <ele>617.322</ele>
        <time>2012-06-18T11:48:17Z</time>
      </trkpt>
      <trkpt lat="43.90724" lon="5.61612">
        <ele>617.322</ele>
        <time>2012-06-18T11:48:22Z</time>
      </trkpt>
      <trkpt lat="43.90702" lon="5.61621">
        <ele>614.047</ele>
        <time>2012-06-18T11:48:46Z</time>
      </trkpt>
      <trkpt lat="43.9068" lon="5.61629">
        <ele>611.028</ele>
        <time>2012-06-18T11:49:10Z</time>
      </trkpt>
      <trkpt lat="43.90649" lon="5.61639">
        <ele>608.52</ele>
        <time>2012-06-18T11:49:40Z</time>
      </trkpt>
      <trkpt lat="43.90618" lon="5.61652">
        <ele>605.546</ele>
        <time>2012-06-18T11:50:11Z</time>
      </trkpt>
      <trkpt lat="43.90614" lon="5.61653">
        <ele>604.901</ele>
        <time>2012-06-18T11:50:15Z</time>
      </trkpt>
      <trkpt lat="43.90587" lon="5.61663">
        <ele>603.298</ele>
        <time>2012-06-18T11:50:40Z</time>
      </trkpt>
      <trkpt lat="43.90554" lon="5.61678">
        <ele>601.324</ele>
        <time>2012-06-18T11:51:11Z</time>
      </trkpt>
      <trkpt lat="43.90529" lon="5.61697">
        <ele>598.183</ele>
        <time>2012-06-18T11:51:39Z</time>
      </trkpt>
      <trkpt lat="43.90511" lon="5.61714">
        <ele>595.053</ele>
        <time>2012-06-18T11:52:02Z</time>
      </trkpt>
      <trkpt lat="43.9049" lon="5.61733">
        <ele>591.849</ele>
        <time>2012-06-18T11:52:27Z</time>
      </trkpt>
      <trkpt lat="43.9047" lon="5.61747">
        <ele>588.6</ele>
        <time>2012-06-18T11:52:49Z</time>
      </trkpt>
      <trkpt lat="43.90446" lon="5.61759">
        <ele>586.034</ele>
        <time>2012-06-18T11:53:13Z</time>
      </trkpt>
      <trkpt lat="43.90419" lon="5.61772">
        <ele>583.605</ele>
        <time>2012-06-18T11:53:41Z</time>
      </trkpt>
      <trkpt lat="43.90392" lon="5.61786">
        <ele>581.339</ele>
        <time>2012-06-18T11:54:08Z</time>
      </trkpt>
      <trkpt lat="43.90366" lon="5.61799">
        <ele>578.347</ele>
        <time>2012-06-18T11:54:33Z</time>
      </trkpt>
      <trkpt lat="43.90342" lon="5.61807">
        <ele>577.387</ele>
        <time>2012-06-18T11:54:56Z</time>
      </trkpt>
      <trkpt lat="43.90317" lon="5.618">
        <ele>576.165</ele>
        <time>2012-06-18T11:55:20Z</time>
      </trkpt>
      <trkpt lat="43.90298" lon="5.61781">
        <ele>574.67</ele>
        <time>2012-06-18T11:55:41Z</time>
      </trkpt>
      <trkpt lat="43.90283" lon="5.61764">
        <ele>573.791</ele>
        <time>2012-06-18T11:56:00Z</time>
      </trkpt>
      <trkpt lat="43.90273" lon="5.61748">
        <ele>571.324</ele>
        <time>2012-06-18T11:56:17Z</time>
      </trkpt>
      <trkpt lat="43.90258" lon="5.61729">
        <ele>569.886</ele>
        <time>2012-06-18T11:56:35Z</time>
      </trkpt>
      <trkpt lat="43.9024" lon="5.61707">
        <ele>568.321</ele>
        <time>2012-06-18T11:56:55Z</time>
      </trkpt>
      <trkpt lat="43.90222" lon="5.61674">
        <ele>565.891</ele>
        <time>2012-06-18T11:57:21Z</time>
      </trkpt>
      <trkpt lat="43.90205" lon="5.61645">
        <ele>564.795</ele>
        <time>2012-06-18T11:57:45Z</time>
      </trkpt>
      <trkpt lat="43.90183" lon="5.61608">
        <ele>563.451</ele>
        <time>2012-06-18T11:58:16Z</time>
      </trkpt>
      <trkpt lat="43.90165" lon="5.61591">
        <ele>561.481</ele>
        <time>2012-06-18T11:58:41Z</time>
      </trkpt>
      <trkpt lat="43.90149" lon="5.61594">
        <ele>559.688</ele>
        <time>2012-06-18T11:58:58Z</time>
      </trkpt>
      <trkpt lat="43.90127" lon="5.61609">
        <ele>556.655</ele>
        <time>2012-06-18T11:59:22Z</time>
      </trkpt>
      <trkpt lat="43.90123" lon="5.61613">
        <ele>555.598</ele>
        <time>2012-06-18T11:59:27Z</time>
      </trkpt>
      <trkpt lat="43.90104" lon="5.61638">
        <ele>552.781</ele>
        <time>2012-06-18T11:59:53Z</time>
      </trkpt>
      <trkpt lat="43.90092" lon="5.61655">
        <ele>550.828</ele>
        <time>2012-06-18T12:00:10Z</time>
      </trkpt>
      <trkpt lat="43.90077" lon="5.61674">
        <ele>548.564</ele>
        <time>2012-06-18T12:00:30Z</time>
      </trkpt>
      <trkpt lat="43.90054" lon="5.61705">
        <ele>546.387</ele>
        <time>2012-06-18T12:00:58Z</time>
      </trkpt>
      <trkpt lat="43.90032" lon="5.61735">
        <ele>545.163</ele>
        <time>2012-06-18T12:01:28Z</time>
      </trkpt>
      <trkpt lat="43.90012" lon="5.61749">
        <ele>542.423</ele>
        <time>2012-06-18T12:01:50Z</time>
      </trkpt>
      <trkpt lat="43.89985" lon="5.61752">
        <ele>539.969</ele>
        <time>2012-06-18T12:02:14Z</time>
      </trkpt>
      <trkpt lat="43.89951" lon="5.61739">
        <ele>538.497</ele>
        <time>2012-06-18T12:02:45Z</time>
      </trkpt>
      <trkpt lat="43.89925" lon="5.61727">
        <ele>535.424</ele>
        <time>2012-06-18T12:03:10Z</time>
      </trkpt>
      <trkpt lat="43.8989" lon="5.6171">
        <ele>533.535</ele>
        <time>2012-06-18T12:03:44Z</time>
      </trkpt>
      <trkpt lat="43.89871" lon="5.617">
        <ele>530.276</ele>
        <time>2012-06-18T12:04:04Z</time>
      </trkpt>
      <trkpt lat="43.89848" lon="5.61688">
        <ele>527.261</ele>
        <time>2012-06-18T12:04:28Z</time>
      </trkpt>
      <trkpt lat="43.89823" lon="5.61674">
        <ele>524.096</ele>
        <time>2012-06-18T12:04:54Z</time>
      </trkpt>
      <trkpt lat="43.89806" lon="5.61667">
        <ele>520.988</ele>
        <time>2012-06-18T12:05:11Z</time>
      </trkpt>
      <trkpt lat="43.89775" lon="5.6165">
        <ele>518.313</ele>
        <time>2012-06-18T12:05:42Z</time>
      </trkpt>
      <trkpt lat="43.89746" lon="5.61634">
        <ele>517.006</ele>
        <time>2012-06-18T12:06:09Z</time>
      </trkpt>
      <trkpt lat="43.89711" lon="5.61619">
        <ele>515.708</ele>
        <time>2012-06-18T12:06:40Z</time>
      </trkpt>
      <trkpt lat="43.89677" lon="5.61608">
        <ele>514.052</ele>
        <time>2012-06-18T12:07:10Z</time>
      </trkpt>
      <trkpt lat="43.89646" lon="5.616">
        <ele>511.261</ele>
        <time>2012-06-18T12:07:40Z</time>
      </trkpt>
      <trkpt lat="43.89623" lon="5.61591">
        <ele>508.058</ele>
        <time>2012-06-18T12:08:03Z</time>
      </trkpt>
      <trkpt lat="43.89598" lon="5.61581">
        <ele>505.031</ele>
        <time>2012-06-18T12:08:27Z</time>
      </trkpt>
      <trkpt lat="43.89577" lon="5.61566">
        <ele>501.962</ele>
        <time>2012-06-18T12:08:49Z</time>
      </trkpt>
      <trkpt lat="43.89551" lon="5.61543">
        <ele>499.119</ele>
        <time>2012-06-18T12:09:18Z</time>
      </trkpt>
      <trkpt lat="43.89529" lon="5.6152">
        <ele>496.021</ele>
        <time>2012-06-18T12:09:43Z</time>
      </trkpt>
      <trkpt lat="43.89506" lon="5.61495">
        <ele>493.646</ele>
        <time>2012-06-18T12:10:11Z</time>
      </trkpt>
      <trkpt lat="43.89489" lon="5.61471">
        <ele>490.949</ele>
        <time>2012-06-18T12:10:37Z</time>
      </trkpt>
      <trkpt lat="43.89485" lon="5.61457">
        <ele>490.058</ele>
        <time>2012-06-18T12:10:50Z</time>
      </trkpt>
      <trkpt lat="43.89486" lon="5.6144">
        <ele>487.663</ele>
        <time>2012-06-18T12:11:08Z</time>
      </trkpt>
      <trkpt lat="43.89495" lon="5.6142">
        <ele>484.868</ele>
        <time>2012-06-18T12:11:26Z</time>
      </trkpt>
      <trkpt lat="43.89494" lon="5.61401">
        <ele>483.918</ele>
        <time>2012-06-18T12:11:41Z</time>
      </trkpt>
      <trkpt lat="43.8947" lon="5.61397">
        <ele>481.461</ele>
        <time>2012-06-18T12:12:05Z</time>
      </trkpt>
      <trkpt lat="43.89449" lon="5.61399">
        <ele>478.219</ele>
        <time>2012-06-18T12:12:28Z</time>
      </trkpt>
      <trkpt lat="43.89446" lon="5.61398">
        <ele>477.549</ele>
        <time>2012-06-18T12:12:31Z</time>
      </trkpt>
      <trkpt lat="43.89439" lon="5.61397">
        <ele>477.339</ele>
        <time>2012-06-18T12:12:37Z</time>
      </trkpt>
      <trkpt lat="43.8942" lon="5.61391">
        <ele>473.876</ele>
        <time>2012-06-18T12:12:58Z</time>
      </trkpt>
      <trkpt lat="43.89418" lon="5.61391">
        <ele>473.605</ele>
        <time>2012-06-18T12:13:00Z</time>
      </trkpt>
      <trkpt lat="43.89395" lon="5.61387">
        <ele>470.568</ele>
        <time>2012-06-18T12:13:22Z</time>
      </trkpt>
      <trkpt lat="43.89374" lon="5.61393">
        <ele>469.255</ele>
        <time>2012-06-18T12:13:44Z</time>
      </trkpt>
      <trkpt lat="43.89356" lon="5.61395">
        <ele>466.94</ele>
        <time>2012-06-18T12:14:03Z</time>
      </trkpt>
      <trkpt lat="43.89336" lon="5.61394">
        <ele>463.924</ele>
        <time>2012-06-18T12:14:23Z</time>
      </trkpt>
      <trkpt lat="43.89315" lon="5.61386">
        <ele>460.578</ele>
        <time>2012-06-18T12:14:44Z</time>
      </trkpt>
      <trkpt lat="43.89284" lon="5.61373">
        <ele>457.464</ele>
        <time>2012-06-18T12:15:14Z</time>
      </trkpt>
      <trkpt lat="43.89254" lon="5.61361">
        <ele>454.414</ele>
        <time>2012-06-18T12:15:42Z</time>
      </trkpt>
      <trkpt lat="43.89224" lon="5.6135">
        <ele>452.639</ele>
        <time>2012-06-18T12:16:10Z</time>
      </trkpt>
      <trkpt lat="43.89196" lon="5.61336">
        <ele>449.228</ele>
        <time>2012-06-18T12:16:37Z</time>
      </trkpt>
      <trkpt lat="43.89191" lon="5.61334">
        <ele>448.594</ele>
        <time>2012-06-18T12:16:42Z</time>
      </trkpt>
      <trkpt lat="43.89166" lon="5.6132">
        <ele>445.489</ele>
        <time>2012-06-18T12:17:10Z</time>
      </trkpt>
      <trkpt lat="43.89143" lon="5.61309">
        <ele>442.346</ele>
        <time>2012-06-18T12:17:34Z</time>
      </trkpt>
      <trkpt lat="43.89114" lon="5.61295">
        <ele>440.125</ele>
        <time>2012-06-18T12:18:02Z</time>
      </trkpt>
      <trkpt lat="43.8909" lon="5.61271">
        <ele>438.275</ele>
        <time>2012-06-18T12:18:28Z</time>
      </trkpt>
      <trkpt lat="43.89073" lon="5.61232">
        <ele>435.94</ele>
        <time>2012-06-18T12:18:59Z</time>
      </trkpt>
      <trkpt lat="43.89063" lon="5.61219">
        <ele>434.179</ele>
        <time>2012-06-18T12:19:14Z</time>
      </trkpt>
      <trkpt lat="43.89039" lon="5.612">
        <ele>430.877</ele>
        <time>2012-06-18T12:19:41Z</time>
      </trkpt>
      <trkpt lat="43.89009" lon="5.61175">
        <ele>428.323</ele>
        <time>2012-06-18T12:20:14Z</time>
      </trkpt>
      <trkpt lat="43.88988" lon="5.61142">
        <ele>426.672</ele>
        <time>2012-06-18T12:20:44Z</time>
      </trkpt>
      <trkpt lat="43.88976" lon="5.61107">
        <ele>424.773</ele>
        <time>2012-06-18T12:21:09Z</time>
      </trkpt>
      <trkpt lat="43.88966" lon="5.61081">
        <ele>421.403</ele>
        <time>2012-06-18T12:21:30Z</time>
      </trkpt>
      <trkpt lat="43.88939" lon="5.6106">
        <ele>419.244</ele>
        <time>2012-06-18T12:21:59Z</time>
      </trkpt>
      <trkpt lat="43.88912" lon="5.61054">
        <ele>418.878</ele>
        <time>2012-06-18T12:22:24Z</time>
      </trkpt>
      <trkpt lat="43.88894" lon="5.61049">
        <ele>419.361</ele>
        <time>2012-06-18T12:22:41Z</time>
      </trkpt>
      <trkpt lat="43.88875" lon="5.61028">
        <ele>418.992</ele>
        <time>2012-06-18T12:23:04Z</time>
      </trkpt>
      <trkpt lat="43.88862" lon="5.61008">
        <ele>420.769</ele>
        <time>2012-06-18T12:23:25Z</time>
      </trkpt>
      <trkpt lat="43.88853" lon="5.60995">
        <ele>422.026</ele>
        <time>2012-06-18T12:23:42Z</time>
      </trkpt>
      <trkpt lat="43.88837" lon="5.60986">
        <ele>423.668</ele>
        <time>2012-06-18T12:24:03Z</time>
      </trkpt>
      <trkpt lat="43.88823" lon="5.60993">
        <ele>426.242</ele>
        <time>2012-06-18T12:24:22Z</time>
      </trkpt>
      <trkpt lat="43.88813" lon="5.61011">
        <ele>427.916</ele>
        <time>2012-06-18T12:24:44Z</time>
      </trkpt>
      <trkpt lat="43.88806" lon="5.61031">
        <ele>429.256</ele>
        <time>2012-06-18T12:25:04Z</time>
      </trkpt>
      <trkpt lat="43.88798" lon="5.61049">
        <ele>431.197</ele>
        <time>2012-06-18T12:25:23Z</time>
      </trkpt>
      <trkpt lat="43.88788" lon="5.61066">
        <ele>432.282</ele>
        <time>2012-06-18T12:25:45Z</time>
      </trkpt>
      <trkpt lat="43.88777" lon="5.61079">
        <ele>433.704</ele>
        <time>2012-06-18T12:26:06Z</time>
      </trkpt>
      <trkpt lat="43.88766" lon="5.61094">
        <ele>435.14</ele>
        <time>2012-06-18T12:26:26Z</time>
      </trkpt>
      <trkpt lat="43.88752" lon="5.61104">
        <ele>437.539</ele>
        <time>2012-06-18T12:26:48Z</time>
      </trkpt>
      <trkpt lat="43.88738" lon="5.61112">
        <ele>439.211</ele>
        <time>2012-06-18T12:27:09Z</time>
      </trkpt>
      <trkpt lat="43.88723" lon="5.61122">
        <ele>440.709</ele>
        <time>2012-06-18T12:27:32Z</time>
      </trkpt>
      <trkpt lat="43.88709" lon="5.61131">
        <ele>442.187</ele>
        <time>2012-06-18T12:27:51Z</time>
      </trkpt>
      <trkpt lat="43.88694" lon="5.6114">
        <ele>442.949</ele>
        <time>2012-06-18T12:28:11Z</time>
      </trkpt>
      <trkpt lat="43.88679" lon="5.61148">
        <ele>444.08</ele>
        <time>2012-06-18T12:28:31Z</time>
      </trkpt>
      <trkpt lat="43.88661" lon="5.61157">
        <ele>445.025</ele>
        <time>2012-06-18T12:28:52Z</time>
      </trkpt>
      <trkpt lat="43.88643" lon="5.61163">
        <ele>445.525</ele>
        <time>2012-06-18T12:29:13Z</time>
      </trkpt>
      <trkpt lat="43.88627" lon="5.61172">
        <ele>447.533</ele>
        <time>2012-06-18T12:29:35Z</time>
      </trkpt>
      <trkpt lat="43.88612" lon="5.61181">
        <ele>449.179</ele>
        <time>2012-06-18T12:29:56Z</time>
      </trkpt>
      <trkpt lat="43.88599" lon="5.61184">
        <ele>451.269</ele>
        <time>2012-06-18T12:30:17Z</time>
      </trkpt>
      <trkpt lat="43.88586" lon="5.6118">
        <ele>452.327</ele>
        <time>2012-06-18T12:30:38Z</time>
      </trkpt>
      <trkpt lat="43.88572" lon="5.61178">
        <ele>454.856</ele>
        <time>2012-06-18T12:30:58Z</time>
      </trkpt>
      <trkpt lat="43.88558" lon="5.61182">
        <ele>456.678</ele>
        <time>2012-06-18T12:31:19Z</time>
      </trkpt>
      <trkpt lat="43.88547" lon="5.61187">
        <ele>457.863</ele>
        <time>2012-06-18T12:31:38Z</time>
      </trkpt>
      <trkpt lat="43.88538" lon="5.6119">
        <ele>460.884</ele>
        <time>2012-06-18T12:31:54Z</time>
      </trkpt>
      <trkpt lat="43.88525" lon="5.61193">
        <ele>462.657</ele>
        <time>2012-06-18T12:32:15Z</time>
      </trkpt>
      <trkpt lat="43.88515" lon="5.61191">
        <ele>463.707</ele>
        <time>2012-06-18T12:32:34Z</time>
      </trkpt>
      <trkpt lat="43.88502" lon="5.61187">
        <ele>465.499</ele>
        <time>2012-06-18T12:32:56Z</time>
      </trkpt>
      <trkpt lat="43.88488" lon="5.61185">
        <ele>466.248</ele>
        <time>2012-06-18T12:33:17Z</time>
      </trkpt>
      <trkpt lat="43.88474" lon="5.61182">
        <ele>468.559</ele>
        <time>2012-06-18T12:33:37Z</time>
      </trkpt>
      <trkpt lat="43.88461" lon="5.61177">
        <ele>470.188</ele>
        <time>2012-06-18T12:33:56Z</time>
      </trkpt>
      <trkpt lat="43.88442" lon="5.61178">
        <ele>472.153</ele>
        <time>2012-06-18T12:34:19Z</time>
      </trkpt>
      <trkpt lat="43.88428" lon="5.61186">
        <ele>474.32</ele>
        <time>2012-06-18T12:34:39Z</time>
      </trkpt>
      <trkpt lat="43.88414" lon="5.61192">
        <ele>476.175</ele>
        <time>2012-06-18T12:35:00Z</time>
      </trkpt>
      <trkpt lat="43.88409" lon="5.61198">
        <ele>476.009</ele>
        <time>2012-06-18T12:35:24Z</time>
      </trkpt>
      <trkpt lat="43.88408" lon="5.61213">
        <ele>477.219</ele>
        <time>2012-06-18T12:35:50Z</time>
      </trkpt>
      <trkpt lat="43.88407" lon="5.61232">
        <ele>479.851</ele>
        <time>2012-06-18T12:36:12Z</time>
      </trkpt>
      <trkpt lat="43.88396" lon="5.61237">
        <ele>481.145</ele>
        <time>2012-06-18T12:36:33Z</time>
      </trkpt>
      <trkpt lat="43.88385" lon="5.6123">
        <ele>484.206</ele>
        <time>2012-06-18T12:36:53Z</time>
      </trkpt>
      <trkpt lat="43.88375" lon="5.61229">
        <ele>484.901</ele>
        <time>2012-06-18T12:37:11Z</time>
      </trkpt>
      <trkpt lat="43.88373" lon="5.61235">
        <ele>486.645</ele>
        <time>2012-06-18T12:37:28Z</time>
      </trkpt>
      <trkpt lat="43.88374" lon="5.61251">
        <ele>488.612</ele>
        <time>2012-06-18T12:37:47Z</time>
      </trkpt>
      <trkpt lat="43.88369" lon="5.61265">
        <ele>490.663</ele>
        <time>2012-06-18T12:38:07Z</time>
      </trkpt>
      <trkpt lat="43.8836" lon="5.61262">
        <ele>490.891</ele>
        <time>2012-06-18T12:38:24Z</time>
      </trkpt>
      <trkpt lat="43.88352" lon="5.61255">
        <ele>493.247</ele>
        <time>2012-06-18T12:38:41Z</time>
      </trkpt>
      <trkpt lat="43.88344" lon="5.61245">
        <ele>495.569</ele>
        <time>2012-06-18T12:39:00Z</time>
      </trkpt>
      <trkpt lat="43.88333" lon="5.61237">
        <ele>497.922</ele>
        <time>2012-06-18T12:39:20Z</time>
      </trkpt>
      <trkpt lat="43.88318" lon="5.61231">
        <ele>499.848</ele>
        <time>2012-06-18T12:39:41Z</time>
      </trkpt>
      <trkpt lat="43.88302" lon="5.61235">
        <ele>502.104</ele>
        <time>2012-06-18T12:40:02Z</time>
      </trkpt>
      <trkpt lat="43.88287" lon="5.6124">
        <ele>503.335</ele>
        <time>2012-06-18T12:40:23Z</time>
      </trkpt>
      <trkpt lat="43.88271" lon="5.61244">
        <ele>505.699</ele>
        <time>2012-06-18T12:40:45Z</time>
      </trkpt>
      <trkpt lat="43.88253" lon="5.61253">
        <ele>506.121</ele>
        <time>2012-06-18T12:41:07Z</time>
      </trkpt>
      <trkpt lat="43.88238" lon="5.61265">
        <ele>507.415</ele>
        <time>2012-06-18T12:41:27Z</time>
      </trkpt>
      <trkpt lat="43.88236" lon="5.61266">
        <ele>507.17</ele>
        <time>2012-06-18T12:41:29Z</time>
      </trkpt>
      <trkpt lat="43.88214" lon="5.61283">
        <ele>507.092</ele>
        <time>2012-06-18T12:41:54Z</time>
      </trkpt>
      <trkpt lat="43.88194" lon="5.61295">
        <ele>506.945</ele>
        <time>2012-06-18T12:42:16Z</time>
      </trkpt>
      <trkpt lat="43.8817" lon="5.61307">
        <ele>506.614</ele>
        <time>2012-06-18T12:42:41Z</time>
      </trkpt>
      <trkpt lat="43.88149" lon="5.61312">
        <ele>505.645</ele>
        <time>2012-06-18T12:43:02Z</time>
      </trkpt>
      <trkpt lat="43.88123" lon="5.61315">
        <ele>504.555</ele>
        <time>2012-06-18T12:43:28Z</time>
      </trkpt>
      <trkpt lat="43.88099" lon="5.61319">
        <ele>505.246</ele>
        <time>2012-06-18T12:43:51Z</time>
      </trkpt>
      <trkpt lat="43.88073" lon="5.61319">
        <ele>504.665</ele>
        <time>2012-06-18T12:44:16Z</time>
      </trkpt>
      <trkpt lat="43.88045" lon="5.6132">
        <ele>504.179</ele>
        <time>2012-06-18T12:44:43Z</time>
      </trkpt>
      <trkpt lat="43.88018" lon="5.61315">
        <ele>503.971</ele>
        <time>2012-06-18T12:45:09Z</time>
      </trkpt>
      <trkpt lat="43.87992" lon="5.61307">
        <ele>503.563</ele>
        <time>2012-06-18T12:45:35Z</time>
      </trkpt>
      <trkpt lat="43.87968" lon="5.6131">
        <ele>502.984</ele>
        <time>2012-06-18T12:45:58Z</time>
      </trkpt>
      <trkpt lat="43.8796" lon="5.61311">
        <ele>502.597</ele>
        <time>2012-06-18T12:46:34Z</time>
      </trkpt>
      <trkpt lat="43.87937" lon="5.61313">
        <ele>501.795</ele>
        <time>2012-06-18T12:46:56Z</time>
      </trkpt>
      <trkpt lat="43.87911" lon="5.61314">
        <ele>501.1</ele>
        <time>2012-06-18T12:47:21Z</time>
      </trkpt>
      <trkpt lat="43.87885" lon="5.61318">
        <ele>499.895</ele>
        <time>2012-06-18T12:47:45Z</time>
      </trkpt>
      <trkpt lat="43.87864" lon="5.61323">
        <ele>498.068</ele>
        <time>2012-06-18T12:48:06Z</time>
      </trkpt>
      <trkpt lat="43.87844" lon="5.61328">
        <ele>496.733</ele>
        <time>2012-06-18T12:48:26Z</time>
      </trkpt>
      <trkpt lat="43.87819" lon="5.61328">
        <ele>496.09</ele>
        <time>2012-06-18T12:48:50Z</time>
      </trkpt>
      <trkpt lat="43.87803" lon="5.61331">
        <ele>495.036</ele>
        <time>2012-06-18T12:49:09Z</time>
      </trkpt>
      <trkpt lat="43.87788" lon="5.61335">
        <ele>493.219</ele>
        <time>2012-06-18T12:49:25Z</time>
      </trkpt>
      <trkpt lat="43.87781" lon="5.61343">
        <ele>492.608</ele>
        <time>2012-06-18T12:49:36Z</time>
      </trkpt>
      <trkpt lat="43.87773" lon="5.61357">
        <ele>490.874</ele>
        <time>2012-06-18T12:49:50Z</time>
      </trkpt>
      <trkpt lat="43.87767" lon="5.61375">
        <ele>490.298</ele>
        <time>2012-06-18T12:50:07Z</time>
      </trkpt>
      <trkpt lat="43.87757" lon="5.61387">
        <ele>489.829</ele>
        <time>2012-06-18T12:50:22Z</time>
      </trkpt>
      <trkpt lat="43.87743" lon="5.61394">
        <ele>488.989</ele>
        <time>2012-06-18T12:50:38Z</time>
      </trkpt>
      <trkpt lat="43.87726" lon="5.614">
        <ele>486.781</ele>
        <time>2012-06-18T12:50:58Z</time>
      </trkpt>
      <trkpt lat="43.8771" lon="5.61408">
        <ele>485.074</ele>
        <time>2012-06-18T12:51:17Z</time>
      </trkpt>
      <trkpt lat="43.877" lon="5.61416">
        <ele>484.041</ele>
        <time>2012-06-18T12:51:31Z</time>
      </trkpt>
      <trkpt lat="43.87698" lon="5.61418">
        <ele>483.745</ele>
        <time>2012-06-18T12:51:33Z</time>
      </trkpt>
      <trkpt lat="43.87677" lon="5.61435">
        <ele>483.146</ele>
        <time>2012-06-18T12:51:56Z</time>
      </trkpt>
      <trkpt lat="43.87658" lon="5.61444">
        <ele>481.599</ele>
        <time>2012-06-18T12:52:17Z</time>
      </trkpt>
      <trkpt lat="43.87643" lon="5.61447">
        <ele>481.236</ele>
        <time>2012-06-18T12:52:35Z</time>
      </trkpt>
      <trkpt lat="43.87625" lon="5.61456">
        <ele>478.528</ele>
        <time>2012-06-18T12:52:56Z</time>
      </trkpt>
      <trkpt lat="43.87614" lon="5.61459">
        <ele>478.913</ele>
        <time>2012-06-18T12:53:10Z</time>
      </trkpt>
      <trkpt lat="43.876" lon="5.61461">
        <ele>477.371</ele>
        <time>2012-06-18T12:53:27Z</time>
      </trkpt>
      <trkpt lat="43.8759" lon="5.61465">
        <ele>475.683</ele>
        <time>2012-06-18T12:53:41Z</time>
      </trkpt>
      <trkpt lat="43.87586" lon="5.61468">
        <ele>475.021</ele>
        <time>2012-06-18T12:53:46Z</time>
      </trkpt>
      <trkpt lat="43.87578" lon="5.61473">
        <ele>474.298</ele>
        <time>2012-06-18T12:53:56Z</time>
      </trkpt>
      <trkpt lat="43.87561" lon="5.61483">
        <ele>473.218</ele>
        <time>2012-06-18T12:54:16Z</time>
      </trkpt>
      <trkpt lat="43.87548" lon="5.61497">
        <ele>472.286</ele>
        <time>2012-06-18T12:54:35Z</time>
      </trkpt>
      <trkpt lat="43.87535" lon="5.61508">
        <ele>471.02</ele>
        <time>2012-06-18T12:54:53Z</time>
      </trkpt>
      <trkpt lat="43.87534" lon="5.61508">
        <ele>470.843</ele>
        <time>2012-06-18T12:54:55Z</time>
      </trkpt>
      <trkpt lat="43.8752" lon="5.61521">
        <ele>469.516</ele>
        <time>2012-06-18T12:55:14Z</time>
      </trkpt>
      <trkpt lat="43.8751" lon="5.61533">
        <ele>468.556</ele>
        <time>2012-06-18T12:55:29Z</time>
      </trkpt>
      <trkpt lat="43.87503" lon="5.6155">
        <ele>467.722</ele>
        <time>2012-06-18T12:55:44Z</time>
      </trkpt>
      <trkpt lat="43.87497" lon="5.61569">
        <ele>467.096</ele>
        <time>2012-06-18T12:56:01Z</time>
      </trkpt>
      <trkpt lat="43.87492" lon="5.61582">
        <ele>466.241</ele>
        <time>2012-06-18T12:56:12Z</time>
      </trkpt>
      <trkpt lat="43.87473" lon="5.61597">
        <ele>467.036</ele>
        <time>2012-06-18T12:56:33Z</time>
      </trkpt>
      <trkpt lat="43.87472" lon="5.61597">
        <ele>467.169</ele>
        <time>2012-06-18T12:56:34Z</time>
      </trkpt>
      <trkpt lat="43.87451" lon="5.61601">
        <ele>467.984</ele>
        <time>2012-06-18T12:56:57Z</time>
      </trkpt>
      <trkpt lat="43.87446" lon="5.61605">
        <ele>468.597</ele>
        <time>2012-06-18T12:57:13Z</time>
      </trkpt>
      <trkpt lat="43.87443" lon="5.61602">
        <ele>468.265</ele>
        <time>2012-06-18T12:57:30Z</time>
      </trkpt>
      <trkpt lat="43.87434" lon="5.61601">
        <ele>469.022</ele>
        <time>2012-06-18T12:57:44Z</time>
      </trkpt>
      <trkpt lat="43.87406" lon="5.61603">
        <ele>468.365</ele>
        <time>2012-06-18T12:58:10Z</time>
      </trkpt>
      <trkpt lat="43.8738" lon="5.61606">
        <ele>467.641</ele>
        <time>2012-06-18T12:58:35Z</time>
      </trkpt>
      <trkpt lat="43.87357" lon="5.6161">
        <ele>465.457</ele>
        <time>2012-06-18T12:58:58Z</time>
      </trkpt>
      <trkpt lat="43.87337" lon="5.61613">
        <ele>464.403</ele>
        <time>2012-06-18T12:59:19Z</time>
      </trkpt>
      <trkpt lat="43.87326" lon="5.61618">
        <ele>462.273</ele>
        <time>2012-06-18T12:59:33Z</time>
      </trkpt>
      <trkpt lat="43.87304" lon="5.61621">
        <ele>461.113</ele>
        <time>2012-06-18T12:59:55Z</time>
      </trkpt>
      <trkpt lat="43.87302" lon="5.61623">
        <ele>461.503</ele>
        <time>2012-06-18T12:59:58Z</time>
      </trkpt>
      <trkpt lat="43.87284" lon="5.61635">
        <ele>460.137</ele>
        <time>2012-06-18T13:00:18Z</time>
      </trkpt>
      <trkpt lat="43.87264" lon="5.61653">
        <ele>458.721</ele>
        <time>2012-06-18T13:00:41Z</time>
      </trkpt>
      <trkpt lat="43.87247" lon="5.6167">
        <ele>458.44</ele>
        <time>2012-06-18T13:01:02Z</time>
      </trkpt>
      <trkpt lat="43.87231" lon="5.61687">
        <ele>457.238</ele>
        <time>2012-06-18T13:01:22Z</time>
      </trkpt>
      <trkpt lat="43.87216" lon="5.61702">
        <ele>456.775</ele>
        <time>2012-06-18T13:01:40Z</time>
      </trkpt>
      <trkpt lat="43.87194" lon="5.61727">
        <ele>456.015</ele>
        <time>2012-06-18T13:02:06Z</time>
      </trkpt>
      <trkpt lat="43.87181" lon="5.61744">
        <ele>454.888</ele>
        <time>2012-06-18T13:02:26Z</time>
      </trkpt>
      <trkpt lat="43.87175" lon="5.61748">
        <ele>455.123</ele>
        <time>2012-06-18T13:02:41Z</time>
      </trkpt>
      <trkpt lat="43.87168" lon="5.61749">
        <ele>453.77</ele>
        <time>2012-06-18T13:02:57Z</time>
      </trkpt>
      <trkpt lat="43.87152" lon="5.61758">
        <ele>452.796</ele>
        <time>2012-06-18T13:03:18Z</time>
      </trkpt>
      <trkpt lat="43.87146" lon="5.6176">
        <ele>452.925</ele>
        <time>2012-06-18T13:03:24Z</time>
      </trkpt>
      <trkpt lat="43.87135" lon="5.61748">
        <ele>451.626</ele>
        <time>2012-06-18T13:03:43Z</time>
      </trkpt>
      <trkpt lat="43.87135" lon="5.6173">
        <ele>451.906</ele>
        <time>2012-06-18T13:04:00Z</time>
      </trkpt>
      <trkpt lat="43.87133" lon="5.61723">
        <ele>451.804</ele>
        <time>2012-06-18T13:04:20Z</time>
      </trkpt>
      <trkpt lat="43.87132" lon="5.61723">
        <ele>451.538</ele>
        <time>2012-06-18T13:05:41Z</time>
      </trkpt>
      <trkpt lat="43.87125" lon="5.61723">
        <ele>451.421</ele>
        <time>2012-06-18T13:06:02Z</time>
      </trkpt>
      <trkpt lat="43.87131" lon="5.61719">
        <ele>452.498</ele>
        <time>2012-06-18T13:06:18Z</time>
      </trkpt>
      <trkpt lat="43.87138" lon="5.61711">
        <ele>453.805</ele>
        <time>2012-06-18T13:06:36Z</time>
      </trkpt>
      <trkpt lat="43.87138" lon="5.61703">
        <ele>454.064</ele>
        <time>2012-06-18T13:06:52Z</time>
      </trkpt>
      <trkpt lat="43.87144" lon="5.61692">
        <ele>455.383</ele>
        <time>2012-06-18T13:07:09Z</time>
      </trkpt>
      <trkpt lat="43.87142" lon="5.61689">
        <ele>455.276</ele>
        <time>2012-06-18T13:07:27Z</time>
      </trkpt>
      <trkpt lat="43.87142" lon="5.61691">
        <ele>454.08</ele>
        <time>2012-06-18T13:07:42Z</time>
      </trkpt>
      <trkpt lat="43.87149" lon="5.61689">
        <ele>453.553</ele>
        <time>2012-06-18T13:07:56Z</time>
      </trkpt>
      <trkpt lat="43.87148" lon="5.61693">
        <ele>454.542</ele>
        <time>2012-06-18T13:08:18Z</time>
      </trkpt>
      <trkpt lat="43.8715" lon="5.61702">
        <ele>453.661</ele>
        <time>2012-06-18T13:08:38Z</time>
      </trkpt>
      <trkpt lat="43.8716" lon="5.61706">
        <ele>454.301</ele>
        <time>2012-06-18T13:08:56Z</time>
      </trkpt>
      <trkpt lat="43.87161" lon="5.61709">
        <ele>454.448</ele>
        <time>2012-06-18T13:09:24Z</time>
      </trkpt>
      <trkpt lat="43.87159" lon="5.61712">
        <ele>454.377</ele>
        <time>2012-06-18T13:09:34Z</time>
      </trkpt>
      <trkpt lat="43.87163" lon="5.61702">
        <ele>453.979</ele>
        <time>2012-06-18T13:09:46Z</time>
      </trkpt>
      <trkpt lat="43.8717" lon="5.61695">
        <ele>454.463</ele>
        <time>2012-06-18T13:09:55Z</time>
      </trkpt>
      <trkpt lat="43.87179" lon="5.61688">
        <ele>454.812</ele>
        <time>2012-06-18T13:10:10Z</time>
      </trkpt>
      <trkpt lat="43.87183" lon="5.61681">
        <ele>455.349</ele>
        <time>2012-06-18T13:10:23Z</time>
      </trkpt>
      <trkpt lat="43.87183" lon="5.61683">
        <ele>454.738</ele>
        <time>2012-06-18T13:10:44Z</time>
      </trkpt>
      <trkpt lat="43.87173" lon="5.61693">
        <ele>454.878</ele>
        <time>2012-06-18T13:10:58Z</time>
      </trkpt>
      <trkpt lat="43.87161" lon="5.61696">
        <ele>455.253</ele>
        <time>2012-06-18T13:11:16Z</time>
      </trkpt>
      <trkpt lat="43.87161" lon="5.61696">
        <ele>456.09</ele>
        <time>2012-06-18T13:11:34Z</time>
      </trkpt>
      <trkpt lat="43.87148" lon="5.61701">
        <ele>457.128</ele>
        <time>2012-06-18T13:11:57Z</time>
      </trkpt>
      <trkpt lat="43.87141" lon="5.617">
        <ele>455.839</ele>
        <time>2012-06-18T13:12:14Z</time>
      </trkpt>
      <trkpt lat="43.8713" lon="5.61704">
        <ele>455.414</ele>
        <time>2012-06-18T13:12:29Z</time>
      </trkpt>
      <trkpt lat="43.87125" lon="5.61694">
        <ele>457.192</ele>
        <time>2012-06-18T13:12:45Z</time>
      </trkpt>
      <trkpt lat="43.87125" lon="5.61687">
        <ele>457.887</ele>
        <time>2012-06-18T13:12:59Z</time>
      </trkpt>
      <trkpt lat="43.87122" lon="5.61679">
        <ele>457.766</ele>
        <time>2012-06-18T13:13:18Z</time>
      </trkpt>
      <trkpt lat="43.87118" lon="5.61687">
        <ele>456.814</ele>
        <time>2012-06-18T13:13:35Z</time>
      </trkpt>
      <trkpt lat="43.8712" lon="5.61695">
        <ele>456.048</ele>
        <time>2012-06-18T13:13:47Z</time>
      </trkpt>
      <trkpt lat="43.87128" lon="5.61704">
        <ele>455.501</ele>
        <time>2012-06-18T13:14:03Z</time>
      </trkpt>
      <trkpt lat="43.87135" lon="5.61709">
        <ele>452.848</ele>
        <time>2012-06-18T13:14:20Z</time>
      </trkpt>
      <trkpt lat="43.87137" lon="5.61714">
        <ele>451.343</ele>
        <time>2012-06-18T13:14:33Z</time>
      </trkpt>
      <trkpt lat="43.8713" lon="5.61723">
        <ele>450.443</ele>
        <time>2012-06-18T13:14:48Z</time>
      </trkpt>
      <trkpt lat="43.87128" lon="5.61725">
        <ele>450.308</ele>
        <time>2012-06-18T13:15:09Z</time>
      </trkpt>
      <trkpt lat="43.87126" lon="5.61727">
        <ele>449.653</ele>
        <time>2012-06-18T13:15:44Z</time>
      </trkpt>
      <trkpt lat="43.87124" lon="5.61729">
        <ele>449.576</ele>
        <time>2012-06-18T13:16:00Z</time>
      </trkpt>
      <trkpt lat="43.87125" lon="5.6173">
        <ele>446.145</ele>
        <time>2012-06-18T13:16:08Z</time>
      </trkpt>
      <trkpt lat="43.87125" lon="5.61732">
        <ele>450.097</ele>
        <time>2012-06-18T13:16:09Z</time>
      </trkpt>
      <trkpt lat="43.87121" lon="5.6174">
        <ele>446.884</ele>
        <time>2012-06-18T13:16:20Z</time>
      </trkpt>
      <trkpt lat="43.87129" lon="5.61741">
        <ele>448.433</ele>
        <time>2012-06-18T13:16:40Z</time>
      </trkpt>
    </trkseg>
  </trk>
  <trk>
    <name><![CDATA[ACTIVE LOG151658]]></name>
    <trkseg>
      <trkpt lat="43.87128" lon="5.61737">
        <ele>448.491</ele>
        <time>2012-06-18T13:16:57Z</time>
      </trkpt>
      <trkpt lat="43.87126" lon="5.61736">
        <ele>449.275</ele>
        <time>2012-06-18T13:17:02Z</time>
      </trkpt>
      <trkpt lat="43.87127" lon="5.6173">
        <ele>449.145</ele>
        <time>2012-06-18T13:17:34Z</time>
      </trkpt>
      <trkpt lat="43.87123" lon="5.61734">
        <ele>448.708</ele>
        <time>2012-06-18T13:18:50Z</time>
      </trkpt>
      <trkpt lat="43.87124" lon="5.61734">
        <ele>448.983</ele>
        <time>2012-06-18T13:19:22Z</time>
      </trkpt>
      <trkpt lat="43.87121" lon="5.61738">
        <ele>449.023</ele>
        <time>2012-06-18T13:19:50Z</time>
      </trkpt>
      <trkpt lat="43.87125" lon="5.61735">
        <ele>449.755</ele>
        <time>2012-06-18T13:20:26Z</time>
      </trkpt>
      <trkpt lat="43.87125" lon="5.61731">
        <ele>450.013</ele>
        <time>2012-06-18T13:20:59Z</time>
      </trkpt>
      <trkpt lat="43.87125" lon="5.61727">
        <ele>449.279</ele>
        <time>2012-06-18T13:21:31Z</time>
      </trkpt>
      <trkpt lat="43.87126" lon="5.61726">
        <ele>449.257</ele>
        <time>2012-06-18T13:22:32Z</time>
      </trkpt>
      <trkpt lat="43.87127" lon="5.61723">
        <ele>449.122</ele>
        <time>2012-06-18T13:22:53Z</time>
      </trkpt>
      <trkpt lat="43.87129" lon="5.61722">
        <ele>449.518</ele>
        <time>2012-06-18T13:23:16Z</time>
      </trkpt>
      <trkpt lat="43.87126" lon="5.6173">
        <ele>450.232</ele>
        <time>2012-06-18T13:25:58Z</time>
      </trkpt>
      <trkpt lat="43.87126" lon="5.6173">
        <ele>447.667</ele>
        <time>2012-06-18T13:26:14Z</time>
      </trkpt>
      <trkpt lat="43.87126" lon="5.61729">
        <ele>448.842</ele>
        <time>2012-06-18T13:26:16Z</time>
      </trkpt>
      <trkpt lat="43.87125" lon="5.61729">
        <ele>450.52</ele>
        <time>2012-06-18T13:26:27Z</time>
      </trkpt>
      <trkpt lat="43.87126" lon="5.6173">
        <ele>450.05</ele>
        <time>2012-06-18T13:26:48Z</time>
      </trkpt>
      <trkpt lat="43.87119" lon="5.61722">
        <ele>449.869</ele>
        <time>2012-06-18T13:27:18Z</time>
      </trkpt>
      <trkpt lat="43.87105" lon="5.61718">
        <ele>450.354</ele>
        <time>2012-06-18T13:27:38Z</time>
      </trkpt>
      <trkpt lat="43.87113" lon="5.61716">
        <ele>450.607</ele>
        <time>2012-06-18T13:27:52Z</time>
      </trkpt>
      <trkpt lat="43.87112" lon="5.61709">
        <ele>451.596</ele>
        <time>2012-06-18T13:28:06Z</time>
      </trkpt>
      <trkpt lat="43.87112" lon="5.61698">
        <ele>453.471</ele>
        <time>2012-06-18T13:28:20Z</time>
      </trkpt>
      <trkpt lat="43.8711" lon="5.6169">
        <ele>455.613</ele>
        <time>2012-06-18T13:28:40Z</time>
      </trkpt>
      <trkpt lat="43.87106" lon="5.6168">
        <ele>457.472</ele>
        <time>2012-06-18T13:28:58Z</time>
      </trkpt>
      <trkpt lat="43.87104" lon="5.6167">
        <ele>458.442</ele>
        <time>2012-06-18T13:29:14Z</time>
      </trkpt>
      <trkpt lat="43.87106" lon="5.61648">
        <ele>460.631</ele>
        <time>2012-06-18T13:29:35Z</time>
      </trkpt>
      <trkpt lat="43.87097" lon="5.61631">
        <ele>462.597</ele>
        <time>2012-06-18T13:29:55Z</time>
      </trkpt>
      <trkpt lat="43.87088" lon="5.61612">
        <ele>464.022</ele>
        <time>2012-06-18T13:30:15Z</time>
      </trkpt>
      <trkpt lat="43.8708" lon="5.61591">
        <ele>465.791</ele>
        <time>2012-06-18T13:30:35Z</time>
      </trkpt>
      <trkpt lat="43.87078" lon="5.61578">
        <ele>466.117</ele>
        <time>2012-06-18T13:30:45Z</time>
      </trkpt>
      <trkpt lat="43.87071" lon="5.61537">
        <ele>464.58</ele>
        <time>2012-06-18T13:31:16Z</time>
      </trkpt>
      <trkpt lat="43.87077" lon="5.61501">
        <ele>464.277</ele>
        <time>2012-06-18T13:31:43Z</time>
      </trkpt>
      <trkpt lat="43.87084" lon="5.61467">
        <ele>464.663</ele>
        <time>2012-06-18T13:32:07Z</time>
      </trkpt>
      <trkpt lat="43.8709" lon="5.61441">
        <ele>464.824</ele>
        <time>2012-06-18T13:32:28Z</time>
      </trkpt>
      <trkpt lat="43.87093" lon="5.61411">
        <ele>465.221</ele>
        <time>2012-06-18T13:32:49Z</time>
      </trkpt>
      <trkpt lat="43.87093" lon="5.61403">
        <ele>465.355</ele>
        <time>2012-06-18T13:32:54Z</time>
      </trkpt>
      <trkpt lat="43.87096" lon="5.61371">
        <ele>466.854</ele>
        <time>2012-06-18T13:33:15Z</time>
      </trkpt>
      <trkpt lat="43.87109" lon="5.61343">
        <ele>467.617</ele>
        <time>2012-06-18T13:33:38Z</time>
      </trkpt>
      <trkpt lat="43.87125" lon="5.61315">
        <ele>468.559</ele>
        <time>2012-06-18T13:34:02Z</time>
      </trkpt>
      <trkpt lat="43.87139" lon="5.6128">
        <ele>468.29</ele>
        <time>2012-06-18T13:34:28Z</time>
      </trkpt>
      <trkpt lat="43.8714" lon="5.6124">
        <ele>467.238</ele>
        <time>2012-06-18T13:34:55Z</time>
      </trkpt>
      <trkpt lat="43.87134" lon="5.61201">
        <ele>467.02</ele>
        <time>2012-06-18T13:35:21Z</time>
      </trkpt>
      <trkpt lat="43.87131" lon="5.61157">
        <ele>467.41</ele>
        <time>2012-06-18T13:35:51Z</time>
      </trkpt>
      <trkpt lat="43.8712" lon="5.61115">
        <ele>467.279</ele>
        <time>2012-06-18T13:36:21Z</time>
      </trkpt>
      <trkpt lat="43.8711" lon="5.61076">
        <ele>467.257</ele>
        <time>2012-06-18T13:36:49Z</time>
      </trkpt>
      <trkpt lat="43.8711" lon="5.61036">
        <ele>467.268</ele>
        <time>2012-06-18T13:37:16Z</time>
      </trkpt>
      <trkpt lat="43.87103" lon="5.60999">
        <ele>467.087</ele>
        <time>2012-06-18T13:37:42Z</time>
      </trkpt>
      <trkpt lat="43.87093" lon="5.60957">
        <ele>465.89</ele>
        <time>2012-06-18T13:38:12Z</time>
      </trkpt>
      <trkpt lat="43.87083" lon="5.60913">
        <ele>463.979</ele>
        <time>2012-06-18T13:38:44Z</time>
      </trkpt>
      <trkpt lat="43.87075" lon="5.60871">
        <ele>462.638</ele>
        <time>2012-06-18T13:39:14Z</time>
      </trkpt>
      <trkpt lat="43.87072" lon="5.60829">
        <ele>460.933</ele>
        <time>2012-06-18T13:39:45Z</time>
      </trkpt>
      <trkpt lat="43.87065" lon="5.60801">
        <ele>457.875</ele>
        <time>2012-06-18T13:40:06Z</time>
      </trkpt>
      <trkpt lat="43.87052" lon="5.60767">
        <ele>455.997</ele>
        <time>2012-06-18T13:40:35Z</time>
      </trkpt>
      <trkpt lat="43.8705" lon="5.60763">
        <ele>455.829</ele>
        <time>2012-06-18T13:40:38Z</time>
      </trkpt>
      <trkpt lat="43.87034" lon="5.60742">
        <ele>452.52</ele>
        <time>2012-06-18T13:41:01Z</time>
      </trkpt>
      <trkpt lat="43.87013" lon="5.60734">
        <ele>449.449</ele>
        <time>2012-06-18T13:41:25Z</time>
      </trkpt>
      <trkpt lat="43.86987" lon="5.60733">
        <ele>446.341</ele>
        <time>2012-06-18T13:41:53Z</time>
      </trkpt>
      <trkpt lat="43.86979" lon="5.60733">
        <ele>445.052</ele>
        <time>2012-06-18T13:42:01Z</time>
      </trkpt>
      <trkpt lat="43.8696" lon="5.6073">
        <ele>441.977</ele>
        <time>2012-06-18T13:42:21Z</time>
      </trkpt>
      <trkpt lat="43.86938" lon="5.60718">
        <ele>438.568</ele>
        <time>2012-06-18T13:42:49Z</time>
      </trkpt>
      <trkpt lat="43.86914" lon="5.60706">
        <ele>437.236</ele>
        <time>2012-06-18T13:43:17Z</time>
      </trkpt>
      <trkpt lat="43.86887" lon="5.60703">
        <ele>435.927</ele>
        <time>2012-06-18T13:43:41Z</time>
      </trkpt>
      <trkpt lat="43.86865" lon="5.60703">
        <ele>433.711</ele>
        <time>2012-06-18T13:44:04Z</time>
      </trkpt>
      <trkpt lat="43.8684" lon="5.60707">
        <ele>432.134</ele>
        <time>2012-06-18T13:44:32Z</time>
      </trkpt>
      <trkpt lat="43.86837" lon="5.60713">
        <ele>432.264</ele>
        <time>2012-06-18T13:45:10Z</time>
      </trkpt>
      <trkpt lat="43.86833" lon="5.60709">
        <ele>432.159</ele>
        <time>2012-06-18T13:45:40Z</time>
      </trkpt>
      <trkpt lat="43.8681" lon="5.60699">
        <ele>431.718</ele>
        <time>2012-06-18T13:46:05Z</time>
      </trkpt>
      <trkpt lat="43.86807" lon="5.60701">
        <ele>431.27</ele>
        <time>2012-06-18T13:46:12Z</time>
      </trkpt>
      <trkpt lat="43.86786" lon="5.60713">
        <ele>430.31</ele>
        <time>2012-06-18T13:46:35Z</time>
      </trkpt>
      <trkpt lat="43.86763" lon="5.60725">
        <ele>430.111</ele>
        <time>2012-06-18T13:46:59Z</time>
      </trkpt>
      <trkpt lat="43.86743" lon="5.60733">
        <ele>429.706</ele>
        <time>2012-06-18T13:47:19Z</time>
      </trkpt>
      <trkpt lat="43.86717" lon="5.60737">
        <ele>430.157</ele>
        <time>2012-06-18T13:47:42Z</time>
      </trkpt>
      <trkpt lat="43.86693" lon="5.60742">
        <ele>430.692</ele>
        <time>2012-06-18T13:48:06Z</time>
      </trkpt>
      <trkpt lat="43.86663" lon="5.60745">
        <ele>430.005</ele>
        <time>2012-06-18T13:48:35Z</time>
      </trkpt>
      <trkpt lat="43.86644" lon="5.60747">
        <ele>429.2</ele>
        <time>2012-06-18T13:48:59Z</time>
      </trkpt>
      <trkpt lat="43.86632" lon="5.60752">
        <ele>427.188</ele>
        <time>2012-06-18T13:49:15Z</time>
      </trkpt>
      <trkpt lat="43.86618" lon="5.60754">
        <ele>425.395</ele>
        <time>2012-06-18T13:49:32Z</time>
      </trkpt>
      <trkpt lat="43.86604" lon="5.60749">
        <ele>424.775</ele>
        <time>2012-06-18T13:49:50Z</time>
      </trkpt>
      <trkpt lat="43.86591" lon="5.60736">
        <ele>423.178</ele>
        <time>2012-06-18T13:50:10Z</time>
      </trkpt>
      <trkpt lat="43.86577" lon="5.60722">
        <ele>420.917</ele>
        <time>2012-06-18T13:50:30Z</time>
      </trkpt>
      <trkpt lat="43.86559" lon="5.60711">
        <ele>419.611</ele>
        <time>2012-06-18T13:50:51Z</time>
      </trkpt>
      <trkpt lat="43.86549" lon="5.60704">
        <ele>419.52</ele>
        <time>2012-06-18T13:51:03Z</time>
      </trkpt>
      <trkpt lat="43.86536" lon="5.60692">
        <ele>418.29</ele>
        <time>2012-06-18T13:51:22Z</time>
      </trkpt>
      <trkpt lat="43.8652" lon="5.60678">
        <ele>416.398</ele>
        <time>2012-06-18T13:51:43Z</time>
      </trkpt>
      <trkpt lat="43.86504" lon="5.60664">
        <ele>415.286</ele>
        <time>2012-06-18T13:52:04Z</time>
      </trkpt>
      <trkpt lat="43.86491" lon="5.60653">
        <ele>414.101</ele>
        <time>2012-06-18T13:52:20Z</time>
      </trkpt>
      <trkpt lat="43.86482" lon="5.60647">
        <ele>413.522</ele>
        <time>2012-06-18T13:52:35Z</time>
      </trkpt>
      <trkpt lat="43.86466" lon="5.60637">
        <ele>412.082</ele>
        <time>2012-06-18T13:52:53Z</time>
      </trkpt>
      <trkpt lat="43.86459" lon="5.60631">
        <ele>411.952</ele>
        <time>2012-06-18T13:53:01Z</time>
      </trkpt>
      <trkpt lat="43.86447" lon="5.60608">
        <ele>411.5</ele>
        <time>2012-06-18T13:53:20Z</time>
      </trkpt>
      <trkpt lat="43.86436" lon="5.60587">
        <ele>409.886</ele>
        <time>2012-06-18T13:53:39Z</time>
      </trkpt>
      <trkpt lat="43.86423" lon="5.60575">
        <ele>408.692</ele>
        <time>2012-06-18T13:53:56Z</time>
      </trkpt>
      <trkpt lat="43.86421" lon="5.60575">
        <ele>408.691</ele>
        <time>2012-06-18T13:53:58Z</time>
      </trkpt>
      <trkpt lat="43.86401" lon="5.60565">
        <ele>407.91</ele>
        <time>2012-06-18T13:54:19Z</time>
      </trkpt>
      <trkpt lat="43.86395" lon="5.60561">
        <ele>407.504</ele>
        <time>2012-06-18T13:54:26Z</time>
      </trkpt>
      <trkpt lat="43.86379" lon="5.60552">
        <ele>406.196</ele>
        <time>2012-06-18T13:54:44Z</time>
      </trkpt>
      <trkpt lat="43.86368" lon="5.6054">
        <ele>404.693</ele>
        <time>2012-06-18T13:54:58Z</time>
      </trkpt>
      <trkpt lat="43.86348" lon="5.60533">
        <ele>404.828</ele>
        <time>2012-06-18T13:55:23Z</time>
      </trkpt>
      <trkpt lat="43.86328" lon="5.60522">
        <ele>402.427</ele>
        <time>2012-06-18T13:55:44Z</time>
      </trkpt>
      <trkpt lat="43.86308" lon="5.60506">
        <ele>401.179</ele>
        <time>2012-06-18T13:56:09Z</time>
      </trkpt>
      <trkpt lat="43.86288" lon="5.60498">
        <ele>398.592</ele>
        <time>2012-06-18T13:56:31Z</time>
      </trkpt>
      <trkpt lat="43.8626" lon="5.60496">
        <ele>396.957</ele>
        <time>2012-06-18T13:56:56Z</time>
      </trkpt>
      <trkpt lat="43.86226" lon="5.60488">
        <ele>395.749</ele>
        <time>2012-06-18T13:57:28Z</time>
      </trkpt>
      <trkpt lat="43.86189" lon="5.60477">
        <ele>394.447</ele>
        <time>2012-06-18T13:58:03Z</time>
      </trkpt>
      <trkpt lat="43.86157" lon="5.60467">
        <ele>392.771</ele>
        <time>2012-06-18T13:58:34Z</time>
      </trkpt>
      <trkpt lat="43.86128" lon="5.60458">
        <ele>391.427</ele>
        <time>2012-06-18T13:59:01Z</time>
      </trkpt>
      <trkpt lat="43.86096" lon="5.60455">
        <ele>389.122</ele>
        <time>2012-06-18T13:59:31Z</time>
      </trkpt>
      <trkpt lat="43.86067" lon="5.60446">
        <ele>386.697</ele>
        <time>2012-06-18T14:00:02Z</time>
      </trkpt>
      <trkpt lat="43.8604" lon="5.60434">
        <ele>385.101</ele>
        <time>2012-06-18T14:00:27Z</time>
      </trkpt>
      <trkpt lat="43.86002" lon="5.60433">
        <ele>383.858</ele>
        <time>2012-06-18T14:01:01Z</time>
      </trkpt>
      <trkpt lat="43.85972" lon="5.60427">
        <ele>382.925</ele>
        <time>2012-06-18T14:01:29Z</time>
      </trkpt>
      <trkpt lat="43.85957" lon="5.60419">
        <ele>381.99</ele>
        <time>2012-06-18T14:01:50Z</time>
      </trkpt>
      <trkpt lat="43.85943" lon="5.60404">
        <ele>381.133</ele>
        <time>2012-06-18T14:02:09Z</time>
      </trkpt>
      <trkpt lat="43.85927" lon="5.60379">
        <ele>379.633</ele>
        <time>2012-06-18T14:02:32Z</time>
      </trkpt>
      <trkpt lat="43.85908" lon="5.60335">
        <ele>380.037</ele>
        <time>2012-06-18T14:03:05Z</time>
      </trkpt>
      <trkpt lat="43.85903" lon="5.60321">
        <ele>379.638</ele>
        <time>2012-06-18T14:03:27Z</time>
      </trkpt>
      <trkpt lat="43.85899" lon="5.60278">
        <ele>378.186</ele>
        <time>2012-06-18T14:03:57Z</time>
      </trkpt>
      <trkpt lat="43.859" lon="5.60271">
        <ele>378.341</ele>
        <time>2012-06-18T14:04:02Z</time>
      </trkpt>
      <trkpt lat="43.85899" lon="5.60265">
        <ele>378.436</ele>
        <time>2012-06-18T14:04:06Z</time>
      </trkpt>
      <trkpt lat="43.85901" lon="5.60233">
        <ele>377.904</ele>
        <time>2012-06-18T14:04:29Z</time>
      </trkpt>
      <trkpt lat="43.85904" lon="5.60193">
        <ele>377.394</ele>
        <time>2012-06-18T14:04:55Z</time>
      </trkpt>
      <trkpt lat="43.85906" lon="5.60145">
        <ele>377.22</ele>
        <time>2012-06-18T14:05:26Z</time>
      </trkpt>
      <trkpt lat="43.85906" lon="5.60095">
        <ele>376.586</ele>
        <time>2012-06-18T14:05:59Z</time>
      </trkpt>
      <trkpt lat="43.85906" lon="5.60088">
        <ele>376.666</ele>
        <time>2012-06-18T14:06:04Z</time>
      </trkpt>
      <trkpt lat="43.85906" lon="5.60082">
        <ele>376.426</ele>
        <time>2012-06-18T14:06:08Z</time>
      </trkpt>
      <trkpt lat="43.85909" lon="5.60033">
        <ele>375.527</ele>
        <time>2012-06-18T14:06:40Z</time>
      </trkpt>
      <trkpt lat="43.85912" lon="5.59995">
        <ele>376.291</ele>
        <time>2012-06-18T14:07:06Z</time>
      </trkpt>
      <trkpt lat="43.85915" lon="5.5996">
        <ele>376.871</ele>
        <time>2012-06-18T14:07:32Z</time>
      </trkpt>
      <trkpt lat="43.85917" lon="5.5993">
        <ele>377.806</ele>
        <time>2012-06-18T14:07:52Z</time>
      </trkpt>
      <trkpt lat="43.8592" lon="5.5991">
        <ele>378.051</ele>
        <time>2012-06-18T14:08:08Z</time>
      </trkpt>
      <trkpt lat="43.85919" lon="5.59904">
        <ele>378.282</ele>
        <time>2012-06-18T14:08:31Z</time>
      </trkpt>
      <trkpt lat="43.85923" lon="5.59884">
        <ele>378.458</ele>
        <time>2012-06-18T14:08:48Z</time>
      </trkpt>
      <trkpt lat="43.85923" lon="5.59864">
        <ele>377.492</ele>
        <time>2012-06-18T14:09:14Z</time>
      </trkpt>
      <trkpt lat="43.85921" lon="5.59832">
        <ele>376.136</ele>
        <time>2012-06-18T14:09:39Z</time>
      </trkpt>
      <trkpt lat="43.85924" lon="5.59801">
        <ele>374.402</ele>
        <time>2012-06-18T14:10:02Z</time>
      </trkpt>
      <trkpt lat="43.85931" lon="5.59779">
        <ele>374.137</ele>
        <time>2012-06-18T14:10:25Z</time>
      </trkpt>
      <trkpt lat="43.85934" lon="5.5978">
        <ele>373.54</ele>
        <time>2012-06-18T14:10:40Z</time>
      </trkpt>
      <trkpt lat="43.85938" lon="5.59772">
        <ele>373.792</ele>
        <time>2012-06-18T14:10:56Z</time>
      </trkpt>
      <trkpt lat="43.8595" lon="5.59748">
        <ele>372.924</ele>
        <time>2012-06-18T14:11:18Z</time>
      </trkpt>
      <trkpt lat="43.85952" lon="5.59725">
        <ele>372.995</ele>
        <time>2012-06-18T14:11:35Z</time>
      </trkpt>
      <trkpt lat="43.85947" lon="5.59692">
        <ele>373.071</ele>
        <time>2012-06-18T14:11:59Z</time>
      </trkpt>
      <trkpt lat="43.8594" lon="5.59657">
        <ele>372.711</ele>
        <time>2012-06-18T14:12:24Z</time>
      </trkpt>
      <trkpt lat="43.85937" lon="5.59613">
        <ele>372.971</ele>
        <time>2012-06-18T14:12:55Z</time>
      </trkpt>
      <trkpt lat="43.85936" lon="5.59582">
        <ele>372.974</ele>
        <time>2012-06-18T14:13:17Z</time>
      </trkpt>
      <trkpt lat="43.85938" lon="5.59555">
        <ele>372.611</ele>
        <time>2012-06-18T14:13:37Z</time>
      </trkpt>
      <trkpt lat="43.85945" lon="5.59539">
        <ele>372.996</ele>
        <time>2012-06-18T14:13:59Z</time>
      </trkpt>
      <trkpt lat="43.85937" lon="5.59523">
        <ele>373.065</ele>
        <time>2012-06-18T14:14:18Z</time>
      </trkpt>
      <trkpt lat="43.85935" lon="5.59519">
        <ele>373.766</ele>
        <time>2012-06-18T14:14:21Z</time>
      </trkpt>
      <trkpt lat="43.8592" lon="5.59491">
        <ele>373.498</ele>
        <time>2012-06-18T14:14:46Z</time>
      </trkpt>
      <trkpt lat="43.85911" lon="5.5948">
        <ele>373.707</ele>
        <time>2012-06-18T14:15:04Z</time>
      </trkpt>
      <trkpt lat="43.859" lon="5.59485">
        <ele>373.096</ele>
        <time>2012-06-18T14:15:20Z</time>
      </trkpt>
      <trkpt lat="43.85892" lon="5.59492">
        <ele>373.442</ele>
        <time>2012-06-18T14:15:38Z</time>
      </trkpt>
      <trkpt lat="43.85889" lon="5.59491">
        <ele>373.215</ele>
        <time>2012-06-18T14:15:43Z</time>
      </trkpt>
      <trkpt lat="43.85861" lon="5.59481">
        <ele>373.304</ele>
        <time>2012-06-18T14:16:10Z</time>
      </trkpt>
      <trkpt lat="43.85844" lon="5.59461">
        <ele>373.877</ele>
        <time>2012-06-18T14:16:34Z</time>
      </trkpt>
      <trkpt lat="43.85827" lon="5.59442">
        <ele>374.978</ele>
        <time>2012-06-18T14:16:58Z</time>
      </trkpt>
      <trkpt lat="43.85801" lon="5.59425">
        <ele>376.628</ele>
        <time>2012-06-18T14:17:26Z</time>
      </trkpt>
      <trkpt lat="43.85778" lon="5.59415">
        <ele>378.264</ele>
        <time>2012-06-18T14:17:51Z</time>
      </trkpt>
      <trkpt lat="43.85756" lon="5.59406">
        <ele>378.756</ele>
        <time>2012-06-18T14:18:15Z</time>
      </trkpt>
      <trkpt lat="43.85749" lon="5.59396">
        <ele>379.106</ele>
        <time>2012-06-18T14:18:33Z</time>
      </trkpt>
      <trkpt lat="43.85744" lon="5.59377">
        <ele>378.763</ele>
        <time>2012-06-18T14:19:06Z</time>
      </trkpt>
      <trkpt lat="43.85744" lon="5.59375">
        <ele>379.208</ele>
        <time>2012-06-18T14:19:07Z</time>
      </trkpt>
      <trkpt lat="43.85734" lon="5.5934">
        <ele>379.524</ele>
        <time>2012-06-18T14:19:34Z</time>
      </trkpt>
      <trkpt lat="43.85727" lon="5.59308">
        <ele>381.022</ele>
        <time>2012-06-18T14:19:59Z</time>
      </trkpt>
      <trkpt lat="43.8572" lon="5.59284">
        <ele>382.375</ele>
        <time>2012-06-18T14:20:18Z</time>
      </trkpt>
      <trkpt lat="43.85713" lon="5.5926">
        <ele>382.25</ele>
        <time>2012-06-18T14:20:38Z</time>
      </trkpt>
      <trkpt lat="43.85707" lon="5.5923">
        <ele>383.159</ele>
        <time>2012-06-18T14:21:01Z</time>
      </trkpt>
      <trkpt lat="43.85695" lon="5.59205">
        <ele>383.154</ele>
        <time>2012-06-18T14:21:22Z</time>
      </trkpt>
      <trkpt lat="43.85693" lon="5.592">
        <ele>383.28</ele>
        <time>2012-06-18T14:21:27Z</time>
      </trkpt>
      <trkpt lat="43.85686" lon="5.59186">
        <ele>383.058</ele>
        <time>2012-06-18T14:21:43Z</time>
      </trkpt>
      <trkpt lat="43.85678" lon="5.59153">
        <ele>383.007</ele>
        <time>2012-06-18T14:22:04Z</time>
      </trkpt>
      <trkpt lat="43.85659" lon="5.59129">
        <ele>383.919</ele>
        <time>2012-06-18T14:22:26Z</time>
      </trkpt>
      <trkpt lat="43.85642" lon="5.59115">
        <ele>385.211</ele>
        <time>2012-06-18T14:22:45Z</time>
      </trkpt>
      <trkpt lat="43.85628" lon="5.59121">
        <ele>388.287</ele>
        <time>2012-06-18T14:23:04Z</time>
      </trkpt>
      <trkpt lat="43.85625" lon="5.59122">
        <ele>388.107</ele>
        <time>2012-06-18T14:23:28Z</time>
      </trkpt>
      <trkpt lat="43.85624" lon="5.59106">
        <ele>388.544</ele>
        <time>2012-06-18T14:23:49Z</time>
      </trkpt>
      <trkpt lat="43.85624" lon="5.59094">
        <ele>388.461</ele>
        <time>2012-06-18T14:24:08Z</time>
      </trkpt>
      <trkpt lat="43.85617" lon="5.59074">
        <ele>388.441</ele>
        <time>2012-06-18T14:24:29Z</time>
      </trkpt>
      <trkpt lat="43.8561" lon="5.59058">
        <ele>389.611</ele>
        <time>2012-06-18T14:24:47Z</time>
      </trkpt>
      <trkpt lat="43.85598" lon="5.59053">
        <ele>391.041</ele>
        <time>2012-06-18T14:25:04Z</time>
      </trkpt>
      <trkpt lat="43.85591" lon="5.59045">
        <ele>391.782</ele>
        <time>2012-06-18T14:25:21Z</time>
      </trkpt>
      <trkpt lat="43.8559" lon="5.59045">
        <ele>392.468</ele>
        <time>2012-06-18T14:25:36Z</time>
      </trkpt>
      <trkpt lat="43.85575" lon="5.59044">
        <ele>392.256</ele>
        <time>2012-06-18T14:25:58Z</time>
      </trkpt>
      <trkpt lat="43.8558" lon="5.59069">
        <ele>392.735</ele>
        <time>2012-06-18T14:26:10Z</time>
      </trkpt>
      <trkpt lat="43.85592" lon="5.59093">
        <ele>392.303</ele>
        <time>2012-06-18T14:26:28Z</time>
      </trkpt>
      <trkpt lat="43.85595" lon="5.59106">
        <ele>391.738</ele>
        <time>2012-06-18T14:26:38Z</time>
      </trkpt>
      <trkpt lat="43.85605" lon="5.59131">
        <ele>390.209</ele>
        <time>2012-06-18T14:26:57Z</time>
      </trkpt>
      <trkpt lat="43.85611" lon="5.59168">
        <ele>389.494</ele>
        <time>2012-06-18T14:27:24Z</time>
      </trkpt>
      <trkpt lat="43.8561" lon="5.5919">
        <ele>389.562</ele>
        <time>2012-06-18T14:27:45Z</time>
      </trkpt>
      <trkpt lat="43.85616" lon="5.59185">
        <ele>389.749</ele>
        <time>2012-06-18T14:27:56Z</time>
      </trkpt>
      <trkpt lat="43.85623" lon="5.59171">
        <ele>389.685</ele>
        <time>2012-06-18T14:28:09Z</time>
      </trkpt>
      <trkpt lat="43.85636" lon="5.59184">
        <ele>388.837</ele>
        <time>2012-06-18T14:28:37Z</time>
      </trkpt>
      <trkpt lat="43.85634" lon="5.59179">
        <ele>388.992</ele>
        <time>2012-06-18T14:28:50Z</time>
      </trkpt>
      <trkpt lat="43.85626" lon="5.59174">
        <ele>389.278</ele>
        <time>2012-06-18T14:29:04Z</time>
      </trkpt>
      <trkpt lat="43.85617" lon="5.59173">
        <ele>388.972</ele>
        <time>2012-06-18T14:29:16Z</time>
      </trkpt>
      <trkpt lat="43.85627" lon="5.59169">
        <ele>388.935</ele>
        <time>2012-06-18T14:29:25Z</time>
      </trkpt>
      <trkpt lat="43.8562" lon="5.59174">
        <ele>389.335</ele>
        <time>2012-06-18T14:29:35Z</time>
      </trkpt>
      <trkpt lat="43.85624" lon="5.59167">
        <ele>389.003</ele>
        <time>2012-06-18T14:29:48Z</time>
      </trkpt>
      <trkpt lat="43.85626" lon="5.59174">
        <ele>388.869</ele>
        <time>2012-06-18T14:30:02Z</time>
      </trkpt>
      <trkpt lat="43.85629" lon="5.59181">
        <ele>389.03</ele>
        <time>2012-06-18T14:30:05Z</time>
      </trkpt>
      <trkpt lat="43.85624" lon="5.59177">
        <ele>388.614</ele>
        <time>2012-06-18T14:30:27Z</time>
      </trkpt>
      <trkpt lat="43.85623" lon="5.59166">
        <ele>388.799</ele>
        <time>2012-06-18T14:30:49Z</time>
      </trkpt>
      <trkpt lat="43.85623" lon="5.59169">
        <ele>388.44</ele>
        <time>2012-06-18T14:30:52Z</time>
      </trkpt>
      <trkpt lat="43.85627" lon="5.59176">
        <ele>388.554</ele>
        <time>2012-06-18T14:31:07Z</time>
      </trkpt>
      <trkpt lat="43.85618" lon="5.59158">
        <ele>388.668</ele>
        <time>2012-06-18T14:31:26Z</time>
      </trkpt>
      <trkpt lat="43.85612" lon="5.59135">
        <ele>388.952</ele>
        <time>2012-06-18T14:31:46Z</time>
      </trkpt>
      <trkpt lat="43.85598" lon="5.59108">
        <ele>391.704</ele>
        <time>2012-06-18T14:32:08Z</time>
      </trkpt>
      <trkpt lat="43.8559" lon="5.59087">
        <ele>392.609</ele>
        <time>2012-06-18T14:32:26Z</time>
      </trkpt>
      <trkpt lat="43.85589" lon="5.59086">
        <ele>392.921</ele>
        <time>2012-06-18T14:32:45Z</time>
      </trkpt>
      <trkpt lat="43.85574" lon="5.59077">
        <ele>392.468</ele>
        <time>2012-06-18T14:32:58Z</time>
      </trkpt>
      <trkpt lat="43.85565" lon="5.59082">
        <ele>395.091</ele>
        <time>2012-06-18T14:33:08Z</time>
      </trkpt>
      <trkpt lat="43.85562" lon="5.59083">
        <ele>395.408</ele>
        <time>2012-06-18T14:33:12Z</time>
      </trkpt>
      <trkpt lat="43.85584" lon="5.59077">
        <ele>395.584</ele>
        <time>2012-06-18T14:33:28Z</time>
      </trkpt>
      <trkpt lat="43.85586" lon="5.59078">
        <ele>396.59</ele>
        <time>2012-06-18T14:33:40Z</time>
      </trkpt>
      <trkpt lat="43.85586" lon="5.59076">
        <ele>397.594</ele>
        <time>2012-06-18T14:33:59Z</time>
      </trkpt>
      <trkpt lat="43.85588" lon="5.59076">
        <ele>398.276</ele>
        <time>2012-06-18T14:34:13Z</time>
      </trkpt>
      <trkpt lat="43.85585" lon="5.59076">
        <ele>398.997</ele>
        <time>2012-06-18T14:34:31Z</time>
      </trkpt>
      <trkpt lat="43.85588" lon="5.59076">
        <ele>399.492</ele>
        <time>2012-06-18T14:34:57Z</time>
      </trkpt>
      <trkpt lat="43.85588" lon="5.59076">
        <ele>400.231</ele>
        <time>2012-06-18T14:35:25Z</time>
      </trkpt>
      <trkpt lat="43.85588" lon="5.59076">
        <ele>401.288</ele>
        <time>2012-06-18T14:35:54Z</time>
      </trkpt>
      <trkpt lat="43.85589" lon="5.59072">
        <ele>400.594</ele>
        <time>2012-06-18T14:36:34Z</time>
      </trkpt>
      <trkpt lat="43.8559" lon="5.59075">
        <ele>399.09</ele>
        <time>2012-06-18T14:36:57Z</time>
      </trkpt>
      <trkpt lat="43.85589" lon="5.5907">
        <ele>396.561</ele>
        <time>2012-06-18T14:37:15Z</time>
      </trkpt>
      <trkpt lat="43.85589" lon="5.59078">
        <ele>396.102</ele>
        <time>2012-06-18T14:37:27Z</time>
      </trkpt>
    </trkseg>
  </trk>
  <trk>
    <name><![CDATA[ACTIVE LOG163740]]></name>
    <trkseg>
      <trkpt lat="43.85583" lon="5.59077">
        <ele>396.942</ele>
        <time>2012-06-18T14:37:40Z</time>
      </trkpt>
      <trkpt lat="43.85582" lon="5.59078">
        <ele>392.035</ele>
        <time>2012-06-18T14:37:41Z</time>
      </trkpt>
      <trkpt lat="43.85582" lon="5.59078">
        <ele>395.829</ele>
        <time>2012-06-18T14:37:42Z</time>
      </trkpt>
      <trkpt lat="43.85583" lon="5.59083">
        <ele>394.484</ele>
        <time>2012-06-18T14:37:57Z</time>
      </trkpt>
      <trkpt lat="43.85582" lon="5.5908">
        <ele>394.598</ele>
        <time>2012-06-18T14:38:17Z</time>
      </trkpt>
      <trkpt lat="43.85585" lon="5.59078">
        <ele>395.107</ele>
        <time>2012-06-18T14:38:43Z</time>
      </trkpt>
      <trkpt lat="43.85583" lon="5.59075">
        <ele>394.381</ele>
        <time>2012-06-18T14:39:27Z</time>
      </trkpt>
      <trkpt lat="43.85587" lon="5.59072">
        <ele>394.473</ele>
        <time>2012-06-18T14:39:52Z</time>
      </trkpt>
      <trkpt lat="43.85588" lon="5.59078">
        <ele>393.198</ele>
        <time>2012-06-18T14:40:32Z</time>
      </trkpt>
    </trkseg>
  </trk>
  <trk>
    <name><![CDATA[ACTIVE LOG164331]]></name>
    <trkseg>
      <trkpt lat="43.85586" lon="5.59071">
        <ele>391.575</ele>
        <time>2012-06-18T14:43:31Z</time>
      </trkpt>
    </trkseg>
  </trk>
  <trk>
    <name><![CDATA[ACTIVE LOG164333]]></name>
    <trkseg>
      <trkpt lat="43.85585" lon="5.59072">
        <ele>391.905</ele>
        <time>2012-06-18T14:43:33Z</time>
      </trkpt>
    </trkseg>
  </trk>
  <trk>
    <name><![CDATA[ACTIVE LOG164334]]></name>
    <trkseg>
      <trkpt lat="43.85586" lon="5.59072">
        <ele>391.976</ele>
        <time>2012-06-18T14:43:34Z</time>
      </trkpt>
    </trkseg>
  </trk>
  <trk>
    <name><![CDATA[ACTIVE LOG164336]]></name>
    <trkseg>
      <trkpt lat="43.85586" lon="5.59072">
        <ele>392.667</ele>
        <time>2012-06-18T14:43:35Z</time>
      </trkpt>
    </trkseg>
  </trk>
  <trk>
    <name><![CDATA[ACTIVE LOG164338]]></name>
    <trkseg>
      <trkpt lat="43.85586" lon="5.59072">
        <ele>391.968</ele>
        <time>2012-06-18T14:43:37Z</time>
      </trkpt>
      <trkpt lat="43.85587" lon="5.59072">
        <ele>393.774</ele>
        <time>2012-06-18T14:43:40Z</time>
      </trkpt>
      <trkpt lat="43.85595" lon="5.59074">
        <ele>392.539</ele>
        <time>2012-06-18T14:43:57Z</time>
      </trkpt>
      <trkpt lat="43.85606" lon="5.59069">
        <ele>392.366</ele>
        <time>2012-06-18T14:44:10Z</time>
      </trkpt>
      <trkpt lat="43.85601" lon="5.59067">
        <ele>392.519</ele>
        <time>2012-06-18T14:44:14Z</time>
      </trkpt>
      <trkpt lat="43.85577" lon="5.5906">
        <ele>392.519</ele>
        <time>2012-06-18T14:44:28Z</time>
      </trkpt>
      <trkpt lat="43.85572" lon="5.59053">
        <ele>393.374</ele>
        <time>2012-06-18T14:44:39Z</time>
      </trkpt>
      <trkpt lat="43.85576" lon="5.59054">
        <ele>389.359</ele>
        <time>2012-06-18T14:44:41Z</time>
      </trkpt>
      <trkpt lat="43.85577" lon="5.59054">
        <ele>392.08</ele>
        <time>2012-06-18T14:44:42Z</time>
      </trkpt>
      <trkpt lat="43.85582" lon="5.5905">
        <ele>392.719</ele>
        <time>2012-06-18T14:44:55Z</time>
      </trkpt>
      <trkpt lat="43.85581" lon="5.5905">
        <ele>392.73</ele>
        <time>2012-06-18T14:45:03Z</time>
      </trkpt>
      <trkpt lat="43.85582" lon="5.59056">
        <ele>392.841</ele>
        <time>2012-06-18T14:45:18Z</time>
      </trkpt>
      <trkpt lat="43.85579" lon="5.59037">
        <ele>393.522</ele>
        <time>2012-06-18T14:45:29Z</time>
      </trkpt>
      <trkpt lat="43.85572" lon="5.59014">
        <ele>392.634</ele>
        <time>2012-06-18T14:45:41Z</time>
      </trkpt>
      <trkpt lat="43.85575" lon="5.5902">
        <ele>393.167</ele>
        <time>2012-06-18T14:45:46Z</time>
      </trkpt>
      <trkpt lat="43.85578" lon="5.59035">
        <ele>392.638</ele>
        <time>2012-06-18T14:45:50Z</time>
      </trkpt>
      <trkpt lat="43.85576" lon="5.59042">
        <ele>392.579</ele>
        <time>2012-06-18T14:45:59Z</time>
      </trkpt>
      <trkpt lat="43.85582" lon="5.59076">
        <ele>392.24</ele>
        <time>2012-06-18T14:46:22Z</time>
      </trkpt>
      <trkpt lat="43.85584" lon="5.59065">
        <ele>391.856</ele>
        <time>2012-06-18T14:46:36Z</time>
      </trkpt>
      <trkpt lat="43.85586" lon="5.59064">
        <ele>391.965</ele>
        <time>2012-06-18T14:46:38Z</time>
      </trkpt>
      <trkpt lat="43.85588" lon="5.59057">
        <ele>392.302</ele>
        <time>2012-06-18T14:46:42Z</time>
      </trkpt>
      <trkpt lat="43.8559" lon="5.5906">
        <ele>395.895</ele>
        <time>2012-06-18T14:46:49Z</time>
      </trkpt>
      <trkpt lat="43.85591" lon="5.59066">
        <ele>394.56</ele>
        <time>2012-06-18T14:46:50Z</time>
      </trkpt>
      <trkpt lat="43.85594" lon="5.59078">
        <ele>393.378</ele>
        <time>2012-06-18T14:46:52Z</time>
      </trkpt>
      <trkpt lat="43.85587" lon="5.59074">
        <ele>393.325</ele>
        <time>2012-06-18T14:47:05Z</time>
      </trkpt>
      <trkpt lat="43.85586" lon="5.59068">
        <ele>393.162</ele>
        <time>2012-06-18T14:47:28Z</time>
      </trkpt>
    </trkseg>
  </trk>
</gpx>